Provisional Data: Kishacoquillas Creek near Belleville, PA


Please select a monitoring station.
Please select start date.
Please select start date.

<
Toggle Unit: C/F Toggle Unit: C/F
Sample Time Temperature (C) Temperature (F) Specific Conductivity (mS/cm) pH   Turbidity (NTU+) DO (mg/L)
9/6/2021 12:00:00 AM 15.4 59.72 0.492 7.67 709.1 6.57
9/6/2021 12:15:00 AM 15.33 59.594 0.492 7.68 722.7 6.57
9/6/2021 12:30:00 AM 15.26 59.468 0.493 7.68 709.3 6.58
9/6/2021 12:45:00 AM 15.18 59.324 0.494 7.67 693.4 6.58
9/6/2021 1:00:00 AM 15.1 59.18 0.493 7.67 684.4 6.59
9/6/2021 1:15:00 AM 15.02 59.036 0.494 7.68 672.1 6.6
9/6/2021 1:30:00 AM 14.95 58.91 0.495 7.67 677.9 6.61
9/6/2021 1:45:00 AM 14.88 58.784 0.494 7.67 679.2 6.62
9/6/2021 2:00:00 AM 14.81 58.658 0.494 7.67 672.4 6.63
9/6/2021 2:15:00 AM 14.74 58.532 0.494 7.67 680.3 6.64
9/6/2021 2:30:00 AM 14.68 58.424 0.494 7.67 672.3 6.65
9/6/2021 2:45:00 AM 14.62 58.316 0.494 7.67 671 6.66
9/6/2021 3:00:00 AM 14.57 58.226 0.494 7.67 676.3 6.66
9/6/2021 3:15:00 AM 14.51 58.118 0.494 7.67 677.6 6.67
9/6/2021 3:30:00 AM 14.46 58.028 0.494 7.67 677.2 6.67
9/6/2021 3:45:00 AM 14.41 57.938 0.494 7.67 682.9 6.7
9/6/2021 4:00:00 AM 14.35 57.83 0.494 7.67 653 6.71
9/6/2021 4:15:00 AM 14.3 57.74 0.494 7.68 638.4 6.71
9/6/2021 4:30:00 AM 14.25 57.65 0.494 7.67 639.8 6.73
9/6/2021 4:45:00 AM 14.2 57.56 0.495 7.68 629.4 6.74
9/6/2021 5:00:00 AM 14.15 57.47 0.494 7.68 624.1 6.74
9/6/2021 5:15:00 AM 14.11 57.398 0.494 7.68 614.3 6.75
9/6/2021 5:30:00 AM 14.06 57.308 0.494 7.67 608 6.75
9/6/2021 5:45:00 AM 14.01 57.218 0.494 7.68 616.8 6.77
9/6/2021 6:00:00 AM 13.97 57.146 0.493 7.68 624.6 6.78
9/6/2021 6:15:00 AM 13.92 57.056 0.493 7.67 627.3 6.79
9/6/2021 6:30:00 AM 13.88 56.984 0.493 7.68 632.5 6.81
9/6/2021 6:45:00 AM 13.83 56.894 0.493 7.68 638 6.81
9/6/2021 7:00:00 AM 13.79 56.822 0.493 7.68 637.1 6.83
9/6/2021 7:15:00 AM 13.76 56.768 0.493 7.68 640.1 6.85
9/6/2021 7:30:00 AM 13.72 56.696 0.494 7.69 685.8 6.85
9/6/2021 7:45:00 AM 13.7 56.66 0.494 7.68 636.5 6.88
9/6/2021 8:00:00 AM 13.67 56.606 0.494 7.68 636.9 6.91
9/6/2021 8:15:00 AM 13.66 56.588 0.494 7.69 598.1 6.93
9/6/2021 8:30:00 AM 13.66 56.588 0.495 7.69 637.5 6.96
9/6/2021 8:45:00 AM 13.67 56.606 0.495 7.69 640.4 7
9/6/2021 9:00:00 AM 13.69 56.642 0.495 7.69 633.5 7.04
9/6/2021 9:15:00 AM 13.71 56.678 0.495 7.69 645.4 7.08
9/6/2021 9:30:00 AM 13.74 56.732 0.495 7.7 635 7.12
9/6/2021 9:45:00 AM 13.79 56.822 0.495 7.7 771.5 7.17
9/6/2021 10:00:00 AM 13.85 56.93 0.495 7.71 785.1 7.24
9/6/2021 10:15:00 AM 13.92 57.056 0.496 7.72 768.3 7.29
9/6/2021 10:30:00 AM 14 57.2 0.496 7.72 754.9 7.34
9/6/2021 10:45:00 AM 14.1 57.38 0.496 7.73 762.1 7.4
9/6/2021 11:00:00 AM 14.21 57.578 0.496 7.73 749.3 7.46
9/6/2021 11:15:00 AM 14.33 57.794 0.497 7.73 745.8 7.52
9/6/2021 11:30:00 AM 14.47 58.046 0.497 7.74 745 7.57
9/6/2021 11:45:00 AM 14.62 58.316 0.497 7.75 733.8 7.61
9/6/2021 12:00:00 PM 14.78 58.604 0.497 7.75 731.1 7.68
9/6/2021 12:15:00 PM 14.95 58.91 0.497 7.76 701.7 7.72
9/6/2021 12:30:00 PM 15.13 59.234 0.498 7.77 721.5 7.78
9/6/2021 12:45:00 PM 15.33 59.594 0.498 7.78 674.9 7.82
9/6/2021 1:00:00 PM 15.5 59.9 0.499 7.78 707.3 7.85
9/6/2021 1:15:00 PM 15.7 60.26 0.5 7.79 714.4 7.88
9/6/2021 1:30:00 PM 15.86 60.548 0.499 7.79 727.9 7.9
9/6/2021 1:45:00 PM 16.04 60.872 0.499 7.79 730.1 7.92
9/6/2021 2:00:00 PM 16.17 61.106 0.501 7.8 729.9 7.9
9/6/2021 2:15:00 PM 16.29 61.322 0.501 7.8 788.6 7.87
9/6/2021 2:30:00 PM 16.49 61.682 0.501 7.81 772.2 7.88
9/6/2021 2:45:00 PM 16.71 62.078 0.501 7.81 772.5 7.91
9/6/2021 3:00:00 PM 16.84 62.312 0.501 7.81 752.2 7.86
9/6/2021 3:15:00 PM 17.01 62.618 0.501 7.81 740.8 7.85
9/6/2021 3:30:00 PM 17.23 63.014 0.502 7.82 706.4 7.89
9/6/2021 3:45:00 PM 17.36 63.248 0.503 7.82 709.8 7.88
9/6/2021 4:00:00 PM 17.48 63.464 0.503 7.82 716.4 7.85
9/6/2021 4:15:00 PM 17.58 63.644 0.503 7.82 683.7 7.82
9/6/2021 4:30:00 PM 17.65 63.77 0.504 7.82 690.5 7.77
9/6/2021 4:45:00 PM 17.7 63.86 0.504 7.82 703.2 7.74
9/6/2021 5:00:00 PM 17.75 63.95 0.504 7.82 700.3 7.7
9/6/2021 5:15:00 PM 17.79 64.022 0.504 7.82 722.7 7.65
9/6/2021 5:30:00 PM 17.79 64.022 0.505 7.82 721.4 7.6
9/6/2021 5:45:00 PM 17.79 64.022 0.506 7.82 699 7.51
9/6/2021 6:00:00 PM 17.77 63.986 0.506 7.81 699.5 7.46
9/6/2021 6:15:00 PM 17.74 63.932 0.507 7.81 706.3 7.4
9/6/2021 6:30:00 PM 17.7 63.86 0.508 7.81 708.3 7.34
9/6/2021 6:45:00 PM 17.64 63.752 0.508 7.81 687.6 7.28
9/6/2021 7:00:00 PM 17.57 63.626 0.508 7.79 696.8 7.2
9/6/2021 7:15:00 PM 17.5 63.5 0.509 7.8 682.2 7.15
9/6/2021 7:30:00 PM 17.41 63.338 0.509 7.79 674.1 7.1
9/6/2021 7:45:00 PM 17.32 63.176 0.509 7.79 705.7 7.05
9/6/2021 8:00:00 PM 17.22 62.996 0.51 7.79 636.4 7
9/6/2021 8:15:00 PM 17.12 62.816 0.51 7.78 644.3 6.96
9/6/2021 8:30:00 PM 17.01 62.618 0.51 7.78 632.7 6.91
9/6/2021 8:45:00 PM 16.88 62.384 0.511 7.78 635.6 6.86
9/6/2021 9:00:00 PM 16.74 62.132 0.511 7.77 638.7 6.83
9/6/2021 9:15:00 PM 16.6 61.88 0.512 7.76 644.3 6.8
9/6/2021 9:30:00 PM 16.45 61.61 0.512 7.76 833.5 6.77
9/6/2021 9:45:00 PM 16.3 61.34 0.511 7.75 681.3 6.75
9/6/2021 10:00:00 PM 16.15 61.07 0.512 7.75 686.2 6.73
9/6/2021 10:15:00 PM 16 60.8 0.513 7.75 652.7 6.72
9/6/2021 10:30:00 PM 15.85 60.53 0.513 7.75 861 6.7
9/6/2021 10:45:00 PM 15.71 60.278 0.513 7.75 888.4 6.7
9/6/2021 11:00:00 PM 15.57 60.026 0.514 7.74 890 6.7
9/6/2021 11:15:00 PM 15.43 59.774 0.513 7.74 886.2 6.69
9/6/2021 11:30:00 PM 15.3 59.54 0.513 7.74 880.7 6.7
9/6/2021 11:45:00 PM 15.17 59.306 0.514 7.74 913.7 6.7
9/7/2021 12:00:00 AM 15.04 59.072 0.515 7.74 900.1 6.71
9/7/2021 12:15:00 AM 14.92 58.856 0.513 7.74 897.7 6.73
9/7/2021 12:30:00 AM 14.8 58.64 0.515 7.73 863.5 6.73
9/7/2021 12:45:00 AM 14.68 58.424 0.514 7.73 887.7 6.75
9/7/2021 1:00:00 AM 14.57 58.226 0.515 7.73 911.8 6.77
9/7/2021 1:15:00 AM 14.46 58.028 0.515 7.73 908.7 6.78
9/7/2021 1:30:00 AM 14.36 57.848 0.515 7.73 891.6 6.79
9/7/2021 1:45:00 AM 14.26 57.668 0.516 7.73 939.1 6.81
9/7/2021 2:00:00 AM 14.16 57.488 0.517 7.73 933.8 6.82
9/7/2021 2:15:00 AM 14.08 57.344 0.516 7.73 908.1 6.83
9/7/2021 2:30:00 AM 13.99 57.182 0.516 7.73 929.5 6.85
9/7/2021 2:45:00 AM 13.92 57.056 0.516 7.72 946.5 6.86
9/7/2021 3:00:00 AM 13.85 56.93 0.516 7.73 950.5 6.88
9/7/2021 3:15:00 AM 13.78 56.804 0.516 7.73 934.9 6.88
9/7/2021 3:30:00 AM 13.73 56.714 0.517 7.73 934.6 6.91
9/7/2021 3:45:00 AM 13.68 56.624 0.517 7.73 925.5 6.92
9/7/2021 4:00:00 AM 13.63 56.534 0.517 7.73 935.1 6.92
9/7/2021 4:15:00 AM 13.57 56.426 0.518 7.73 916.8 6.93
9/7/2021 4:30:00 AM 13.53 56.354 0.517 7.73 932 6.94
9/7/2021 4:45:00 AM 13.48 56.264 0.518 7.73 930.8 6.96
9/7/2021 5:00:00 AM 13.44 56.192 0.518 7.73 922.3 6.96
9/7/2021 5:15:00 AM 13.4 56.12 0.518 7.73 927.1 6.97
9/7/2021 5:30:00 AM 13.36 56.048 0.518 7.73 881.1 6.98
9/7/2021 5:45:00 AM 13.33 55.994 0.518 7.73 922.1 6.99
9/7/2021 6:00:00 AM 13.29 55.922 0.518 7.73 918.3 6.99
9/7/2021 6:15:00 AM 13.26 55.868 0.519 7.76 911 7
9/7/2021 6:30:00 AM 13.23 55.814 0.519 7.74 917.8 7.01
9/7/2021 6:45:00 AM 13.2 55.76 0.519 7.73 905.3 7.01
9/7/2021 7:00:00 AM 13.17 55.706 0.519 7.73 908.1 7.03
9/7/2021 7:15:00 AM 13.15 55.67 0.518 7.73 911.3 7.04
9/7/2021 7:30:00 AM 13.13 55.634 0.518 7.73 916 7.06
9/7/2021 7:45:00 AM -99999.99 -179968 -99999.99 -99999.99 -99999.99 -99999.99
9/7/2021 8:00:00 AM 13.1 55.58 0 7 0 0
9/7/2021 8:15:00 AM 13.1 55.58 0.516 7.73 8.15 7.26
9/7/2021 8:30:00 AM 13.11 55.598 0.516 7.73 8.49 7.29
9/7/2021 8:45:00 AM 13.12 55.616 0.516 7.74 8.21 7.33
9/7/2021 9:00:00 AM 13.14 55.652 0.516 7.74 8.52 7.37
9/7/2021 9:15:00 AM 13.17 55.706 0.516 7.74 7.63 7.41
9/7/2021 9:30:00 AM 13.2 55.76 0.517 7.75 7.65 7.47
9/7/2021 9:45:00 AM 13.25 55.85 0.517 7.75 7.71 7.51
9/7/2021 10:00:00 AM 13.32 55.976 0.517 7.76 6.91 7.58
9/7/2021 10:15:00 AM 13.39 56.102 0.517 7.76 7.63 7.63
9/7/2021 10:30:00 AM 13.47 56.246 0.518 7.77 7.03 7.69
9/7/2021 10:45:00 AM 13.57 56.426 0.517 7.77 6.85 7.75
9/7/2021 11:00:00 AM 13.67 56.606 0.518 7.77 7.2 7.81
9/7/2021 11:15:00 AM 13.79 56.822 0.518 7.78 6.9 7.87
9/7/2021 11:30:00 AM 13.92 57.056 0.518 7.79 6.28 7.93
9/7/2021 11:45:00 AM 14.07 57.326 0.518 7.79 6.69 7.99
9/7/2021 12:00:00 PM 14.22 57.596 0.518 7.8 6.52 8.05
9/7/2021 12:15:00 PM 14.37 57.866 0.518 7.8 5.87 8.09
9/7/2021 12:30:00 PM 14.53 58.154 0.519 7.81 5.95 8.15
9/7/2021 12:45:00 PM 14.71 58.478 0.519 7.82 6.03 8.2
9/7/2021 1:00:00 PM 14.89 58.802 0.518 7.82 6 8.24
9/7/2021 1:15:00 PM 15.09 59.162 0.519 7.83 7.73 8.27
9/7/2021 1:30:00 PM 15.28 59.504 0.519 7.84 5.88 8.31
9/7/2021 1:45:00 PM 15.46 59.828 0.519 7.84 5.98 8.33
9/7/2021 2:00:00 PM 15.56 60.008 0.519 7.84 5.61 8.3
9/7/2021 2:15:00 PM 15.71 60.278 0.519 7.85 5.72 8.31
9/7/2021 2:30:00 PM 15.85 60.53 0.519 7.85 6.03 8.27
9/7/2021 2:45:00 PM 15.98 60.764 0.519 7.86 6.74 8.24
9/7/2021 3:00:00 PM 16.16 61.088 0.519 7.86 5.77 8.27
9/7/2021 3:15:00 PM 16.33 61.394 0.519 7.86 5.94 8.27
9/7/2021 3:30:00 PM 16.48 61.664 0.52 7.86 6.79 8.26
9/7/2021 3:45:00 PM 16.6 61.88 0.52 7.86 6.52 8.22
9/7/2021 4:00:00 PM 16.69 62.042 0.52 7.86 6.03 8.15
9/7/2021 4:15:00 PM 16.83 62.294 0.52 7.87 6.59 8.11
9/7/2021 4:30:00 PM 16.98 62.564 0.52 7.86 6.51 8.11
9/7/2021 4:45:00 PM 17.09 62.762 0.52 7.87 6.56 8.07
9/7/2021 5:00:00 PM 17.17 62.906 0.521 7.87 5.87 7.99
9/7/2021 5:15:00 PM 17.26 63.068 0.521 7.86 6.35 7.94
9/7/2021 5:30:00 PM 17.32 63.176 0.521 7.86 5.87 7.9
9/7/2021 5:45:00 PM 17.35 63.23 0.522 7.86 6.11 7.81
9/7/2021 6:00:00 PM 17.37 63.266 0.522 7.86 6.51 7.71
9/7/2021 6:15:00 PM 17.38 63.284 0.522 7.85 6.23 7.66
9/7/2021 6:30:00 PM 17.39 63.302 0.523 7.85 6.04 7.6
9/7/2021 6:45:00 PM 17.38 63.284 0.523 7.85 7.01 7.52
9/7/2021 7:00:00 PM 17.34 63.212 0.524 7.84 6.21 7.43
9/7/2021 7:15:00 PM 17.3 63.14 0.524 7.84 6.18 7.37
9/7/2021 7:30:00 PM 17.24 63.032 0.524 7.83 7.78 7.3
9/7/2021 7:45:00 PM 17.17 62.906 0.524 7.82 6.56 7.24
9/7/2021 8:00:00 PM 17.1 62.78 0.524 7.82 8.06 7.18
9/7/2021 8:15:00 PM 17.03 62.654 0.524 7.81 7.16 7.13
9/7/2021 8:30:00 PM 16.95 62.51 0.523 7.81 6.66 7.08
9/7/2021 8:45:00 PM 16.87 62.366 0.523 7.82 6.96 7.04
9/7/2021 9:00:00 PM 16.79 62.222 0.523 7.8 7.81 6.99
9/7/2021 9:15:00 PM 16.7 62.06 0.524 7.79 8.11 6.95
9/7/2021 9:30:00 PM 16.59 61.862 0.525 7.79 9.52 6.93
9/7/2021 9:45:00 PM 16.48 61.664 0.526 7.78 10.45 6.9
9/7/2021 10:00:00 PM 16.36 61.448 0.526 7.78 8.11 6.88
9/7/2021 10:15:00 PM 16.25 61.25 0.528 7.77 9.14 6.86
9/7/2021 10:30:00 PM 16.12 61.016 0.528 7.77 9.37 6.85
9/7/2021 10:45:00 PM 16 60.8 0.528 7.76 8.97 6.84
9/7/2021 11:00:00 PM 15.88 60.584 0.528 7.76 9.9 6.83
9/7/2021 11:15:00 PM 15.76 60.368 0.527 7.76 11.02 6.82
9/7/2021 11:30:00 PM 15.64 60.152 0.526 7.76 9.14 6.82
9/7/2021 11:45:00 PM 15.54 59.972 0.526 7.75 9.81 6.81
9/8/2021 12:00:00 AM 15.44 59.792 0.526 7.75 9.36 6.81
9/8/2021 12:15:00 AM 15.34 59.612 0.525 7.76 8.15 6.82
9/8/2021 12:30:00 AM 15.23 59.414 0.526 7.76 9.63 6.82
9/8/2021 12:45:00 AM 15.12 59.216 0.526 7.76 8.64 6.83
9/8/2021 1:00:00 AM 15.03 59.054 0.527 7.75 10.16 6.84
9/8/2021 1:15:00 AM 14.93 58.874 0.527 7.75 8.87 6.85
9/8/2021 1:30:00 AM 14.82 58.676 0.527 7.75 8.61 6.86
9/8/2021 1:45:00 AM 14.72 58.496 0.527 7.76 8.47 6.88
9/8/2021 2:00:00 AM 14.64 58.352 0.527 7.76 9.21 6.89
9/8/2021 2:15:00 AM 14.55 58.19 0.527 7.76 9.34 6.9
9/8/2021 2:30:00 AM 14.48 58.064 0.526 7.77 9.02 6.92
9/8/2021 2:45:00 AM 14.41 57.938 0.526 7.76 9.11 6.93
9/8/2021 3:00:00 AM 14.34 57.812 0.526 7.76 9.11 6.94
9/8/2021 3:15:00 AM 14.28 57.704 0.526 7.76 8.45 6.95
9/8/2021 3:30:00 AM 14.22 57.596 0.526 7.76 9.65 6.95
9/8/2021 3:45:00 AM 14.17 57.506 0.526 7.76 9.38 6.96
9/8/2021 4:00:00 AM 14.12 57.416 0.526 7.76 10.66 6.98
9/8/2021 4:15:00 AM 14.06 57.308 0.526 7.76 9.09 6.99
9/8/2021 4:30:00 AM 14 57.2 0.525 7.76 9.23 7
9/8/2021 4:45:00 AM 13.95 57.11 0.526 7.76 8.99 7
9/8/2021 5:00:00 AM 13.91 57.038 0.525 7.76 7.79 7.01
9/8/2021 5:15:00 AM 13.87 56.966 0.525 7.77 7.96 7.02
9/8/2021 5:30:00 AM 13.83 56.894 0.525 7.76 9.01 7.02
9/8/2021 5:45:00 AM 13.79 56.822 0.525 7.76 7.41 7.03
9/8/2021 6:00:00 AM 13.76 56.768 0.525 7.75 8.36 7.03
9/8/2021 6:15:00 AM 13.73 56.714 0.525 7.76 8.01 7.04
9/8/2021 6:30:00 AM 13.71 56.678 0.525 7.76 7.93 7.03
9/8/2021 6:45:00 AM 13.68 56.624 0.524 7.76 7.79 7.04
9/8/2021 7:00:00 AM 13.67 56.606 0.524 7.76 8.1 7.06
9/8/2021 7:15:00 AM 13.66 56.588 0.524 7.76 8.37 7.07
9/8/2021 7:30:00 AM 13.65 56.57 0.524 7.75 8.3 7.09
9/8/2021 7:45:00 AM 13.64 56.552 0.524 7.76 7.4 7.11
9/8/2021 8:00:00 AM 13.64 56.552 0.524 7.76 7.31 7.14
9/8/2021 8:15:00 AM 13.64 56.552 0.524 7.76 6.67 7.18
9/8/2021 8:30:00 AM 13.65 56.57 0.524 7.76 7.43 7.21
9/8/2021 8:45:00 AM 13.66 56.588 0.524 7.76 7.04 7.25
9/8/2021 9:00:00 AM 13.67 56.606 0.524 7.77 6.67 7.27
9/8/2021 9:15:00 AM 13.69 56.642 0.524 7.77 6.04 7.32
9/8/2021 9:30:00 AM 13.72 56.696 0.524 7.77 6.06 7.37
9/8/2021 9:45:00 AM 13.77 56.786 0.524 7.78 6.15 7.44
9/8/2021 10:00:00 AM 13.83 56.894 0.524 7.78 6.78 7.53
9/8/2021 10:15:00 AM 13.9 57.02 0.524 7.79 5.61 7.59
9/8/2021 10:30:00 AM 13.98 57.164 0.524 7.79 5.77 7.65
9/8/2021 10:45:00 AM 14.09 57.362 0.524 7.8 5.57 7.71
9/8/2021 11:00:00 AM 14.22 57.596 0.524 7.8 5.08 7.78
9/8/2021 11:15:00 AM 14.35 57.83 0.524 7.81 5.12 7.83
9/8/2021 11:30:00 AM 14.49 58.082 0.524 7.81 5.91 7.91
9/8/2021 11:45:00 AM 14.79 58.622 0.52 7.82 7.3 7.97
9/8/2021 12:00:00 PM 14.98 58.964 0.519 7.83 6.55 8.05
9/8/2021 12:15:00 PM 15.12 59.216 0.52 7.83 5.45 8.12
9/8/2021 12:30:00 PM 15.14 59.252 0.524 7.84 5.37 8.16
9/8/2021 12:45:00 PM 15.26 59.468 0.524 7.85 5.67 8.18
9/8/2021 1:00:00 PM 15.4 59.72 0.524 7.85 5.35 8.2
9/8/2021 1:15:00 PM 15.53 59.954 0.523 7.86 5.37 8.24
9/8/2021 1:30:00 PM 15.72 60.296 0.523 7.87 5.06 8.3
9/8/2021 1:45:00 PM 15.89 60.602 0.524 7.87 5.37 8.34
9/8/2021 2:00:00 PM 16 60.8 0.523 7.87 5.29 8.33
9/8/2021 2:15:00 PM 16.11 60.998 0.523 7.88 5.19 8.31
9/8/2021 2:30:00 PM 16.28 61.304 0.523 7.89 5.06 8.35
9/8/2021 2:45:00 PM 16.48 61.664 0.523 7.89 5.25 8.39
9/8/2021 3:00:00 PM 16.6 61.88 0.523 7.9 4.29 8.35
9/8/2021 3:15:00 PM 16.7 62.06 0.525 7.89 5.19 8.29
9/8/2021 3:30:00 PM 16.82 62.276 0.524 7.9 5.16 8.26
9/8/2021 3:45:00 PM 16.91 62.438 0.523 7.9 4.76 8.15
9/8/2021 4:00:00 PM 16.94 62.492 0.523 7.89 4.76 7.98
9/8/2021 4:15:00 PM 16.96 62.528 0.524 7.88 4.53 7.85
9/8/2021 4:30:00 PM 17.06 62.708 0.514 7.88 11.91 7.73
9/8/2021 4:45:00 PM 17.49 63.482 0.492 7.92 122.8 7.54
9/8/2021 5:00:00 PM 17.29 63.122 0.498 7.89 39.13 7.48
9/8/2021 5:15:00 PM 17.34 63.212 0.49 7.88 62.82 7.38
9/8/2021 5:30:00 PM 17.39 63.302 0.481 7.88 56.5 7.33
9/8/2021 5:45:00 PM 17.64 63.752 0.451 7.87 85.04 7.16
9/8/2021 6:00:00 PM 18.08 64.544 0.399 7.85 145 6.92
9/8/2021 6:15:00 PM 18.29 64.922 0.375 7.82 126.3 6.72
9/8/2021 6:30:00 PM 18.46 65.228 0.361 7.79 130 6.59
9/8/2021 6:45:00 PM 18.24 64.832 0.397 7.75 101.4 6.57
9/8/2021 7:00:00 PM 17.86 64.148 0.438 7.74 69.15 6.58
9/8/2021 7:15:00 PM 17.61 63.698 0.453 7.75 61.39 6.58
9/8/2021 7:30:00 PM 17.72 63.896 0.429 7.75 134.4 6.42
9/8/2021 7:45:00 PM 18.09 64.562 0.389 7.74 300.6 5.95
9/8/2021 8:00:00 PM 18.32 64.976 0.344 7.73 315.1 5.69
9/8/2021 8:15:00 PM 18.39 65.102 0.316 7.71 247.8 5.63
9/8/2021 8:30:00 PM 18.38 65.084 0.303 7.69 203 5.59
9/8/2021 8:45:00 PM 18.29 64.922 0.302 7.67 173 5.56
9/8/2021 9:00:00 PM 18.16 64.688 0.311 7.64 148.6 5.55
9/8/2021 9:15:00 PM 18.01 64.418 0.32 7.62 129.2 5.56
9/8/2021 9:30:00 PM 17.86 64.148 0.331 7.59 110.5 5.59
9/8/2021 9:45:00 PM 17.71 63.878 0.342 7.58 96.01 5.62
9/8/2021 10:00:00 PM 17.55 63.59 0.354 7.57 87.75 5.65
9/8/2021 10:15:00 PM 17.39 63.302 0.365 7.57 77.38 5.68
9/8/2021 10:30:00 PM 17.21 62.978 0.377 7.57 68.88 5.71
9/8/2021 10:45:00 PM 17.03 62.654 0.388 7.57 61.28 5.76
9/8/2021 11:00:00 PM 16.85 62.33 0.397 7.58 55.54 5.81
9/8/2021 11:15:00 PM 16.68 62.024 0.406 7.58 46.78 5.87
9/8/2021 11:30:00 PM 16.51 61.718 0.413 7.59 42.37 5.93
9/8/2021 11:45:00 PM 16.34 61.412 0.42 7.59 38.41 6
9/9/2021 12:00:00 AM 16.19 61.142 0.426 7.6 36.04 6.05
9/9/2021 12:15:00 AM 16.06 60.908 0.431 7.6 32.48 6.12
9/9/2021 12:30:00 AM 15.93 60.674 0.436 7.61 32.2 6.17
9/9/2021 12:45:00 AM 15.83 60.494 0.44 7.61 30.97 6.22
9/9/2021 1:00:00 AM 15.74 60.332 0.443 7.61 28.96 6.25
9/9/2021 1:15:00 AM 15.65 60.17 0.447 7.62 27.56 6.3
9/9/2021 1:30:00 AM 15.56 60.008 0.45 7.61 28.15 6.33
9/9/2021 1:45:00 AM 15.47 59.846 0.453 7.62 25.16 6.37
9/9/2021 2:00:00 AM 15.39 59.702 0.456 7.62 23.8 6.39
9/9/2021 2:15:00 AM 15.31 59.558 0.458 7.63 24.47 6.43
9/9/2021 2:30:00 AM 15.25 59.45 0.46 7.63 21.47 6.45
9/9/2021 2:45:00 AM 15.18 59.324 0.463 7.64 22.93 6.48
9/9/2021 3:00:00 AM 15.11 59.198 0.464 7.64 19.35 6.5
9/9/2021 3:15:00 AM 15.04 59.072 0.469 7.64 23.11 6.52
9/9/2021 3:30:00 AM 14.98 58.964 0.47 7.65 19.78 6.55
9/9/2021 3:45:00 AM 14.93 58.874 0.472 7.65 18.14 6.57
9/9/2021 4:00:00 AM 14.87 58.766 0.476 7.66 17.53 6.59
9/9/2021 4:15:00 AM 14.82 58.676 0.478 7.66 16.96 6.61
9/9/2021 4:30:00 AM 14.77 58.586 0.479 7.66 18 6.62
9/9/2021 4:45:00 AM 14.72 58.496 0.479 7.66 17.74 6.64
9/9/2021 5:00:00 AM 14.67 58.406 0.481 7.67 16.16 6.65
9/9/2021 5:15:00 AM 14.63 58.334 0.481 7.66 15.28 6.67
9/9/2021 5:30:00 AM 14.59 58.262 0.482 7.66 15.81 6.68
9/9/2021 5:45:00 AM 14.55 58.19 0.482 7.67 14.74 6.7
9/9/2021 6:00:00 AM 14.51 58.118 0.483 7.67 15.58 6.71
9/9/2021 6:15:00 AM 14.48 58.064 0.484 7.67 14.99 6.73
9/9/2021 6:30:00 AM 14.44 57.992 0.485 7.68 13.68 6.73
9/9/2021 6:45:00 AM 14.41 57.938 0.485 7.67 13.28 6.74
9/9/2021 7:00:00 AM 14.39 57.902 0.485 7.68 14.26 6.76
9/9/2021 7:15:00 AM 14.36 57.848 0.486 7.68 12.6 6.78
9/9/2021 7:30:00 AM 14.34 57.812 0.486 7.68 13.56 6.8
9/9/2021 7:45:00 AM 14.32 57.776 0.487 7.68 13.09 6.82
9/9/2021 8:00:00 AM 14.29 57.722 0.488 7.69 10.96 6.83
9/9/2021 8:15:00 AM 14.29 57.722 0.488 7.69 11.08 6.86
9/9/2021 8:30:00 AM 14.29 57.722 0.489 7.69 11.48 6.93
9/9/2021 8:45:00 AM 14.3 57.74 0.489 7.7 10.56 6.96
9/9/2021 9:00:00 AM 14.3 57.74 0.489 7.7 11.24 7.01
9/9/2021 9:15:00 AM 14.31 57.758 0.49 7.71 9.73 7.07
9/9/2021 9:30:00 AM 14.33 57.794 0.49 7.72 9.95 7.13
9/9/2021 9:45:00 AM 14.35 57.83 0.491 7.71 10.8 7.17
9/9/2021 10:00:00 AM 14.36 57.848 0.491 7.72 10.8 7.2
9/9/2021 10:15:00 AM 14.39 57.902 0.492 7.73 8.76 7.25
9/9/2021 10:30:00 AM 14.43 57.974 0.492 7.73 8.04 7.31
9/9/2021 10:45:00 AM 14.46 58.028 0.492 7.74 9.83 7.35
9/9/2021 11:00:00 AM 14.52 58.136 0.492 7.74 7.73 7.42
9/9/2021 11:15:00 AM 14.56 58.208 0.492 7.75 7.27 7.51
9/9/2021 11:30:00 AM 14.62 58.316 0.492 7.75 7.92 7.6
9/9/2021 11:45:00 AM 14.72 58.496 0.493 7.76 7.89 7.69
9/9/2021 12:00:00 PM 14.75 58.55 0.493 7.77 7.45 7.72
9/9/2021 12:15:00 PM 14.83 58.694 0.493 7.78 7.29 7.81
9/9/2021 12:30:00 PM 14.91 58.838 0.493 7.78 6.93 7.87
9/9/2021 12:45:00 PM 14.96 58.928 0.494 7.79 6.59 7.88
9/9/2021 1:00:00 PM 15.04 59.072 0.494 7.79 7.6 7.91
9/9/2021 1:15:00 PM 15.19 59.342 0.494 7.8 7.32 8.02
9/9/2021 1:30:00 PM 15.3 59.54 0.494 7.81 7.21 8.1
9/9/2021 1:45:00 PM 15.43 59.774 0.493 7.81 6.48 8.16
9/9/2021 2:00:00 PM 15.6 60.08 0.494 7.82 7.27 8.23
9/9/2021 2:15:00 PM 15.78 60.404 0.493 7.83 7.47 8.28
9/9/2021 2:30:00 PM 15.79 60.422 0.493 7.83 5.74 8.14
9/9/2021 2:45:00 PM 15.78 60.404 0.493 7.82 6.99 8
9/9/2021 3:00:00 PM 15.84 60.512 0.493 7.83 7 7.96
9/9/2021 3:15:00 PM 15.92 60.656 0.493 7.82 7.07 7.95
9/9/2021 3:30:00 PM 15.96 60.728 0.494 7.83 6.13 7.92
9/9/2021 3:45:00 PM 16.09 60.962 0.494 7.83 6.48 8.04
9/9/2021 4:00:00 PM 16.19 61.142 0.493 7.84 6.28 8.11
9/9/2021 4:15:00 PM 16.26 61.268 0.493 7.84 5.83 8.1
9/9/2021 4:30:00 PM 16.34 61.412 0.494 7.85 5.75 8.06
9/9/2021 4:45:00 PM 16.41 61.538 0.495 7.85 6.57 8.04
9/9/2021 5:00:00 PM 16.48 61.664 0.495 7.85 7.88 7.98
9/9/2021 5:15:00 PM 16.53 61.754 0.495 7.85 5.88 7.95
9/9/2021 5:30:00 PM 16.55 61.79 0.496 7.85 5.74 7.89
9/9/2021 5:45:00 PM 16.56 61.808 0.496 7.85 6.81 7.85
9/9/2021 6:00:00 PM 16.56 61.808 0.497 7.85 6.28 7.79
9/9/2021 6:15:00 PM 16.54 61.772 0.497 7.84 6.5 7.73
9/9/2021 6:30:00 PM 16.53 61.754 0.498 7.84 6.83 7.65
9/9/2021 6:45:00 PM 16.51 61.718 0.498 7.84 5.89 7.57
9/9/2021 7:00:00 PM 16.51 61.718 0.498 7.83 6.54 7.51
9/9/2021 7:15:00 PM 16.5 61.7 0.499 7.83 6.57 7.46
9/9/2021 7:30:00 PM 16.47 61.646 0.5 7.82 5.92 7.4
9/9/2021 7:45:00 PM 16.41 61.538 0.5 7.82 9.06 7.31
9/9/2021 8:00:00 PM 16.35 61.43 0.501 7.82 7.49 7.27
9/9/2021 8:15:00 PM 16.29 61.322 0.501 7.81 8.14 7.21
9/9/2021 8:30:00 PM 16.24 61.232 0.502 7.81 8.72 7.16
9/9/2021 8:45:00 PM 16.18 61.124 0.503 7.8 8.74 7.11
9/9/2021 9:00:00 PM 16.12 61.016 0.503 7.8 8.22 7.07
9/9/2021 9:15:00 PM 16.04 60.872 0.504 7.79 9.39 7.03
9/9/2021 9:30:00 PM 15.95 60.71 0.504 7.79 11.98 6.99
9/9/2021 9:45:00 PM 15.85 60.53 0.504 7.79 8.76 6.96
9/9/2021 10:00:00 PM 15.74 60.332 0.505 7.79 9.2 6.94
9/9/2021 10:15:00 PM 15.64 60.152 0.505 7.78 12.57 6.92
9/9/2021 10:30:00 PM 15.54 59.972 0.506 7.78 10.57 6.9
9/9/2021 10:45:00 PM 15.44 59.792 0.505 7.78 11.21 6.88
9/9/2021 11:00:00 PM 15.34 59.612 0.506 7.78 9.75 6.87
9/9/2021 11:15:00 PM 15.25 59.45 0.505 7.77 12.35 6.85
9/9/2021 11:30:00 PM 15.15 59.27 0.506 7.77 10.09 6.84
9/9/2021 11:45:00 PM 15.06 59.108 0.506 7.77 10.88 6.84
9/10/2021 12:00:00 AM 14.98 58.964 0.506 7.77 10.73 6.84
9/10/2021 12:15:00 AM 14.89 58.802 0.507 7.76 10.54 6.84
9/10/2021 12:30:00 AM 14.81 58.658 0.507 7.76 11.02 6.84
9/10/2021 12:45:00 AM 14.72 58.496 0.507 7.77 10.05 6.84
9/10/2021 1:00:00 AM 14.63 58.334 0.508 7.76 10.04 6.85
9/10/2021 1:15:00 AM 14.55 58.19 0.508 7.76 11.13 6.87
9/10/2021 1:30:00 AM 14.46 58.028 0.508 7.76 9.77 6.86
9/10/2021 1:45:00 AM 14.38 57.884 0.507 7.76 10.42 6.89
9/10/2021 2:00:00 AM 14.3 57.74 0.508 7.77 10.11 6.9
9/10/2021 2:15:00 AM 14.22 57.596 0.509 7.76 11.44 6.91
9/10/2021 2:30:00 AM 14.14 57.452 0.509 7.76 11.91 6.93
9/10/2021 2:45:00 AM 14.06 57.308 0.509 7.77 12.56 6.94
9/10/2021 3:00:00 AM 13.99 57.182 0.51 7.77 12.28 6.95
9/10/2021 3:15:00 AM 13.92 57.056 0.51 7.76 10.97 6.96
9/10/2021 3:30:00 AM 13.85 56.93 0.511 7.77 11.81 6.97
9/10/2021 3:45:00 AM 13.79 56.822 0.51 7.76 11.65 6.99
9/10/2021 4:00:00 AM 13.73 56.714 0.51 7.76 11.02 6.99
9/10/2021 4:15:00 AM 13.68 56.624 0.51 7.76 11.14 7.01
9/10/2021 4:30:00 AM 13.63 56.534 0.511 7.77 10.66 7.02
9/10/2021 4:45:00 AM 13.58 56.444 0.511 7.76 9.3 7.03
9/10/2021 5:00:00 AM 13.53 56.354 0.511 7.76 9.61 7.04
9/10/2021 5:15:00 AM 13.49 56.282 0.511 7.77 9.47 7.05
9/10/2021 5:30:00 AM 13.45 56.21 0.511 7.77 9 7.06
9/10/2021 5:45:00 AM 13.42 56.156 0.511 7.77 9.8 7.06
9/10/2021 6:00:00 AM 13.38 56.084 0.511 7.77 8.87 7.08
9/10/2021 6:15:00 AM 13.35 56.03 0.511 7.77 9.09 7.06
9/10/2021 6:30:00 AM 13.33 55.994 0.511 7.76 9.24 7.09
9/10/2021 6:45:00 AM 13.31 55.958 0.511 7.76 8.75 7.09
9/10/2021 7:00:00 AM 13.29 55.922 0.511 7.77 8.65 7.11
9/10/2021 7:15:00 AM 13.27 55.886 0.511 7.77 8.22 7.13
9/10/2021 7:30:00 AM 13.24 55.832 0.511 7.77 8.62 7.15
9/10/2021 7:45:00 AM 13.23 55.814 0.512 7.77 7.91 7.17
9/10/2021 8:00:00 AM 13.23 55.814 0.511 7.77 7.26 7.21
9/10/2021 8:15:00 AM 13.23 55.814 0.511 7.78 8.61 7.26
9/10/2021 8:30:00 AM 13.22 55.796 0.512 7.78 7.27 7.31
9/10/2021 8:45:00 AM 13.24 55.832 0.511 7.79 6.69 7.38
9/10/2021 9:00:00 AM 13.25 55.85 0.511 7.79 6.97 7.43
9/10/2021 9:15:00 AM 13.28 55.904 0.512 7.79 7.41 7.48
9/10/2021 9:30:00 AM 13.31 55.958 0.511 7.79 6.38 7.54
9/10/2021 9:45:00 AM 13.35 56.03 0.512 7.79 6.03 7.61
9/10/2021 10:00:00 AM 13.41 56.138 0.512 7.8 6.14 7.67
9/10/2021 10:15:00 AM 13.46 56.228 0.512 7.81 5.91 7.73
9/10/2021 10:30:00 AM 13.53 56.354 0.512 7.81 5.82 7.8
9/10/2021 10:45:00 AM 13.61 56.498 0.511 7.81 5.33 7.87
9/10/2021 11:00:00 AM 13.71 56.678 0.511 7.82 5.41 7.97
9/10/2021 11:15:00 AM 13.8 56.84 0.512 7.83 5.17 8.05
9/10/2021 11:30:00 AM 13.92 57.056 0.512 7.84 5.26 8.14
9/10/2021 11:45:00 AM 14.05 57.29 0.512 7.84 5.33 8.23
9/10/2021 12:00:00 PM 14.2 57.56 0.512 7.85 5.07 8.31
9/10/2021 12:15:00 PM 14.34 57.812 0.512 7.86 6.03 8.39
9/10/2021 12:30:00 PM 14.47 58.046 0.511 7.86 4.91 8.44
9/10/2021 12:45:00 PM 14.56 58.208 0.512 7.87 5.35 8.46
9/10/2021 1:00:00 PM 14.64 58.352 0.512 7.87 5.73 8.48
9/10/2021 1:15:00 PM 14.69 58.442 0.512 7.88 5.11 8.46
9/10/2021 1:30:00 PM 14.87 58.766 0.512 7.89 5.19 8.55
9/10/2021 1:45:00 PM 15.09 59.162 0.512 7.89 6.19 8.64
9/10/2021 2:00:00 PM 15.23 59.414 0.513 7.9 4.82 8.67
9/10/2021 2:15:00 PM 15.33 59.594 0.511 7.91 4.82 8.69
9/10/2021 2:30:00 PM 15.47 59.846 0.513 7.91 5.49 8.72
9/10/2021 2:45:00 PM 15.57 60.026 0.511 7.91 4.48 8.68
9/10/2021 3:00:00 PM 15.68 60.224 0.515 7.91 4.36 8.67
9/10/2021 3:15:00 PM 15.76 60.368 0.514 7.92 4.69 8.56
9/10/2021 3:30:00 PM 15.83 60.494 0.516 7.91 5.38 8.46
9/10/2021 3:45:00 PM 15.91 60.638 0.517 7.91 5.7 8.38
9/10/2021 4:00:00 PM 15.98 60.764 0.517 7.92 4.92 8.35
9/10/2021 4:15:00 PM 16.03 60.854 0.518 7.91 4.69 8.29
9/10/2021 4:30:00 PM 16.08 60.944 0.518 7.91 5.01 8.26
9/10/2021 4:45:00 PM 16.16 61.088 0.519 7.91 4.27 8.31
9/10/2021 5:00:00 PM 16.2 61.16 0.517 7.91 4.68 8.25
9/10/2021 5:15:00 PM 16.23 61.214 0.519 7.91 4.5 8.17
9/10/2021 5:30:00 PM 16.26 61.268 0.519 7.91 5.33 8.15
9/10/2021 5:45:00 PM 16.27 61.286 0.516 7.91 5.36 8.08
9/10/2021 6:00:00 PM 16.3 61.34 0.517 7.91 5.52 8.01
9/10/2021 6:15:00 PM 16.32 61.376 0.518 7.9 4.52 7.93
9/10/2021 6:30:00 PM 16.34 61.412 0.517 7.9 4.67 7.88
9/10/2021 6:45:00 PM 16.35 61.43 0.518 7.89 6.3 7.81
9/10/2021 7:00:00 PM 16.35 61.43 0.519 7.89 4.74 7.72
9/10/2021 7:15:00 PM 16.33 61.394 0.52 7.88 4.82 7.64
9/10/2021 7:30:00 PM 16.31 61.358 0.52 7.87 4.85 7.56
9/10/2021 7:45:00 PM 16.26 61.268 0.521 7.87 7.16 7.47
9/10/2021 8:00:00 PM 16.2 61.16 0.521 7.86 5.51 7.41
9/10/2021 8:15:00 PM 16.15 61.07 0.52 7.86 6.26 7.35
9/10/2021 8:30:00 PM 16.09 60.962 0.52 7.85 5.68 7.29
9/10/2021 8:45:00 PM 16.02 60.836 0.52 7.85 5.77 7.24
9/10/2021 9:00:00 PM 15.94 60.692 0.52 7.84 7.34 7.19
9/10/2021 9:15:00 PM 15.86 60.548 0.521 7.84 6.6 7.15
9/10/2021 9:30:00 PM 15.76 60.368 0.521 7.84 10.76 7.12
9/10/2021 9:45:00 PM 15.66 60.188 0.522 7.83 6.88 7.09
9/10/2021 10:00:00 PM 15.56 60.008 0.522 7.82 9.65 7.06
9/10/2021 10:15:00 PM 15.45 59.81 0.523 7.82 7.64 7.05
9/10/2021 10:30:00 PM 15.34 59.612 0.523 7.82 8.65 7.02
9/10/2021 10:45:00 PM 15.23 59.414 0.523 7.81 8.34 7
9/10/2021 11:00:00 PM 15.12 59.216 0.523 7.81 8.07 6.99
9/10/2021 11:15:00 PM 15.01 59.018 0.524 7.81 8.27 6.98
9/10/2021 11:30:00 PM 14.9 58.82 0.523 7.8 7.85 6.98
9/10/2021 11:45:00 PM 14.78 58.604 0.522 7.81 8.74 6.98
9/11/2021 12:00:00 AM 14.67 58.406 0.522 7.8 8.26 6.97
9/11/2021 12:15:00 AM 14.57 58.226 0.524 7.8 8.1 6.98
9/11/2021 12:30:00 AM 14.46 58.028 0.523 7.8 9.37 6.99
9/11/2021 12:45:00 AM 14.36 57.848 0.523 7.8 9.44 6.99
9/11/2021 1:00:00 AM 14.25 57.65 0.524 7.79 7.64 7
9/11/2021 1:15:00 AM 14.16 57.488 0.525 7.79 7.55 7
9/11/2021 1:30:00 AM 14.07 57.326 0.525 7.79 14.05 7.02
9/11/2021 1:45:00 AM 13.98 57.164 0.525 7.79 8.17 7.02
9/11/2021 2:00:00 AM 13.89 57.002 0.526 7.79 8.2 7.04
9/11/2021 2:15:00 AM 13.81 56.858 0.526 7.79 7.48 7.05
9/11/2021 2:30:00 AM 13.73 56.714 0.525 7.79 8.41 7.06
9/11/2021 2:45:00 AM 13.65 56.57 0.525 7.79 8.93 7.08
9/11/2021 3:00:00 AM 13.57 56.426 0.525 7.79 7.58 7.09
9/11/2021 3:15:00 AM 13.5 56.3 0.525 7.79 8.06 7.11
9/11/2021 3:30:00 AM 13.42 56.156 0.525 7.79 7.22 7.11
9/11/2021 3:45:00 AM 13.35 56.03 0.525 7.8 7.08 7.13
9/11/2021 4:00:00 AM 13.28 55.904 0.526 7.8 7.24 7.14
9/11/2021 4:15:00 AM 13.21 55.778 0.526 7.78 7.78 7.16
9/11/2021 4:30:00 AM 13.15 55.67 0.527 7.79 7.51 7.17
9/11/2021 4:45:00 AM 13.09 55.562 0.526 7.78 7.91 7.18
9/11/2021 5:00:00 AM 13.03 55.454 0.526 7.78 7.14 7.19
9/11/2021 5:15:00 AM 12.97 55.346 0.527 7.78 8.09 7.2
9/11/2021 5:30:00 AM 12.93 55.274 0.527 7.78 8.12 7.22
9/11/2021 5:45:00 AM 12.88 55.184 0.527 7.78 6.71 7.22
9/11/2021 6:00:00 AM 12.84 55.112 0.526 7.78 7.19 7.24
9/11/2021 6:15:00 AM 12.81 55.058 0.527 7.78 7.36 7.24
9/11/2021 6:30:00 AM 12.77 54.986 0.526 7.78 8.86 7.24
9/11/2021 6:45:00 AM 12.74 54.932 0.525 7.79 8.12 7.26
9/11/2021 7:00:00 AM 12.7 54.86 0.525 7.79 8.43 7.28
9/11/2021 7:15:00 AM 12.67 54.806 0.527 7.78 6.82 7.3
9/11/2021 7:30:00 AM 12.64 54.752 0.528 7.78 7.48 7.34
9/11/2021 7:45:00 AM 12.62 54.716 0.527 7.79 7.31 7.39
9/11/2021 8:00:00 AM 12.61 54.698 0.527 7.79 6.36 7.44
9/11/2021 8:15:00 AM 12.59 54.662 0.526 7.79 6.37 7.49
9/11/2021 8:30:00 AM 12.59 54.662 0.526 7.8 6.39 7.55
9/11/2021 8:45:00 AM 12.61 54.698 0.527 7.81 6.31 7.65
9/11/2021 9:00:00 AM 12.63 54.734 0.527 7.81 5.46 7.72
9/11/2021 9:15:00 AM 12.65 54.77 0.527 7.81 5.25 7.8
9/11/2021 9:30:00 AM 12.68 54.824 0.526 7.82 5.38 7.86
9/11/2021 9:45:00 AM 12.73 54.914 0.526 7.82 4.78 7.95
9/11/2021 10:00:00 AM 12.78 55.004 0.526 7.83 4.92 8.02
9/11/2021 10:15:00 AM 12.85 55.13 0.525 7.84 4.6 8.09
9/11/2021 10:30:00 AM 12.94 55.292 0.526 7.84 4.45 8.19
9/11/2021 10:45:00 AM 13.03 55.454 0.526 7.85 4.37 8.27
9/11/2021 11:00:00 AM 13.14 55.652 0.526 7.86 4.38 8.36
9/11/2021 11:15:00 AM 13.25 55.85 0.526 7.86 4.35 8.44
9/11/2021 11:30:00 AM 13.39 56.102 0.526 7.87 4.35 8.52
9/11/2021 11:45:00 AM 13.53 56.354 0.526 7.88 4.34 8.59
9/11/2021 12:00:00 PM 13.68 56.624 0.525 7.89 4.78 8.67
9/11/2021 12:15:00 PM 13.83 56.894 0.525 7.9 4.73 8.74
9/11/2021 12:30:00 PM 14 57.2 0.526 7.9 4.31 8.8
9/11/2021 12:45:00 PM 14.18 57.524 0.524 7.91 4.43 8.87
9/11/2021 1:00:00 PM 14.36 57.848 0.523 7.91 7.45 8.92
9/11/2021 1:15:00 PM 14.43 57.974 0.524 7.92 4.7 8.86
9/11/2021 1:30:00 PM 14.49 58.082 0.524 7.92 4.28 8.8
9/11/2021 1:45:00 PM 14.6 58.28 0.522 7.92 4.06 8.8
9/11/2021 2:00:00 PM 14.79 58.622 0.521 7.93 4.09 8.86
9/11/2021 2:15:00 PM 15.02 59.036 0.523 7.94 4.02 8.97
9/11/2021 2:30:00 PM 15.16 59.288 0.526 7.95 4.14 8.95
9/11/2021 2:45:00 PM 15.27 59.486 0.525 7.95 4.26 8.9
9/11/2021 3:00:00 PM 15.45 59.81 0.526 7.95 3.91 8.96
9/11/2021 3:15:00 PM 15.58 60.044 0.527 7.96 4.43 8.93
9/11/2021 3:30:00 PM 15.72 60.296 0.525 7.96 4.09 8.92
9/11/2021 3:45:00 PM 15.89 60.602 0.525 7.97 4.12 8.93
9/11/2021 4:00:00 PM 16.04 60.872 0.527 7.97 5.24 8.9
9/11/2021 4:15:00 PM 16.18 61.124 0.527 7.97 5.22 8.86
9/11/2021 4:30:00 PM 16.3 61.34 0.528 7.97 4.12 8.82
9/11/2021 4:45:00 PM 16.42 61.556 0.528 7.97 4.45 8.78
9/11/2021 5:00:00 PM 16.55 61.79 0.527 7.98 3.79 8.74
9/11/2021 5:15:00 PM 16.64 61.952 0.527 7.98 4.79 8.67
9/11/2021 5:30:00 PM 16.71 62.078 0.525 7.97 4.33 8.58
9/11/2021 5:45:00 PM 16.76 62.168 0.525 7.97 3.97 8.49
9/11/2021 6:00:00 PM 16.8 62.24 0.526 7.96 4.28 8.38
9/11/2021 6:15:00 PM 16.82 62.276 0.526 7.96 5.05 8.26
9/11/2021 6:30:00 PM 16.84 62.312 0.526 7.96 4.16 8.16
9/11/2021 6:45:00 PM 16.84 62.312 0.527 7.95 4.15 8.03
9/11/2021 7:00:00 PM 16.82 62.276 0.528 7.94 4.61 7.92
9/11/2021 7:15:00 PM 16.79 62.222 0.528 7.94 4.38 7.8
9/11/2021 7:30:00 PM 16.76 62.168 0.528 7.93 4.38 7.69
9/11/2021 7:45:00 PM 16.71 62.078 0.529 7.92 4.64 7.59
9/11/2021 8:00:00 PM 16.66 61.988 0.529 7.91 4.59 7.49
9/11/2021 8:15:00 PM 16.6 61.88 0.529 7.9 5.44 7.4
9/11/2021 8:30:00 PM 16.54 61.772 0.529 7.89 5.53 7.34
9/11/2021 8:45:00 PM 16.47 61.646 0.53 7.88 5.68 7.27
9/11/2021 9:00:00 PM 16.4 61.52 0.531 7.88 5.55 7.22
9/11/2021 9:15:00 PM 16.32 61.376 0.531 7.87 5.48 7.17
9/11/2021 9:30:00 PM 16.24 61.232 0.531 7.87 5.16 7.12
9/11/2021 9:45:00 PM 16.15 61.07 0.532 7.86 5.7 7.09
9/11/2021 10:00:00 PM 16.06 60.908 0.532 7.85 6.71 7.04
9/11/2021 10:15:00 PM 15.96 60.728 0.532 7.85 6.23 7.01
9/11/2021 10:30:00 PM 15.86 60.548 0.533 7.84 6.85 6.98
9/11/2021 10:45:00 PM 15.75 60.35 0.534 7.84 6.04 6.96
9/11/2021 11:00:00 PM 15.64 60.152 0.535 7.83 6.94 6.95
9/11/2021 11:15:00 PM 15.53 59.954 0.535 7.83 6.86 6.93
9/11/2021 11:30:00 PM 15.42 59.756 0.534 7.82 6.24 6.92
9/11/2021 11:45:00 PM 15.31 59.558 0.534 7.82 6.87 6.91
9/12/2021 12:00:00 AM 15.21 59.378 0.534 7.82 6.84 6.9
9/12/2021 12:15:00 AM 15.1 59.18 0.535 7.82 7.4 6.9
9/12/2021 12:30:00 AM 14.99 58.982 0.534 7.81 7.19 6.9
9/12/2021 12:45:00 AM 14.9 58.82 0.534 7.81 6.81 6.91
9/12/2021 1:00:00 AM 14.8 58.64 0.535 7.81 6.46 6.91
9/12/2021 1:15:00 AM 14.7 58.46 0.533 7.81 6.84 6.92
9/12/2021 1:30:00 AM 14.61 58.298 0.534 7.8 6.88 6.92
9/12/2021 1:45:00 AM 14.52 58.136 0.534 7.81 6.41 6.93
9/12/2021 2:00:00 AM 14.42 57.956 0.534 7.8 6.39 6.94
9/12/2021 2:15:00 AM 14.34 57.812 0.534 7.8 6.49 6.96
9/12/2021 2:30:00 AM 14.25 57.65 0.534 7.8 7.44 6.97
9/12/2021 2:45:00 AM 14.16 57.488 0.534 7.8 6.5 6.98
9/12/2021 3:00:00 AM 14.08 57.344 0.534 7.8 7.99 6.98
9/12/2021 3:15:00 AM 14.01 57.218 0.535 7.79 6.51 7
9/12/2021 3:30:00 AM 13.93 57.074 0.535 7.79 7.34 7.02
9/12/2021 3:45:00 AM 13.86 56.948 0.534 7.79 6.11 7.03
9/12/2021 4:00:00 AM 13.79 56.822 0.535 7.79 7.26 7.04
9/12/2021 4:15:00 AM 13.72 56.696 0.535 7.79 6.3 7.05
9/12/2021 4:30:00 AM 13.65 56.57 0.534 7.79 6.24 7.07
9/12/2021 4:45:00 AM 13.59 56.462 0.535 7.79 7.53 7.08
9/12/2021 5:00:00 AM 13.53 56.354 0.534 7.8 6.22 7.09
9/12/2021 5:15:00 AM 13.47 56.246 0.534 7.79 7.13 7.11
9/12/2021 5:30:00 AM 13.42 56.156 0.534 7.79 6.75 7.11
9/12/2021 5:45:00 AM 13.38 56.084 0.534 7.79 5.96 7.12
9/12/2021 6:00:00 AM 13.34 56.012 0.534 7.79 6.55 7.13
9/12/2021 6:15:00 AM 13.29 55.922 0.533 7.79 6.25 7.15
9/12/2021 6:30:00 AM 13.26 55.868 0.532 7.79 6.05 7.15
9/12/2021 6:45:00 AM 13.22 55.796 0.533 7.78 6.36 7.16
9/12/2021 7:00:00 AM 13.19 55.742 0.532 7.79 5.99 7.17
9/12/2021 7:15:00 AM 13.16 55.688 0.533 7.79 6.44 7.19
9/12/2021 7:30:00 AM 13.15 55.67 0.533 7.79 5.59 7.24
9/12/2021 7:45:00 AM 13.13 55.634 0.533 7.79 5.96 7.25
9/12/2021 8:00:00 AM 13.11 55.598 0.533 7.79 6.08 7.31
9/12/2021 8:15:00 AM 13.11 55.598 0.533 7.8 5.65 7.37
9/12/2021 8:30:00 AM 13.12 55.616 0.532 7.8 5.24 7.45
9/12/2021 8:45:00 AM 13.14 55.652 0.531 7.81 5.22 7.53
9/12/2021 9:00:00 AM 13.17 55.706 0.533 7.81 5.47 7.62
9/12/2021 9:15:00 AM 13.2 55.76 0.531 7.82 5.01 7.71
9/12/2021 9:30:00 AM 13.25 55.85 0.531 7.82 4.89 7.81
9/12/2021 9:45:00 AM 13.31 55.958 0.532 7.83 4.32 7.91
9/12/2021 10:00:00 AM 13.38 56.084 0.531 7.85 4.46 8.02
9/12/2021 10:15:00 AM 13.46 56.228 0.531 7.85 4.69 8.12
9/12/2021 10:30:00 AM 13.51 56.318 0.532 7.86 4.96 8.19
9/12/2021 10:45:00 AM 13.58 56.444 0.531 7.86 4.71 8.24
9/12/2021 11:00:00 AM 13.63 56.534 0.531 7.86 4.68 8.26
9/12/2021 11:15:00 AM 13.76 56.768 0.53 7.88 4.31 8.39
9/12/2021 11:30:00 AM 13.92 57.056 0.53 7.89 4.78 8.53
9/12/2021 11:45:00 AM 14.08 57.344 0.531 7.9 4.72 8.66
9/12/2021 12:00:00 PM 14.25 57.65 0.531 7.92 4.13 8.78
9/12/2021 12:15:00 PM 14.42 57.956 0.531 7.92 4.49 8.88
9/12/2021 12:30:00 PM 14.57 58.226 0.532 7.93 4.38 8.96
9/12/2021 12:45:00 PM 14.74 58.532 0.532 7.94 4.61 9.04
9/12/2021 1:00:00 PM 14.93 58.874 0.532 7.95 4.39 9.11
9/12/2021 1:15:00 PM 15.12 59.216 0.533 7.96 4.14 9.17
9/12/2021 1:30:00 PM 15.3 59.54 0.534 7.96 4.56 9.2
9/12/2021 1:45:00 PM 15.46 59.828 0.534 7.97 4.56 9.24
9/12/2021 2:00:00 PM 15.62 60.116 0.533 7.98 5.56 9.27
9/12/2021 2:15:00 PM 15.76 60.368 0.534 7.99 5.18 9.28
9/12/2021 2:30:00 PM 15.94 60.692 0.53 7.99 4.23 9.32
9/12/2021 2:45:00 PM 16.11 60.998 0.531 8 4.62 9.32
9/12/2021 3:00:00 PM 16.27 61.286 0.529 8.01 4.53 9.34
9/12/2021 3:15:00 PM 16.41 61.538 0.526 8.01 4.46 9.32
9/12/2021 3:30:00 PM 16.54 61.772 0.528 8.01 4.21 9.29
9/12/2021 3:45:00 PM 16.67 62.006 0.53 8.01 4.27 9.26
9/12/2021 4:00:00 PM 16.8 62.24 0.534 8.02 4.45 9.21
9/12/2021 4:15:00 PM 16.91 62.438 0.531 8.02 4.55 9.16
9/12/2021 4:30:00 PM 17.03 62.654 0.53 8.03 4.39 9.11
9/12/2021 4:45:00 PM 17.12 62.816 0.521 8.03 4.09 9.05
9/12/2021 5:00:00 PM 17.2 62.96 0.531 8.02 4.31 8.96
9/12/2021 5:15:00 PM 17.29 63.122 0.531 8.02 4.21 8.87
9/12/2021 5:30:00 PM 17.37 63.266 0.533 8.02 4.66 8.79
9/12/2021 5:45:00 PM 17.44 63.392 0.533 8.01 4.35 8.68
9/12/2021 6:00:00 PM 17.5 63.5 0.533 8 4.92 8.53
9/12/2021 6:15:00 PM 17.55 63.59 0.531 7.99 4.62 8.39
9/12/2021 6:30:00 PM 17.58 63.644 0.532 7.99 4.87 8.26
9/12/2021 6:45:00 PM 17.6 63.68 0.533 7.99 4.52 8.12
9/12/2021 7:00:00 PM 17.6 63.68 0.533 7.98 4.46 7.97
9/12/2021 7:15:00 PM 17.6 63.68 0.533 7.96 5.02 7.83
9/12/2021 7:30:00 PM 17.59 63.662 0.533 7.95 4.79 7.7
9/12/2021 7:45:00 PM 17.57 63.626 0.534 7.94 4.71 7.59
9/12/2021 8:00:00 PM 17.54 63.572 0.535 7.93 4.73 7.46
9/12/2021 8:15:00 PM 17.51 63.518 0.535 7.92 5.41 7.36
9/12/2021 8:30:00 PM 17.47 63.446 0.535 7.91 5.11 7.27
9/12/2021 8:45:00 PM 17.43 63.374 0.533 7.91 5.69 7.17
9/12/2021 9:00:00 PM 17.38 63.284 0.534 7.9 5.92 7.08
9/12/2021 9:15:00 PM 17.33 63.194 0.534 7.89 5.46 7
9/12/2021 9:30:00 PM 17.27 63.086 0.534 7.87 6.89 6.96
9/12/2021 9:45:00 PM 17.2 62.96 0.535 7.87 6.81 6.91
9/12/2021 10:00:00 PM 17.14 62.852 0.535 7.86 5.65 6.87
9/12/2021 10:15:00 PM 17.06 62.708 0.536 7.85 5.71 6.83
9/12/2021 10:30:00 PM 16.98 62.564 0.536 7.85 5.86 6.78
9/12/2021 10:45:00 PM 16.9 62.42 0.536 7.84 5.59 6.74
9/12/2021 11:00:00 PM 16.81 62.258 0.536 7.84 6.32 6.71
9/12/2021 11:15:00 PM 16.73 62.114 0.539 7.83 6.71 6.69
9/12/2021 11:30:00 PM 16.64 61.952 0.538 7.83 6.08 6.67
9/12/2021 11:45:00 PM 16.55 61.79 0.538 7.83 6.16 6.67
9/13/2021 12:00:00 AM 16.46 61.628 0.538 7.82 6.1 6.66
9/13/2021 12:15:00 AM 16.38 61.484 0.538 7.82 6.74 6.65
9/13/2021 12:30:00 AM 16.29 61.322 0.539 7.82 6.7 6.63
9/13/2021 12:45:00 AM 16.2 61.16 0.538 7.82 6.87 6.64
9/13/2021 1:00:00 AM 16.12 61.016 0.538 7.82 6.55 6.64
9/13/2021 1:15:00 AM 16.05 60.89 0.538 7.82 6.26 6.65
9/13/2021 1:30:00 AM 15.99 60.782 0.538 7.81 6.91 6.65
9/13/2021 1:45:00 AM 15.92 60.656 0.538 7.82 6.38 6.65
9/13/2021 2:00:00 AM 15.86 60.548 0.539 7.82 7.37 6.66
9/13/2021 2:15:00 AM 15.8 60.44 0.539 7.82 5.93 6.66
9/13/2021 2:30:00 AM 15.74 60.332 0.54 7.82 6.32 6.68
9/13/2021 2:45:00 AM 15.68 60.224 0.54 7.82 6.8 6.68
9/13/2021 3:00:00 AM 15.63 60.134 0.539 7.82 7.52 6.69
9/13/2021 3:15:00 AM 15.57 60.026 0.54 7.82 7.22 6.7
9/13/2021 3:30:00 AM 15.53 59.954 0.54 7.82 6.87 6.7
9/13/2021 3:45:00 AM 15.48 59.864 0.54 7.82 7.06 6.71
9/13/2021 4:00:00 AM 15.44 59.792 0.54 7.82 6.43 6.72
9/13/2021 4:15:00 AM 15.39 59.702 0.539 7.82 7.27 6.74
9/13/2021 4:30:00 AM 15.36 59.648 0.539 7.82 7.38 6.74
9/13/2021 4:45:00 AM 15.32 59.576 0.539 7.82 6.17 6.75
9/13/2021 5:00:00 AM 15.28 59.504 0.539 7.82 8.46 6.76
9/13/2021 5:15:00 AM 15.25 59.45 0.539 7.83 6.5 6.77
9/13/2021 5:30:00 AM 15.22 59.396 0.538 7.82 6.31 6.78
9/13/2021 5:45:00 AM 15.18 59.324 0.539 7.82 6.9 6.78
9/13/2021 6:00:00 AM 15.14 59.252 0.539 7.82 6.09 6.79
9/13/2021 6:15:00 AM 15.11 59.198 0.539 7.82 6.39 6.79
9/13/2021 6:30:00 AM 15.08 59.144 0.538 7.82 6.97 6.8
9/13/2021 6:45:00 AM 15.06 59.108 0.539 7.82 6.3 6.81
9/13/2021 7:00:00 AM 15.04 59.072 0.539 7.82 6.71 6.81
9/13/2021 7:15:00 AM 15.02 59.036 0.539 7.82 6.46 6.84
9/13/2021 7:30:00 AM 15 59 0.538 7.82 6.56 6.87
9/13/2021 7:45:00 AM 14.99 58.982 0.538 7.83 6.97 6.92
9/13/2021 8:00:00 AM 14.99 58.982 0.539 7.83 6.21 6.97
9/13/2021 8:15:00 AM 14.99 58.982 0.539 7.84 5.58 7.03
9/13/2021 8:30:00 AM 15 59 0.539 7.84 5.59 7.12
9/13/2021 8:45:00 AM 15.02 59.036 0.539 7.84 5.85 7.17
9/13/2021 9:00:00 AM 15.03 59.054 0.538 7.85 5.4 7.2
9/13/2021 9:15:00 AM 15.04 59.072 0.538 7.85 5.43 7.24
9/13/2021 9:30:00 AM 15.05 59.09 0.537 7.85 4.98 7.31
9/13/2021 9:45:00 AM 15.07 59.126 0.538 7.86 4.84 7.4
9/13/2021 10:00:00 AM 15.12 59.216 0.537 7.87 5.48 7.49
9/13/2021 10:15:00 AM 15.2 59.36 0.537 7.88 5.41 7.7
9/13/2021 10:30:00 AM 15.28 59.504 0.537 7.89 5.44 7.86
9/13/2021 10:45:00 AM 15.34 59.612 0.536 7.9 5.53 7.98
9/13/2021 11:00:00 AM 15.38 59.684 0.537 7.9 5.95 8.02
9/13/2021 11:15:00 AM 15.44 59.792 0.536 7.91 5.15 8.09
9/13/2021 11:30:00 AM 15.49 59.882 0.536 7.91 5.31 8.14
9/13/2021 11:45:00 AM 15.52 59.936 0.535 7.91 4.92 8.14
9/13/2021 12:00:00 PM 15.54 59.972 0.536 7.92 5.57 8.12
9/13/2021 12:15:00 PM 15.56 60.008 0.536 7.92 4.96 8.13
9/13/2021 12:30:00 PM 15.6 60.08 0.536 7.93 4.29 8.22
9/13/2021 12:45:00 PM 15.65 60.17 0.536 7.94 4.23 8.29
9/13/2021 1:00:00 PM 15.7 60.26 0.537 7.95 4.56 8.36
9/13/2021 1:15:00 PM 15.78 60.404 0.538 7.95 4.67 8.41
9/13/2021 1:30:00 PM 15.84 60.512 0.537 7.96 4.51 8.47
9/13/2021 1:45:00 PM 15.95 60.71 0.536 7.97 4.59 8.63
9/13/2021 2:00:00 PM 16.06 60.908 0.536 7.98 4.45 8.79
9/13/2021 2:15:00 PM 16.2 61.16 0.534 7.99 4.62 8.96
9/13/2021 2:30:00 PM 16.28 61.304 0.536 8 4.65 8.99
9/13/2021 2:45:00 PM 16.37 61.466 0.537 8 4.89 8.96
9/13/2021 3:00:00 PM 16.46 61.628 0.537 8.01 5.22 8.96
9/13/2021 3:15:00 PM 16.65 61.97 0.536 8.02 4.64 9.11
9/13/2021 3:30:00 PM 16.8 62.24 0.536 8.03 5.02 9.19
9/13/2021 3:45:00 PM 16.91 62.438 0.536 8.04 4.82 9.19
9/13/2021 4:00:00 PM 17.01 62.618 0.537 8.05 5.42 9.17
9/13/2021 4:15:00 PM 17.09 62.762 0.534 8.04 5.01 9.09
9/13/2021 4:30:00 PM 17.18 62.924 0.538 8.05 4.83 9.02
9/13/2021 4:45:00 PM 17.27 63.086 0.536 8.05 4.87 9
9/13/2021 5:00:00 PM 17.35 63.23 0.537 8.05 4.56 8.93
9/13/2021 5:15:00 PM 17.43 63.374 0.536 8.04 5.08 8.84
9/13/2021 5:30:00 PM 17.48 63.464 0.538 8.03 5.86 8.66
9/13/2021 5:45:00 PM 17.51 63.518 0.538 8.03 7.31 8.55
9/13/2021 6:00:00 PM 17.54 63.572 0.539 8.02 5.12 8.47
9/13/2021 6:15:00 PM 17.56 63.608 0.538 8.02 5.11 8.4
9/13/2021 6:30:00 PM 17.56 63.608 0.537 8.01 6.55 8.3
9/13/2021 6:45:00 PM 17.56 63.608 0.537 8 5.56 8.15
9/13/2021 7:00:00 PM 17.55 63.59 0.535 7.99 5.54 8
9/13/2021 7:15:00 PM 17.53 63.554 0.537 7.98 5.15 7.86
9/13/2021 7:30:00 PM 17.51 63.518 0.537 7.97 4.86 7.72
9/13/2021 7:45:00 PM 17.48 63.464 0.539 7.97 5.79 7.64
9/13/2021 8:00:00 PM 17.45 63.41 0.538 7.95 5.25 7.53
9/13/2021 8:15:00 PM 17.41 63.338 0.542 7.94 5.58 7.43
9/13/2021 8:30:00 PM 17.36 63.248 0.541 7.93 6.1 7.32
9/13/2021 8:45:00 PM 17.33 63.194 0.541 7.91 6.06 7.23
9/13/2021 9:00:00 PM 17.29 63.122 0.54 7.9 6.14 7.14
9/13/2021 9:15:00 PM 17.25 63.05 0.54 7.9 7.43 7.07
9/13/2021 9:30:00 PM 17.2 62.96 0.541 7.89 5.87 7.03
9/13/2021 9:45:00 PM 17.14 62.852 0.542 7.88 5.97 6.97
9/13/2021 10:00:00 PM 17.09 62.762 0.544 7.87 7.06 6.93
9/13/2021 10:15:00 PM 17.03 62.654 0.543 7.87 5.91 6.88
9/13/2021 10:30:00 PM 16.97 62.546 0.542 7.87 5.65 6.83
9/13/2021 10:45:00 PM 16.91 62.438 0.543 7.86 5.86 6.78
9/13/2021 11:00:00 PM 16.84 62.312 0.544 7.85 6.24 6.74
9/13/2021 11:15:00 PM 16.76 62.168 0.544 7.85 6.21 6.72
9/13/2021 11:30:00 PM 16.68 62.024 0.543 7.84 6.59 6.71
9/13/2021 11:45:00 PM 16.6 61.88 0.544 7.84 8.01 6.68
9/14/2021 12:00:00 AM 16.51 61.718 0.544 7.83 6.39 6.68
9/14/2021 12:15:00 AM 16.43 61.574 0.545 7.83 6.58 6.66
9/14/2021 12:30:00 AM 16.34 61.412 0.544 7.82 6.99 6.66
9/14/2021 12:45:00 AM 16.26 61.268 0.545 7.82 6.91 6.66
9/14/2021 1:00:00 AM 16.17 61.106 0.546 7.82 6.75 6.65
9/14/2021 1:15:00 AM 16.09 60.962 0.546 7.81 6.76 6.65
9/14/2021 1:30:00 AM 16 60.8 0.546 7.81 7.34 6.65
9/14/2021 1:45:00 AM 15.92 60.656 0.547 7.8 6.86 6.66
9/14/2021 2:00:00 AM 15.83 60.494 0.548 7.81 6.52 6.67
9/14/2021 2:15:00 AM 15.75 60.35 0.549 7.8 7.82 6.67
9/14/2021 2:30:00 AM 15.67 60.206 0.548 7.8 6.77 6.68
9/14/2021 2:45:00 AM 15.59 60.062 0.547 7.81 6.26 6.7
9/14/2021 3:00:00 AM 15.51 59.918 0.547 7.8 6.69 6.7
9/14/2021 3:15:00 AM 15.43 59.774 0.547 7.8 6.4 6.72
9/14/2021 3:30:00 AM 15.36 59.648 0.547 7.8 7.4 6.73
9/14/2021 3:45:00 AM 15.28 59.504 0.547 7.8 7.04 6.73
9/14/2021 4:00:00 AM 15.2 59.36 0.547 7.79 6.82 6.75
9/14/2021 4:15:00 AM 15.13 59.234 0.547 7.79 9.16 6.77
9/14/2021 4:30:00 AM 15.05 59.09 0.548 7.8 6.92 6.78
9/14/2021 4:45:00 AM 14.98 58.964 0.547 7.79 7.85 6.8
9/14/2021 5:00:00 AM 14.9 58.82 0.547 7.79 6.8 6.81
9/14/2021 5:15:00 AM 14.84 58.712 0.547 7.79 6.44 6.82
9/14/2021 5:30:00 AM 14.77 58.586 0.547 7.79 6.25 6.83
9/14/2021 5:45:00 AM 14.71 58.478 0.547 7.79 5.8 6.85
9/14/2021 6:00:00 AM 14.65 58.37 0.546 7.79 6.43 6.86
9/14/2021 6:15:00 AM 14.59 58.262 0.545 7.79 6.63 6.87
9/14/2021 6:30:00 AM 14.54 58.172 0.545 7.79 6.47 6.88
9/14/2021 6:45:00 AM 14.49 58.082 0.546 7.78 11.1 6.9
9/14/2021 7:00:00 AM 14.44 57.992 0.546 7.79 7.29 6.91
9/14/2021 7:15:00 AM 14.4 57.92 0.545 7.79 6.62 6.92
9/14/2021 7:30:00 AM 14.36 57.848 0.545 7.79 6.66 6.97
9/14/2021 7:45:00 AM 14.33 57.794 0.544 7.79 6.18 7.03
9/14/2021 8:00:00 AM 14.31 57.758 0.544 7.8 6.07 7.07
9/14/2021 8:15:00 AM 14.29 57.722 0.545 7.8 6.69 7.14
9/14/2021 8:30:00 AM 14.27 57.686 0.544 7.8 5.99 7.22
9/14/2021 8:45:00 AM 14.27 57.686 0.545 7.81 5.76 7.28
9/14/2021 9:00:00 AM 14.27 57.686 0.544 7.82 5.61 7.37
9/14/2021 9:15:00 AM 14.28 57.704 0.544 7.82 5.53 7.48
9/14/2021 9:30:00 AM 14.29 57.722 0.544 7.83 5.64 7.63
9/14/2021 9:45:00 AM 14.32 57.776 0.543 7.85 5.53 7.76
9/14/2021 10:00:00 AM 14.34 57.812 0.543 7.85 5.45 7.87
9/14/2021 10:15:00 AM 14.38 57.884 0.542 7.86 6.03 7.98
9/14/2021 10:30:00 AM 14.45 58.01 0.543 7.87 5.67 8.15
9/14/2021 10:45:00 AM 14.52 58.136 0.543 7.88 5.8 8.28
9/14/2021 11:00:00 AM 14.61 58.298 0.543 7.9 7.83 8.43
9/14/2021 11:15:00 AM 14.71 58.478 0.541 7.91 5.47 8.57
9/14/2021 11:30:00 AM 14.82 58.676 0.541 7.92 5.18 8.69
9/14/2021 11:45:00 AM 14.96 58.928 0.541 7.93 5.54 8.82
9/14/2021 12:00:00 PM 15.12 59.216 0.542 7.94 6.05 8.95
9/14/2021 12:15:00 PM 15.29 59.522 0.541 7.96 5.57 9.09
9/14/2021 12:30:00 PM 15.45 59.81 0.541 7.97 5.72 9.19
9/14/2021 12:45:00 PM 15.61 60.098 0.539 7.99 5.24 9.3
9/14/2021 1:00:00 PM 15.78 60.404 0.541 7.99 5.89 9.4
9/14/2021 1:15:00 PM 15.95 60.71 0.543 8.01 5.8 9.49
9/14/2021 1:30:00 PM 16.1 60.98 0.541 8.02 7.35 9.55
9/14/2021 1:45:00 PM 16.25 61.25 0.547 8.03 5.47 9.58
9/14/2021 2:00:00 PM 16.39 61.502 0.543 8.04 5.27 9.63
9/14/2021 2:15:00 PM 16.53 61.754 0.544 8.05 5.55 9.68
9/14/2021 2:30:00 PM 16.67 62.006 0.54 8.06 5.66 9.7
9/14/2021 2:45:00 PM 16.77 62.186 0.54 8.07 5.46 9.7
9/14/2021 3:00:00 PM 16.86 62.348 0.538 8.07 11.15 9.66
9/14/2021 3:15:00 PM 16.94 62.492 0.536 8.07 5.34 9.64
9/14/2021 3:30:00 PM 17.04 62.672 0.538 8.08 5.17 9.61
9/14/2021 3:45:00 PM 17.13 62.834 0.536 8.08 6.39 9.58
9/14/2021 4:00:00 PM 17.24 63.032 0.532 8.09 5.3 9.57
9/14/2021 4:15:00 PM 17.35 63.23 0.532 8.09 4.96 9.54
9/14/2021 4:30:00 PM 17.45 63.41 0.533 8.1 5.03 9.51
9/14/2021 4:45:00 PM 17.54 63.572 0.537 8.1 5.19 9.43
9/14/2021 5:00:00 PM 17.61 63.698 0.541 8.1 6.04 9.33
9/14/2021 5:15:00 PM 17.67 63.806 0.537 8.09 5.59 9.17
9/14/2021 5:30:00 PM 17.75 63.95 0.536 8.09 5.97 9.08
9/14/2021 5:45:00 PM 17.82 64.076 0.534 8.09 5.91 8.96
9/14/2021 6:00:00 PM 17.87 64.166 0.534 8.08 7.66 8.85
9/14/2021 6:15:00 PM 17.9 64.22 0.533 8.07 7.83 8.67
9/14/2021 6:30:00 PM 17.92 64.256 0.541 8.06 5.81 8.49
9/14/2021 6:45:00 PM 17.93 64.274 0.543 8.05 6.19 8.33
9/14/2021 7:00:00 PM 17.94 64.292 0.538 8.03 6.92 8.17
9/14/2021 7:15:00 PM 17.94 64.292 0.537 8.02 5.93 8.01
9/14/2021 7:30:00 PM 17.92 64.256 0.537 8.01 6.27 7.84
9/14/2021 7:45:00 PM 17.9 64.22 0.54 8 5.55 7.7
9/14/2021 8:00:00 PM 17.87 64.166 0.54 7.99 6.31 7.55
9/14/2021 8:15:00 PM 17.83 64.094 0.54 7.97 5.78 7.43
9/14/2021 8:30:00 PM 17.79 64.022 0.541 7.96 6.04 7.31
9/14/2021 8:45:00 PM 17.74 63.932 0.542 7.95 5.76 7.22
9/14/2021 9:00:00 PM 17.69 63.842 0.545 7.94 7.17 7.12
9/14/2021 9:15:00 PM 17.63 63.734 0.547 7.93 6.46 7.05
9/14/2021 9:30:00 PM 17.57 63.626 0.546 7.92 6.25 6.96
9/14/2021 9:45:00 PM 17.51 63.518 0.546 7.91 6.18 6.87
9/14/2021 10:00:00 PM 17.44 63.392 0.545 7.89 7.57 6.81
9/14/2021 10:15:00 PM 17.38 63.284 0.544 7.89 7.62 6.76
9/14/2021 10:30:00 PM 17.31 63.158 0.544 7.88 6.65 6.72
9/14/2021 10:45:00 PM 17.23 63.014 0.544 7.87 7.05 6.68
9/14/2021 11:00:00 PM 17.16 62.888 0.544 7.87 6.6 6.65
9/14/2021 11:15:00 PM 17.08 62.744 0.544 7.86 8 6.61
9/14/2021 11:30:00 PM 17 62.6 0.545 7.85 6.48 6.59
9/14/2021 11:45:00 PM 16.92 62.456 0.546 7.85 7.28 6.56
9/15/2021 12:00:00 AM 16.83 62.294 0.546 7.84 6.23 6.55
9/15/2021 12:15:00 AM 16.75 62.15 0.546 7.84 6.4 6.53
9/15/2021 12:30:00 AM 16.66 61.988 0.547 7.84 6.97 6.52
9/15/2021 12:45:00 AM 16.58 61.844 0.547 7.83 5.99 6.51
9/15/2021 1:00:00 AM 16.5 61.7 0.547 7.83 6.1 6.51
9/15/2021 1:15:00 AM 16.41 61.538 0.549 7.83 6.64 6.51
9/15/2021 1:30:00 AM 16.32 61.376 0.548 7.82 7.52 6.51
9/15/2021 1:45:00 AM 16.24 61.232 0.549 7.83 7.26 6.51
9/15/2021 2:00:00 AM 16.15 61.07 0.549 7.82 9.05 6.52
9/15/2021 2:15:00 AM 16.06 60.908 0.55 7.82 6.63 6.53
9/15/2021 2:30:00 AM 15.98 60.764 0.549 7.82 7.79 6.54
9/15/2021 2:45:00 AM 15.9 60.62 0.549 7.82 6.54 6.54
9/15/2021 3:00:00 AM 15.83 60.494 0.547 7.82 7.19 6.56
9/15/2021 3:15:00 AM 15.74 60.332 0.547 7.82 6.94 6.57
9/15/2021 3:30:00 AM 15.66 60.188 0.547 7.82 6.82 6.58
9/15/2021 3:45:00 AM 15.58 60.044 0.548 7.81 6.65 6.59
9/15/2021 4:00:00 AM 15.51 59.918 0.548 7.82 6.66 6.61
9/15/2021 4:15:00 AM 15.43 59.774 0.548 7.81 7.39 6.62
9/15/2021 4:30:00 AM 15.36 59.648 0.548 7.81 6.54 6.63
9/15/2021 4:45:00 AM 15.29 59.522 0.548 7.81 6.9 6.64
9/15/2021 5:00:00 AM 15.22 59.396 0.548 7.81 6.62 6.65
9/15/2021 5:15:00 AM 15.15 59.27 0.548 7.81 8.01 6.67
9/15/2021 5:30:00 AM 15.08 59.144 0.548 7.81 6.33 6.68
9/15/2021 5:45:00 AM 15.01 59.018 0.548 7.82 6.57 6.7
9/15/2021 6:00:00 AM 14.95 58.91 0.548 7.82 6.51 6.71
9/15/2021 6:15:00 AM 14.88 58.784 0.548 7.82 7.68 6.71
9/15/2021 6:30:00 AM 14.82 58.676 0.548 7.82 7 6.73
9/15/2021 6:45:00 AM 14.76 58.568 0.548 7.82 7.27 6.76
9/15/2021 7:00:00 AM 14.69 58.442 0.549 7.81 6.9 6.77
9/15/2021 7:15:00 AM 14.64 58.352 0.548 7.81 6.63 6.8
9/15/2021 7:30:00 AM 14.6 58.28 0.548 7.8 6.13 6.85
9/15/2021 7:45:00 AM 14.56 58.208 0.548 7.81 6.83 6.92
9/15/2021 8:00:00 AM 14.53 58.154 0.547 7.82 6.22 7.01
9/15/2021 8:15:00 AM 14.51 58.118 0.548 7.82 7.19 7.08
9/15/2021 8:30:00 AM 14.49 58.082 0.547 7.82 6.41 7.18
9/15/2021 8:45:00 AM 14.5 58.1 0.547 7.83 7.07 7.33
9/15/2021 9:00:00 AM 14.51 58.118 0.547 7.84 6.25 7.47
9/15/2021 9:15:00 AM 14.52 58.136 0.547 7.85 6.12 7.61
9/15/2021 9:30:00 AM 14.54 58.172 0.546 7.86 5.99 7.71
9/15/2021 9:45:00 AM 14.57 58.226 0.546 7.87 6.49 7.82
9/15/2021 10:00:00 AM 14.61 58.298 0.546 7.88 5.78 7.91
9/15/2021 10:15:00 AM 14.66 58.388 0.545 7.89 5.89 8.06
9/15/2021 10:30:00 AM 14.75 58.55 0.544 7.9 5.66 8.23
9/15/2021 10:45:00 AM 14.83 58.694 0.544 7.91 6.81 8.38
9/15/2021 11:00:00 AM 14.94 58.892 0.543 7.92 5.87 8.54
9/15/2021 11:15:00 AM 15.07 59.126 0.542 7.95 4.99 8.68
9/15/2021 11:30:00 AM 15.19 59.342 0.541 7.96 5.68 8.82
9/15/2021 11:45:00 AM 15.3 59.54 0.541 7.97 5.78 8.96
9/15/2021 12:00:00 PM 15.4 59.72 0.541 7.98 6.09 9.08
9/15/2021 12:15:00 PM 15.51 59.918 0.54 7.99 6.71 9.15
9/15/2021 12:30:00 PM 15.66 60.188 0.54 8 5.99 9.28
9/15/2021 12:45:00 PM 15.84 60.512 0.541 8.02 5.6 9.43
9/15/2021 1:00:00 PM 16.04 60.872 0.541 8.04 5.98 9.58
9/15/2021 1:15:00 PM 16.12 61.016 0.542 8.04 5.15 9.55
9/15/2021 1:30:00 PM 16.16 61.088 0.545 8.04 5.34 9.45
9/15/2021 1:45:00 PM 16.27 61.286 0.545 8.06 5.23 9.54
9/15/2021 2:00:00 PM 16.37 61.466 0.542 8.08 6.32 9.56
9/15/2021 2:15:00 PM 16.46 61.628 0.54 8.06 5.23 9.42
9/15/2021 2:30:00 PM 16.53 61.754 0.534 8.05 5.05 9.27
9/15/2021 2:45:00 PM 16.59 61.862 0.536 8.05 5.08 9.25
9/15/2021 3:00:00 PM 16.7 62.06 0.536 8.05 5.04 9.32
9/15/2021 3:15:00 PM 16.73 62.114 0.544 8.06 4.97 9.15
9/15/2021 3:30:00 PM 16.76 62.168 0.54 8.05 4.79 8.97
9/15/2021 3:45:00 PM 16.77 62.186 0.536 8.03 4.52 8.68
9/15/2021 4:00:00 PM 16.81 62.258 0.536 8.02 5.27 8.53
9/15/2021 4:15:00 PM 16.89 62.402 0.535 8.02 4.83 8.5
9/15/2021 4:30:00 PM 16.97 62.546 0.537 8.03 5.21 8.6
9/15/2021 4:45:00 PM 17.05 62.69 0.538 8.04 4.83 8.66
9/15/2021 5:00:00 PM 17.08 62.744 0.539 8.04 5.39 8.52
9/15/2021 5:15:00 PM 17.14 62.852 0.539 8.04 4.73 8.56
9/15/2021 5:30:00 PM 17.2 62.96 0.539 8.04 5.06 8.51
9/15/2021 5:45:00 PM 17.24 63.032 0.542 8.04 4.84 8.47
9/15/2021 6:00:00 PM 17.26 63.068 0.542 8.04 5.19 8.34
9/15/2021 6:15:00 PM 17.27 63.086 0.541 8.02 5.37 8.16
9/15/2021 6:30:00 PM 17.28 63.104 0.541 8.01 4.94 8.01
9/15/2021 6:45:00 PM 17.29 63.122 0.542 8 5.71 7.84
9/15/2021 7:00:00 PM 17.3 63.14 0.543 7.99 5.53 7.75
9/15/2021 7:15:00 PM 17.29 63.122 0.543 7.98 5.69 7.65
9/15/2021 7:30:00 PM 17.27 63.086 0.545 7.97 5.31 7.52
9/15/2021 7:45:00 PM 17.25 63.05 0.546 7.96 5.54 7.41
9/15/2021 8:00:00 PM 17.23 63.014 0.544 7.95 5.19 7.3
9/15/2021 8:15:00 PM 17.2 62.96 0.546 7.95 5.48 7.24
9/15/2021 8:30:00 PM 17.17 62.906 0.546 7.94 5.93 7.16
9/15/2021 8:45:00 PM 17.13 62.834 0.545 7.93 6.15 7.08
9/15/2021 9:00:00 PM 17.08 62.744 0.546 7.92 6.07 7.01
9/15/2021 9:15:00 PM 17.03 62.654 0.547 7.91 6.48 6.94
9/15/2021 9:30:00 PM 16.98 62.564 0.547 7.91 6.06 6.88
9/15/2021 9:45:00 PM 16.93 62.474 0.547 7.9 5.74 6.81
9/15/2021 10:00:00 PM 16.88 62.384 0.547 7.9 5.89 6.77
9/15/2021 10:15:00 PM 16.82 62.276 0.548 7.89 7.06 6.73
9/15/2021 10:30:00 PM 16.77 62.186 0.549 7.88 6.1 6.71
9/15/2021 10:45:00 PM 16.71 62.078 0.549 7.87 6.46 6.67
9/15/2021 11:00:00 PM 16.65 61.97 0.549 7.87 6.05 6.65
9/15/2021 11:15:00 PM 16.6 61.88 0.549 7.86 6.2 6.64
9/15/2021 11:30:00 PM 16.54 61.772 0.549 7.86 6.28 6.61
9/15/2021 11:45:00 PM 16.48 61.664 0.549 7.85 6.65 6.6
9/16/2021 12:00:00 AM 16.42 61.556 0.549 7.85 6.77 6.59
9/16/2021 12:15:00 AM 16.36 61.448 0.551 7.84 5.77 6.59
9/16/2021 12:30:00 AM 16.3 61.34 0.551 7.84 6.33 6.58
9/16/2021 12:45:00 AM 16.24 61.232 0.55 7.84 5.89 6.57
9/16/2021 1:00:00 AM 16.17 61.106 0.55 7.83 7.8 6.57
9/16/2021 1:15:00 AM 16.11 60.998 0.549 7.83 6.34 6.57
9/16/2021 1:30:00 AM 16.05 60.89 0.548 7.83 6.27 6.56
9/16/2021 1:45:00 AM 16 60.8 0.547 7.83 6.99 6.55
9/16/2021 2:00:00 AM 15.94 60.692 0.546 7.81 8.18 6.52
9/16/2021 2:15:00 AM 15.87 60.566 0.547 7.81 6.47 6.52
9/16/2021 2:30:00 AM 15.81 60.458 0.547 7.82 6.69 6.55
9/16/2021 2:45:00 AM 15.76 60.368 0.547 7.81 6.24 6.55
9/16/2021 3:00:00 AM 15.71 60.278 0.547 7.82 7.21 6.57
9/16/2021 3:15:00 AM 15.66 60.188 0.547 7.82 5.97 6.57
9/16/2021 3:30:00 AM 15.61 60.098 0.547 7.82 6.29 6.6
9/16/2021 3:45:00 AM 15.56 60.008 0.547 7.82 6.77 6.59
9/16/2021 4:00:00 AM 15.51 59.918 0.548 7.82 7.42 6.61
9/16/2021 4:15:00 AM 15.47 59.846 0.548 7.82 9.17 6.63
9/16/2021 4:30:00 AM 15.43 59.774 0.547 7.82 7.76 6.64
9/16/2021 4:45:00 AM 15.38 59.684 0.547 7.82 6.23 6.64
9/16/2021 5:00:00 AM 15.34 59.612 0.548 7.82 7.33 6.65
9/16/2021 5:15:00 AM 15.3 59.54 0.549 7.82 6.21 6.65
9/16/2021 5:30:00 AM 15.26 59.468 0.549 7.82 6.9 6.67
9/16/2021 5:45:00 AM 15.22 59.396 0.549 7.82 6.39 6.68
9/16/2021 6:00:00 AM 15.17 59.306 0.549 7.83 6.23 6.69
9/16/2021 6:15:00 AM 15.14 59.252 0.548 7.83 6.53 6.71
9/16/2021 6:30:00 AM 15.1 59.18 0.548 7.83 6.64 6.72
9/16/2021 6:45:00 AM 15.06 59.108 0.549 7.83 5.82 6.73
9/16/2021 7:00:00 AM 15.03 59.054 0.549 7.83 5.97 6.74
9/16/2021 7:15:00 AM 15 59 0.549 7.83 5.84 6.77
9/16/2021 7:30:00 AM 14.97 58.946 0.549 7.83 5.99 6.8
9/16/2021 7:45:00 AM 14.95 58.91 0.549 7.83 5.91 6.83
9/16/2021 8:00:00 AM 14.93 58.874 0.549 7.84 5.21 6.88
9/16/2021 8:15:00 AM 14.91 58.838 0.55 7.85 5.83 6.91
9/16/2021 8:30:00 AM 14.9 58.82 0.55 7.85 5.89 6.96
9/16/2021 8:45:00 AM 14.89 58.802 0.549 7.86 5.43 7.02
9/16/2021 9:00:00 AM 14.89 58.802 0.549 7.86 5.45 7.15
9/16/2021 9:15:00 AM 14.9 58.82 0.549 7.86 5.38 7.27
9/16/2021 9:30:00 AM 14.92 58.856 0.549 7.87 5.56 7.36
9/16/2021 9:45:00 AM 14.92 58.856 0.549 7.88 5.27 7.42
9/16/2021 10:00:00 AM 14.93 58.874 0.549 7.89 5.63 7.47
9/16/2021 10:15:00 AM 14.93 58.874 0.549 7.89 5.31 7.5
9/16/2021 10:30:00 AM 14.94 58.892 0.549 7.9 5.96 7.56
9/16/2021 10:45:00 AM 14.95 58.91 0.548 7.9 7.8 7.61
9/16/2021 11:00:00 AM 14.97 58.946 0.548 7.91 5 7.72
9/16/2021 11:15:00 AM 15 59 0.548 7.92 5.88 7.83
9/16/2021 11:30:00 AM 15.04 59.072 0.548 7.93 5.85 7.97
9/16/2021 11:45:00 AM 15.07 59.126 0.547 7.94 5.79 8.11
9/16/2021 12:00:00 PM 15.13 59.234 0.547 7.95 5.39 8.3
9/16/2021 12:15:00 PM 15.18 59.324 0.547 7.96 5.8 8.48
9/16/2021 12:30:00 PM 15.24 59.432 0.548 7.98 5.66 8.64
9/16/2021 12:45:00 PM 15.29 59.522 0.548 7.99 6.32 8.75
9/16/2021 1:00:00 PM 15.35 59.63 0.548 8 5.39 8.86
9/16/2021 1:15:00 PM 15.42 59.756 0.548 8.01 6.14 9
9/16/2021 1:30:00 PM 15.52 59.936 0.549 8.02 6.38 9.2
9/16/2021 1:45:00 PM 15.65 60.17 0.549 8.04 5.87 9.39
9/16/2021 2:00:00 PM 15.79 60.422 0.55 8.05 5.78 9.54
9/16/2021 2:15:00 PM 15.89 60.602 0.55 8.06 5.62 9.58
9/16/2021 2:30:00 PM 15.96 60.728 0.552 8.07 7.19 9.61
9/16/2021 2:45:00 PM 15.98 60.764 0.551 8.07 6.2 9.62
9/16/2021 3:00:00 PM 16.04 60.872 0.547 8.07 6.01 9.63
9/16/2021 3:15:00 PM 16.16 61.088 0.549 8.09 6.13 9.77
9/16/2021 3:30:00 PM 16.24 61.232 0.549 8.09 6.14 9.77
9/16/2021 3:45:00 PM 16.39 61.502 0.548 8.1 6.45 9.87
9/16/2021 4:00:00 PM 16.47 61.646 0.539 8.11 7.21 9.86
9/16/2021 4:15:00 PM 16.52 61.736 0.533 8.11 8.86 9.81
9/16/2021 4:30:00 PM 16.54 61.772 0.539 8.1 6.73 9.65
9/16/2021 4:45:00 PM 16.56 61.808 0.541 8.1 7.13 9.6
9/16/2021 5:00:00 PM 16.58 61.844 0.547 8.1 6.93 9.52
9/16/2021 5:15:00 PM 16.61 61.898 0.542 8.09 6.22 9.43
9/16/2021 5:30:00 PM 16.63 61.934 0.543 8.09 7.1 9.34
9/16/2021 5:45:00 PM 16.64 61.952 0.539 8.1 6.42 9.2
9/16/2021 6:00:00 PM 16.63 61.934 0.542 8.08 6.42 9.03
9/16/2021 6:15:00 PM 16.63 61.934 0.547 8.07 5.86 8.87
9/16/2021 6:30:00 PM 16.63 61.934 0.545 8.06 6.88 8.69
9/16/2021 6:45:00 PM 16.64 61.952 0.545 8.04 6.82 8.54
9/16/2021 7:00:00 PM 16.63 61.934 0.543 8.03 6.32 8.38
9/16/2021 7:15:00 PM 16.63 61.934 0.541 8.02 6.1 8.23
9/16/2021 7:30:00 PM 16.62 61.916 0.54 8.01 7.61 8.06
9/16/2021 7:45:00 PM 16.61 61.898 0.54 8.02 9.82 7.91
9/16/2021 8:00:00 PM 16.6 61.88 0.541 8 6.44 7.78
9/16/2021 8:15:00 PM 16.59 61.862 0.541 7.98 6.11 7.67
9/16/2021 8:30:00 PM 16.57 61.826 0.541 7.97 7.54 7.55
9/16/2021 8:45:00 PM 16.56 61.808 0.542 7.96 6.86 7.47
9/16/2021 9:00:00 PM 16.56 61.808 0.543 7.95 7.14 7.36
9/16/2021 9:15:00 PM 16.55 61.79 0.544 7.94 6.98 7.26
9/16/2021 9:30:00 PM 16.55 61.79 0.547 7.93 7.01 7.19
9/16/2021 9:45:00 PM 16.54 61.772 0.547 7.93 6.43 7.11
9/16/2021 10:00:00 PM 16.52 61.736 0.546 7.92 7.05 7.02
9/16/2021 10:15:00 PM 16.51 61.718 0.547 7.91 6.81 6.98
9/16/2021 10:30:00 PM 16.49 61.682 0.552 7.91 6.83 6.92
9/16/2021 10:45:00 PM 16.48 61.664 0.553 7.9 7.05 6.86
9/16/2021 11:00:00 PM 16.46 61.628 0.553 7.89 6.82 6.82
9/16/2021 11:15:00 PM 16.43 61.574 0.554 7.89 10.8 6.77
9/16/2021 11:30:00 PM 16.4 61.52 0.554 7.88 6.54 6.73
9/16/2021 11:45:00 PM 16.36 61.448 0.555 7.88 8.34 6.71
9/17/2021 12:00:00 AM 16.32 61.376 0.555 7.87 8.84 6.69
9/17/2021 12:15:00 AM 16.3 61.34 0.555 7.87 7.79 6.67
9/17/2021 12:30:00 AM 16.27 61.286 0.555 7.87 8.19 6.64
9/17/2021 12:45:00 AM 16.23 61.214 0.555 7.87 7.93 6.62
9/17/2021 1:00:00 AM 16.2 61.16 0.556 7.86 7.21 6.61
9/17/2021 1:15:00 AM 16.17 61.106 0.556 7.86 7.31 6.59
9/17/2021 1:30:00 AM 16.13 61.034 0.555 7.86 8.64 6.59
9/17/2021 1:45:00 AM 16.1 60.98 0.555 7.85 7.17 6.58
9/17/2021 2:00:00 AM 16.07 60.926 0.556 7.85 8.34 6.57
9/17/2021 2:15:00 AM 16.04 60.872 0.555 7.85 7.38 6.57
9/17/2021 2:30:00 AM 16 60.8 0.555 7.85 7.87 6.57
9/17/2021 2:45:00 AM 15.95 60.71 0.556 7.85 7.27 6.56
9/17/2021 3:00:00 AM 15.9 60.62 0.556 7.85 7.84 6.57
9/17/2021 3:15:00 AM 15.85 60.53 0.557 7.84 7.36 6.58
9/17/2021 3:30:00 AM 15.8 60.44 0.557 7.84 7.16 6.57
9/17/2021 3:45:00 AM 15.76 60.368 0.557 7.84 7.52 6.57
9/17/2021 4:00:00 AM 15.72 60.296 0.556 7.84 6.88 6.58
9/17/2021 4:15:00 AM 15.67 60.206 0.556 7.84 7.14 6.58
9/17/2021 4:30:00 AM 15.63 60.134 0.556 7.84 7.04 6.59
9/17/2021 4:45:00 AM 15.58 60.044 0.558 7.84 8.07 6.59
9/17/2021 5:00:00 AM 15.54 59.972 0.557 7.84 7.45 6.61
9/17/2021 5:15:00 AM 15.5 59.9 0.558 7.84 7.75 6.62
9/17/2021 5:30:00 AM 15.46 59.828 0.557 7.83 8.4 6.63
9/17/2021 5:45:00 AM 15.41 59.738 0.557 7.83 8.43 6.65
9/17/2021 6:00:00 AM 15.38 59.684 0.557 7.84 7.36 6.65
9/17/2021 6:15:00 AM 15.34 59.612 0.557 7.83 7.42 6.67
9/17/2021 6:30:00 AM 15.3 59.54 0.557 7.84 7.59 6.67
9/17/2021 6:45:00 AM 15.26 59.468 0.557 7.83 7.11 6.69
9/17/2021 7:00:00 AM 15.23 59.414 0.556 7.84 7.02 6.69
9/17/2021 7:15:00 AM 15.19 59.342 0.556 7.83 7.33 6.71
9/17/2021 7:30:00 AM 15.16 59.288 0.556 7.84 6.82 6.74
9/17/2021 7:45:00 AM 15.13 59.234 0.557 7.84 7.28 6.77
9/17/2021 8:00:00 AM 15.11 59.198 0.556 7.84 7.82 6.82
9/17/2021 8:15:00 AM 15.1 59.18 0.556 7.85 7.4 6.89
9/17/2021 8:30:00 AM 15.09 59.162 0.555 7.86 8.12 7.01
9/17/2021 8:45:00 AM 15.1 59.18 0.555 7.86 7.34 7.14
9/17/2021 9:00:00 AM 15.09 59.162 0.555 7.87 8.78 7.2
9/17/2021 9:15:00 AM 15.09 59.162 0.555 7.88 7.03 7.26
9/17/2021 9:30:00 AM 15.1 59.18 0.554 7.88 6.73 7.39
9/17/2021 9:45:00 AM 15.13 59.234 0.555 7.89 11.16 7.59
9/17/2021 10:00:00 AM 15.18 59.324 0.555 7.9 6.98 7.88
9/17/2021 10:15:00 AM 15.23 59.414 0.554 7.92 6.65 8.09
9/17/2021 10:30:00 AM 15.26 59.468 0.554 7.93 8.11 8.15
9/17/2021 10:45:00 AM 15.29 59.522 0.553 7.94 8.01 8.27
9/17/2021 11:00:00 AM 15.32 59.576 0.556 7.95 6.22 8.31
9/17/2021 11:15:00 AM 15.36 59.648 0.555 7.96 6.48 8.47
9/17/2021 11:30:00 AM 15.39 59.702 0.554 7.97 6.16 8.64
9/17/2021 11:45:00 AM 15.45 59.81 0.554 7.99 6.78 8.82
9/17/2021 12:00:00 PM 15.45 59.81 0.553 7.99 8.86 8.77
9/17/2021 12:15:00 PM 15.45 59.81 0.554 8 6.46 8.74
9/17/2021 12:30:00 PM 15.43 59.774 0.553 8 6.44 8.68
9/17/2021 12:45:00 PM 15.44 59.792 0.552 7.99 7.22 8.72
9/17/2021 1:00:00 PM 15.45 59.81 0.552 8 6.65 8.8
9/17/2021 1:15:00 PM 15.45 59.81 0.551 8.01 7.59 8.86
9/17/2021 1:30:00 PM 15.53 59.954 0.55 8.02 6.88 9.09
9/17/2021 1:45:00 PM 15.6 60.08 0.551 8.03 6.67 9.15
9/17/2021 2:00:00 PM 15.63 60.134 0.551 8.04 6.11 9.15
9/17/2021 2:15:00 PM 15.57 60.026 0.551 8.03 6.32 9
9/17/2021 2:30:00 PM 15.54 59.972 0.55 8.03 6.13 8.92
9/17/2021 2:45:00 PM 15.61 60.098 0.552 8.04 6.18 9.13
9/17/2021 3:00:00 PM 15.65 60.17 0.551 8.05 6.5 9.29
9/17/2021 3:15:00 PM 15.7 60.26 0.548 8.07 9.48 9.43
9/17/2021 3:30:00 PM 15.79 60.422 0.546 8.08 6 9.54
9/17/2021 3:45:00 PM 15.88 60.584 0.543 8.1 7.94 9.58
9/17/2021 4:00:00 PM 15.96 60.728 0.546 8.1 6.51 9.64
9/17/2021 4:15:00 PM 16.12 61.016 0.541 8.12 9.6 9.8
9/17/2021 4:30:00 PM 16.22 61.196 0.533 8.13 6.3 9.85
9/17/2021 4:45:00 PM 16.31 61.358 0.531 8.14 6.43 9.85
9/17/2021 5:00:00 PM 16.37 61.466 0.532 8.14 9.19 9.76
9/17/2021 5:15:00 PM 16.42 61.556 0.535 8.14 7.1 9.64
9/17/2021 5:30:00 PM 16.43 61.574 0.532 8.13 6.3 9.53
9/17/2021 5:45:00 PM 16.46 61.628 0.525 8.13 6.45 9.41
9/17/2021 6:00:00 PM 16.47 61.646 0.536 8.13 6.34 9.3
9/17/2021 6:15:00 PM 16.48 61.664 0.533 8.12 6.59 9.13
9/17/2021 6:30:00 PM 16.5 61.7 0.53 8.11 7.09 8.98
9/17/2021 6:45:00 PM 16.52 61.736 0.53 8.1 7.89 8.79
9/17/2021 7:00:00 PM 16.53 61.754 0.529 8.08 6.25 8.61
9/17/2021 7:15:00 PM 16.55 61.79 0.529 8.07 9.61 8.44
9/17/2021 7:30:00 PM 16.56 61.808 0.53 8.06 7.36 8.27
9/17/2021 7:45:00 PM 16.55 61.79 0.532 8.04 6.49 8.1
9/17/2021 8:00:00 PM 16.54 61.772 0.533 8.03 6.72 7.96
9/17/2021 8:15:00 PM 16.53 61.754 0.535 8.02 6.4 7.82
9/17/2021 8:30:00 PM 16.52 61.736 0.534 8.01 6.55 7.7
9/17/2021 8:45:00 PM 16.51 61.718 0.536 7.99 6.55 7.59
9/17/2021 9:00:00 PM 16.49 61.682 0.533 7.98 6.79 7.48
9/17/2021 9:15:00 PM 16.47 61.646 0.535 7.97 6.88 7.38
9/17/2021 9:30:00 PM 16.45 61.61 0.534 7.96 10.32 7.29
9/17/2021 9:45:00 PM 16.43 61.574 0.535 7.96 6.95 7.2
9/17/2021 10:00:00 PM 16.42 61.556 0.535 7.95 7.71 7.12
9/17/2021 10:15:00 PM 16.41 61.538 0.537 7.93 7.15 7.05
9/17/2021 10:30:00 PM 16.39 61.502 0.537 7.92 7.66 6.99
9/17/2021 10:45:00 PM 16.37 61.466 0.538 7.94 12.5 6.93
9/17/2021 11:00:00 PM 16.34 61.412 0.536 7.91 8.37 6.89
9/17/2021 11:15:00 PM 16.31 61.358 0.537 7.91 8.95 6.83
9/17/2021 11:30:00 PM 16.28 61.304 0.536 7.9 8.07 6.78
9/17/2021 11:45:00 PM 16.24 61.232 0.538 7.9 7.11 6.75
9/18/2021 12:00:00 AM 16.2 61.16 0.539 7.89 7.77 6.72
9/18/2021 12:15:00 AM 16.16 61.088 0.54 7.88 7.05 6.69
9/18/2021 12:30:00 AM 16.12 61.016 0.541 7.88 7.78 6.67
9/18/2021 12:45:00 AM 16.07 60.926 0.542 7.87 7.06 6.64
9/18/2021 1:00:00 AM 16.02 60.836 0.543 7.87 7.96 6.63
9/18/2021 1:15:00 AM 15.98 60.764 0.544 7.86 7.3 6.61
9/18/2021 1:30:00 AM 15.93 60.674 0.546 7.85 7.41 6.61
9/18/2021 1:45:00 AM 15.87 60.566 0.546 7.85 7.67 6.59
9/18/2021 2:00:00 AM 15.81 60.458 0.547 7.84 7.32 6.6
9/18/2021 2:15:00 AM 15.76 60.368 0.547 7.85 7.43 6.6
9/18/2021 2:30:00 AM 15.7 60.26 0.548 7.84 7.88 6.6
9/18/2021 2:45:00 AM 15.64 60.152 0.548 7.84 8.99 6.6
9/18/2021 3:00:00 AM 15.59 60.062 0.549 7.84 7.3 6.6
9/18/2021 3:15:00 AM 15.54 59.972 0.551 7.84 8.01 6.6
9/18/2021 3:30:00 AM 15.49 59.882 0.552 7.83 7.44 6.6
9/18/2021 3:45:00 AM 15.44 59.792 0.553 7.83 7.77 6.61
9/18/2021 4:00:00 AM 15.39 59.702 0.554 7.84 7.54 6.61
9/18/2021 4:15:00 AM 15.34 59.612 0.554 7.83 8.77 6.63
9/18/2021 4:30:00 AM 15.3 59.54 0.555 7.82 7.03 6.63
9/18/2021 4:45:00 AM 15.25 59.45 0.555 7.82 7.82 6.63
9/18/2021 5:00:00 AM 15.21 59.378 0.555 7.82 7.21 6.64
9/18/2021 5:15:00 AM 15.15 59.27 0.556 7.82 8.15 6.65
9/18/2021 5:30:00 AM 15.1 59.18 0.556 7.82 7.37 6.67
9/18/2021 5:45:00 AM 15.05 59.09 0.556 7.82 8.5 6.67
9/18/2021 6:00:00 AM 15 59 0.556 7.82 8.21 6.68
9/18/2021 6:15:00 AM 14.95 58.91 0.556 7.82 8.04 6.69
9/18/2021 6:30:00 AM 14.91 58.838 0.557 7.82 8.86 6.71
9/18/2021 6:45:00 AM 14.87 58.766 0.557 7.82 9.27 6.72
9/18/2021 7:00:00 AM 14.82 58.676 0.557 7.82 8.68 6.74
9/18/2021 7:15:00 AM 14.78 58.604 0.557 7.82 9.19 6.76
9/18/2021 7:30:00 AM 14.74 58.532 0.557 7.82 7.73 6.8
9/18/2021 7:45:00 AM 14.7 58.46 0.557 7.83 8.01 6.86
9/18/2021 8:00:00 AM 14.66 58.388 0.556 7.83 7.47 6.96
9/18/2021 8:15:00 AM 14.63 58.334 0.556 7.84 8.86 7.05
9/18/2021 8:30:00 AM 14.62 58.316 0.556 7.84 7.62 7.19
9/18/2021 8:45:00 AM 14.64 58.352 0.555 7.86 7.65 7.39
9/18/2021 9:00:00 AM 14.66 58.388 0.554 7.88 8.91 7.57
9/18/2021 9:15:00 AM 14.68 58.424 0.554 7.9 10.36 7.71
9/18/2021 9:30:00 AM 14.71 58.478 0.554 7.91 8.19 7.92
9/18/2021 9:45:00 AM 14.76 58.568 0.554 7.93 8.06 8.09
9/18/2021 10:00:00 AM 14.79 58.622 0.553 7.95 7.49 8.2
9/18/2021 10:15:00 AM 14.8 58.64 0.554 7.95 8.26 8.23
9/18/2021 10:30:00 AM 14.81 58.658 0.553 7.96 7.53 8.24
9/18/2021 10:45:00 AM 14.84 58.712 0.553 7.95 8.07 8.33
9/18/2021 11:00:00 AM 14.91 58.838 0.552 7.97 7.06 8.55
9/18/2021 11:15:00 AM 15.02 59.036 0.552 7.98 8.24 8.78
9/18/2021 11:30:00 AM 15.15 59.27 0.551 8.01 8.49 8.99
9/18/2021 11:45:00 AM 15.31 59.558 0.55 8.03 8.05 9.17
9/18/2021 12:00:00 PM 15.45 59.81 0.548 8.04 7.7 9.3
9/18/2021 12:15:00 PM 15.59 60.062 0.547 8.05 8.47 9.42
9/18/2021 12:30:00 PM 15.73 60.314 0.544 8.07 11.02 9.53
9/18/2021 12:45:00 PM 15.89 60.602 0.542 8.08 7.02 9.66
9/18/2021 1:00:00 PM 16.06 60.908 0.54 8.09 21.49 9.8
9/18/2021 1:15:00 PM 16.2 61.16 0.541 8.11 7.98 9.89
9/18/2021 1:30:00 PM 16.32 61.376 0.543 8.12 7.26 9.91
9/18/2021 1:45:00 PM 16.39 61.502 0.528 8.13 7.39 9.92
9/18/2021 2:00:00 PM 16.56 61.808 0.527 8.15 7.71 10.01
9/18/2021 2:15:00 PM 16.69 62.042 0.512 8.15 7.44 10.11
9/18/2021 2:30:00 PM 16.82 62.276 0.524 8.16 7.3 10.11
9/18/2021 2:45:00 PM 17.04 62.672 0.525 8.18 7.15 10.28
9/18/2021 3:00:00 PM 17.21 62.978 0.532 8.2 7.28 10.32
9/18/2021 3:15:00 PM 17.32 63.176 0.526 8.21 8.47 10.31
9/18/2021 3:30:00 PM 17.34 63.212 0.528 8.2 7.59 10.16
9/18/2021 3:45:00 PM 17.35 63.23 0.525 8.2 6.98 10.06
9/18/2021 4:00:00 PM 17.36 63.248 0.522 8.21 7.6 9.98
9/18/2021 4:15:00 PM 17.4 63.32 0.522 8.21 9.6 9.98
9/18/2021 4:30:00 PM 17.56 63.608 0.518 8.22 6.87 10.12
9/18/2021 4:45:00 PM 17.66 63.788 0.513 8.23 7.43 10.13
9/18/2021 5:00:00 PM 17.74 63.932 0.51 8.23 8.39 10.01
9/18/2021 5:15:00 PM 17.77 63.986 0.534 8.22 8.35 9.86
9/18/2021 5:30:00 PM 17.78 64.004 0.531 8.21 7.18 9.66
9/18/2021 5:45:00 PM 17.81 64.058 0.53 8.2 8.45 9.49
9/18/2021 6:00:00 PM 17.83 64.094 0.535 8.19 7.63 9.31
9/18/2021 6:15:00 PM 17.86 64.148 0.532 8.18 7.17 9.15
9/18/2021 6:30:00 PM 17.87 64.166 0.536 8.17 8.98 8.94
9/18/2021 6:45:00 PM 17.87 64.166 0.533 8.15 8.69 8.73
9/18/2021 7:00:00 PM 17.86 64.148 0.531 8.13 7.12 8.51
9/18/2021 7:15:00 PM 17.84 64.112 0.53 8.12 10.58 8.28
9/18/2021 7:30:00 PM 17.83 64.094 0.529 8.1 8.09 8.09
9/18/2021 7:45:00 PM 17.81 64.058 0.533 8.08 7.81 7.89
9/18/2021 8:00:00 PM 17.8 64.04 0.532 8.08 7.7 7.74
9/18/2021 8:15:00 PM 17.78 64.004 0.537 8.06 9.02 7.59
9/18/2021 8:30:00 PM 17.75 63.95 0.533 8.03 8.13 7.46
9/18/2021 8:45:00 PM 17.73 63.914 0.533 8.02 11.4 7.32
9/18/2021 9:00:00 PM 17.71 63.878 0.533 8 8.99 7.19
9/18/2021 9:15:00 PM 17.68 63.824 0.535 7.99 8.86 7.07
9/18/2021 9:30:00 PM 17.66 63.788 0.535 7.98 8.38 6.96
9/18/2021 9:45:00 PM 17.63 63.734 0.534 7.97 8.5 6.87
9/18/2021 10:00:00 PM 17.59 63.662 0.535 7.96 9.56 6.79
9/18/2021 10:15:00 PM 17.55 63.59 0.536 7.95 10.9 6.72
9/18/2021 10:30:00 PM 17.51 63.518 0.538 7.93 9.41 6.66
9/18/2021 10:45:00 PM 17.46 63.428 0.539 7.93 8.95 6.61
9/18/2021 11:00:00 PM 17.4 63.32 0.54 7.92 10.34 6.55
9/18/2021 11:15:00 PM 17.34 63.212 0.541 7.91 9.01 6.52
9/18/2021 11:30:00 PM 17.29 63.122 0.543 7.9 8.25 6.48
9/18/2021 11:45:00 PM 17.22 62.996 0.544 7.9 15.97 6.45
9/19/2021 12:00:00 AM 17.15 62.87 0.545 7.89 11.33 6.42
9/19/2021 12:15:00 AM 17.08 62.744 0.545 7.88 9.57 6.41
9/19/2021 12:30:00 AM 17.01 62.618 0.547 7.88 8.42 6.39
9/19/2021 12:45:00 AM 16.93 62.474 0.548 7.87 9.07 6.37
9/19/2021 1:00:00 AM 16.85 62.33 0.549 7.87 9.48 6.36
9/19/2021 1:15:00 AM 16.77 62.186 0.551 7.87 9.24 6.35
9/19/2021 1:30:00 AM 16.69 62.042 0.553 7.86 9.41 6.34
9/19/2021 1:45:00 AM 16.6 61.88 0.553 7.86 9.85 6.34
9/19/2021 2:00:00 AM 16.52 61.736 0.555 7.86 9.57 6.34
9/19/2021 2:15:00 AM 16.44 61.592 0.556 7.86 9.92 6.34
9/19/2021 2:30:00 AM 16.36 61.448 0.557 7.85 9.37 6.35
9/19/2021 2:45:00 AM 16.27 61.286 0.557 7.85 9.03 6.36
9/19/2021 3:00:00 AM 16.19 61.142 0.558 7.85 9.13 6.36
9/19/2021 3:15:00 AM 16.11 60.998 0.559 7.84 13.56 6.37
9/19/2021 3:30:00 AM 16.03 60.854 0.559 7.84 9.22 6.39
9/19/2021 3:45:00 AM 15.96 60.728 0.56 7.84 9.81 6.4
9/19/2021 4:00:00 AM 15.89 60.602 0.559 7.85 10.6 6.42
9/19/2021 4:15:00 AM 15.82 60.476 0.559 7.84 10.18 6.42
9/19/2021 4:30:00 AM 15.76 60.368 0.559 7.84 10.78 6.45
9/19/2021 4:45:00 AM 15.69 60.242 0.559 7.85 9.82 6.47
9/19/2021 5:00:00 AM 15.62 60.116 0.559 7.85 9.89 6.48
9/19/2021 5:15:00 AM 15.54 59.972 0.558 7.85 9.56 6.5
9/19/2021 5:30:00 AM 15.47 59.846 0.558 7.85 10.27 6.51
9/19/2021 5:45:00 AM 15.4 59.72 0.559 7.85 11.42 6.53
9/19/2021 6:00:00 AM 15.34 59.612 0.558 7.85 10.53 6.54
9/19/2021 6:15:00 AM 15.27 59.486 0.558 7.85 9.9 6.56
9/19/2021 6:30:00 AM 15.21 59.378 0.558 7.85 11.96 6.57
9/19/2021 6:45:00 AM 15.14 59.252 0.557 7.85 12.36 6.59
9/19/2021 7:00:00 AM 15.07 59.126 0.557 7.85 11.11 6.61
9/19/2021 7:15:00 AM 14.99 58.982 0.557 7.85 12.68 6.66
9/19/2021 7:30:00 AM 14.92 58.856 0.556 7.85 17.94 6.71
9/19/2021 7:45:00 AM 14.85 58.73 0.557 7.85 10.88 6.78
9/19/2021 8:00:00 AM 14.79 58.622 0.557 7.86 10.47 6.87
9/19/2021 8:15:00 AM 14.75 58.55 0.559 7.87 24.04 6.96
9/19/2021 8:30:00 AM 14.71 58.478 0.559 7.88 14.31 7.07
9/19/2021 8:45:00 AM 14.69 58.442 0.56 7.89 16.32 7.19
9/19/2021 9:00:00 AM 14.68 58.424 0.559 7.9 10.73 7.33
9/19/2021 9:15:00 AM 14.67 58.406 0.557 7.91 11.35 7.47
9/19/2021 9:30:00 AM 14.68 58.424 0.557 7.92 11.18 7.6
9/19/2021 9:45:00 AM 14.69 58.442 0.557 7.92 10.63 7.75
9/19/2021 10:00:00 AM 14.73 58.514 0.557 7.94 11.15 7.92
9/19/2021 10:15:00 AM 14.77 58.586 0.556 7.95 11.61 8.12
9/19/2021 10:30:00 AM 14.8 58.64 0.556 7.96 13.26 8.28
9/19/2021 10:45:00 AM 14.87 58.766 0.556 7.98 10.7 8.46
9/19/2021 11:00:00 AM 14.96 58.928 0.555 7.99 13.48 8.66
9/19/2021 11:15:00 AM 15.06 59.108 0.554 8.01 13.91 8.83
9/19/2021 11:30:00 AM 15.17 59.306 0.555 8.03 13.48 9.02
9/19/2021 11:45:00 AM 15.29 59.522 0.555 8.04 10.6 9.21
9/19/2021 12:00:00 PM 15.42 59.756 0.554 8.06 12.03 9.38
9/19/2021 12:15:00 PM 15.56 60.008 0.554 8.08 11.56 9.55
9/19/2021 12:30:00 PM 15.69 60.242 0.554 8.09 16.98 9.69
9/19/2021 12:45:00 PM 15.84 60.512 0.552 8.11 11.39 9.83
9/19/2021 1:00:00 PM 15.98 60.764 0.55 8.13 13.98 9.94
9/19/2021 1:15:00 PM 16.12 61.016 0.549 8.14 15.93 10.04
9/19/2021 1:30:00 PM 16.26 61.268 0.548 8.16 17.1 10.14
9/19/2021 1:45:00 PM 16.4 61.52 0.543 8.17 92.66 10.21
9/19/2021 2:00:00 PM 16.54 61.772 0.539 8.19 12.39 10.29
9/19/2021 2:15:00 PM 16.67 62.006 0.532 8.2 15.71 10.35
9/19/2021 2:30:00 PM 16.79 62.222 0.52 8.22 11.98 10.38
9/19/2021 2:45:00 PM 16.91 62.438 0.532 8.23 12.43 10.44
9/19/2021 3:00:00 PM 17.01 62.618 0.531 8.23 11.27 10.44
9/19/2021 3:15:00 PM 17.11 62.798 0.53 8.25 11.06 10.45
9/19/2021 3:30:00 PM 17.19 62.942 0.515 8.26 15.31 10.4
9/19/2021 3:45:00 PM 17.27 63.086 0.522 8.26 10.2 10.41
9/19/2021 4:00:00 PM 17.34 63.212 0.526 8.26 11.42 10.39
9/19/2021 4:15:00 PM 17.41 63.338 0.526 8.27 15.55 10.32
9/19/2021 4:30:00 PM 17.47 63.446 0.522 8.27 10.35 10.25
9/19/2021 4:45:00 PM 17.53 63.554 0.513 8.28 9.9 10.2
9/19/2021 5:00:00 PM 17.57 63.626 0.514 8.27 11.61 10.09
9/19/2021 5:15:00 PM 17.61 63.698 0.528 8.27 11.5 9.95
9/19/2021 5:30:00 PM 17.63 63.734 0.536 8.26 9.61 9.83
9/19/2021 5:45:00 PM 17.64 63.752 0.531 8.25 9.98 9.65
9/19/2021 6:00:00 PM 17.63 63.734 0.534 8.24 14.49 9.44
9/19/2021 6:15:00 PM 17.62 63.716 0.531 8.23 13.56 9.24
9/19/2021 6:30:00 PM 17.61 63.698 0.524 8.21 31.29 9.01
9/19/2021 6:45:00 PM 17.59 63.662 0.522 8.2 15.05 8.77
9/19/2021 7:00:00 PM 17.57 63.626 0.52 8.18 19.7 8.56
9/19/2021 7:15:00 PM 17.54 63.572 0.542 8.17 12.48 8.36
9/19/2021 7:30:00 PM 17.51 63.518 0.539 8.15 13.14 8.16
9/19/2021 7:45:00 PM 17.47 63.446 0.54 8.13 13.7 7.97
9/19/2021 8:00:00 PM 17.43 63.374 0.538 8.11 13.48 7.79
9/19/2021 8:15:00 PM 17.39 63.302 0.539 8.09 14.18 7.64
9/19/2021 8:30:00 PM 17.35 63.23 0.538 8.08 14.27 7.53
9/19/2021 8:45:00 PM 17.3 63.14 0.54 8.07 11.79 7.39
9/19/2021 9:00:00 PM 17.25 63.05 0.54 8.05 13.76 7.29
9/19/2021 9:15:00 PM 17.19 62.942 0.541 8.03 12.19 7.17
9/19/2021 9:30:00 PM 17.13 62.834 0.541 8.02 11.14 7.08
9/19/2021 9:45:00 PM 17.07 62.726 0.542 8.01 10.88 6.99
9/19/2021 10:00:00 PM 17 62.6 0.542 8 11.81 6.91
9/19/2021 10:15:00 PM 16.93 62.474 0.543 7.98 13.19 6.84
9/19/2021 10:30:00 PM 16.85 62.33 0.543 7.97 13.28 6.78
9/19/2021 10:45:00 PM 16.77 62.186 0.544 7.96 13.54 6.73
9/19/2021 11:00:00 PM 16.69 62.042 0.545 7.95 12.07 6.69
9/19/2021 11:15:00 PM 16.61 61.898 0.545 7.94 13.35 6.65
9/19/2021 11:30:00 PM 16.53 61.754 0.546 7.93 15.65 6.61
9/19/2021 11:45:00 PM 16.45 61.61 0.546 7.93 13.09 6.58
9/20/2021 12:00:00 AM 16.36 61.448 0.548 7.92 12.35 6.55
9/20/2021 12:15:00 AM 16.27 61.286 0.548 7.92 19.05 6.53
9/20/2021 12:30:00 AM 16.18 61.124 0.548 7.91 11.42 6.51
9/20/2021 12:45:00 AM 16.09 60.962 0.55 7.91 14.83 6.5
9/20/2021 1:00:00 AM 16 60.8 0.55 7.9 14.93 6.5
9/20/2021 1:15:00 AM 15.9 60.62 0.551 7.9 18.97 6.48
9/20/2021 1:30:00 AM 15.81 60.458 0.553 7.89 12.46 6.49
9/20/2021 1:45:00 AM 15.71 60.278 0.553 7.89 17.65 6.49
9/20/2021 2:00:00 AM 15.62 60.116 0.555 7.88 20.4 6.46
9/20/2021 2:15:00 AM 15.53 59.954 0.555 7.88 15.18 6.48
9/20/2021 2:30:00 AM 15.43 59.774 0.555 7.88 12.25 6.49
9/20/2021 2:45:00 AM 15.34 59.612 0.555 7.88 17.68 6.49
9/20/2021 3:00:00 AM 15.24 59.432 0.556 7.88 14.31 6.5
9/20/2021 3:15:00 AM 15.14 59.252 0.557 7.87 13.77 6.53
9/20/2021 3:30:00 AM 15.05 59.09 0.558 7.87 14.74 6.54
9/20/2021 3:45:00 AM 14.96 58.928 0.558 7.87 16.1 6.55
9/20/2021 4:00:00 AM 14.87 58.766 0.559 7.87 12.01 6.57
9/20/2021 4:15:00 AM 14.78 58.604 0.559 7.88 12.26 6.59
9/20/2021 4:30:00 AM 14.69 58.442 0.559 7.87 13.69 6.6
9/20/2021 4:45:00 AM 14.61 58.298 0.56 7.87 14.98 6.62
9/20/2021 5:00:00 AM 14.53 58.154 0.559 7.87 13.32 6.63
9/20/2021 5:15:00 AM 14.45 58.01 0.56 7.87 12.75 6.66
9/20/2021 5:30:00 AM 14.38 57.884 0.56 7.87 14.9 6.68
9/20/2021 5:45:00 AM 14.29 57.722 0.561 7.87 13.14 6.68
9/20/2021 6:00:00 AM 14.22 57.596 0.56 7.87 14.93 6.71
9/20/2021 6:15:00 AM 14.14 57.452 0.559 7.87 14.34 6.72
9/20/2021 6:30:00 AM 14.07 57.326 0.559 7.87 14.79 6.75
9/20/2021 6:45:00 AM 13.99 57.182 0.559 7.87 17.59 6.77
9/20/2021 7:00:00 AM 13.93 57.074 0.559 7.87 12.38 6.8
9/20/2021 7:15:00 AM 13.87 56.966 0.559 7.87 15.83 6.82
9/20/2021 7:30:00 AM 13.8 56.84 0.559 7.87 16.07 6.91
9/20/2021 7:45:00 AM 13.74 56.732 0.559 7.88 24.2 7.01
9/20/2021 8:00:00 AM 13.69 56.642 0.56 7.89 18.01 7.14
9/20/2021 8:15:00 AM 13.66 56.588 0.559 7.9 16.33 7.31
9/20/2021 8:30:00 AM 13.63 56.534 0.561 7.9 18.49 7.43
9/20/2021 8:45:00 AM 13.61 56.498 0.56 7.92 14.34 7.62
9/20/2021 9:00:00 AM 13.62 56.516 0.56 7.93 13.98 7.8
9/20/2021 9:15:00 AM 13.61 56.498 0.561 7.94 14.98 7.93
9/20/2021 9:30:00 AM 13.62 56.516 0.56 7.95 14.54 8.08
9/20/2021 9:45:00 AM 13.64 56.552 0.56 7.96 14.43 8.2
9/20/2021 10:00:00 AM 13.67 56.606 0.559 7.97 18.89 8.36
9/20/2021 10:15:00 AM 13.74 56.732 0.559 7.98 14.91 8.59
9/20/2021 10:30:00 AM 13.84 56.912 0.558 8 14.93 8.88
9/20/2021 10:45:00 AM 13.91 57.038 0.558 8.02 16.76 9.07
9/20/2021 11:00:00 AM 14.03 57.254 0.557 8.04 15.56 9.32
9/20/2021 11:15:00 AM 14.15 57.47 0.556 8.06 12.91 9.52
9/20/2021 11:30:00 AM 14.27 57.686 0.556 8.08 15.17 9.71
9/20/2021 11:45:00 AM 14.37 57.866 0.555 8.1 19.76 9.91
9/20/2021 12:00:00 PM 14.45 58.01 0.554 8.12 16.33 10.1
9/20/2021 12:15:00 PM 14.51 58.118 0.554 8.14 30.31 10.21
9/20/2021 12:30:00 PM 14.54 58.172 0.555 8.14 14.35 10.2
9/20/2021 12:45:00 PM 14.56 58.208 0.552 8.15 15.33 10.16
9/20/2021 1:00:00 PM 14.57 58.226 0.55 8.16 13.07 10.13
9/20/2021 1:15:00 PM 14.58 58.244 0.55 8.16 15.98 10.08
9/20/2021 1:30:00 PM 14.62 58.316 0.55 8.16 17.02 10.08
9/20/2021 1:45:00 PM 14.7 58.46 0.544 8.17 18.12 10.21
9/20/2021 2:00:00 PM 14.79 58.622 0.548 8.19 17.34 10.37
9/20/2021 2:15:00 PM 14.86 58.748 0.542 8.2 15.62 10.44
9/20/2021 2:30:00 PM 14.93 58.874 0.539 8.22 17.97 10.49
9/20/2021 2:45:00 PM 14.97 58.946 0.542 8.22 18.22 10.44
9/20/2021 3:00:00 PM 15.05 59.09 0.536 8.23 16.09 10.45
9/20/2021 3:15:00 PM 15.14 59.252 0.536 8.24 15.58 10.49
9/20/2021 3:30:00 PM 15.24 59.432 0.541 8.25 14.6 10.55
9/20/2021 3:45:00 PM 15.33 59.594 0.534 8.26 14.16 10.56
9/20/2021 4:00:00 PM 15.4 59.72 0.531 8.27 18.51 10.54
9/20/2021 4:15:00 PM 15.47 59.846 0.534 8.27 21.2 10.41
9/20/2021 4:30:00 PM 15.53 59.954 0.53 8.26 14.75 10.29
9/20/2021 4:45:00 PM 15.57 60.026 0.531 8.25 16.73 10.1
9/20/2021 5:00:00 PM 15.59 60.062 0.527 8.24 11.94 9.91
9/20/2021 5:15:00 PM 15.61 60.098 0.535 8.23 15.15 9.68
9/20/2021 5:30:00 PM 15.64 60.152 0.532 8.22 21.5 9.47
9/20/2021 5:45:00 PM 15.66 60.188 0.528 8.21 12.6 9.26
9/20/2021 6:00:00 PM 15.69 60.242 0.528 8.21 16.27 9.13
9/20/2021 6:15:00 PM 15.72 60.296 0.531 8.19 14.15 8.94
9/20/2021 6:30:00 PM 15.73 60.314 0.535 8.18 23.44 8.78
9/20/2021 6:45:00 PM 15.75 60.35 0.532 8.16 17.44 8.6
9/20/2021 7:00:00 PM 15.75 60.35 0.533 8.15 15.5 8.38
9/20/2021 7:15:00 PM 15.76 60.368 0.535 8.13 21.33 8.22
9/20/2021 7:30:00 PM 15.77 60.386 0.535 8.11 18.35 8.05
9/20/2021 7:45:00 PM 15.77 60.386 0.534 8.09 15.97 7.88
9/20/2021 8:00:00 PM 15.76 60.368 0.536 8.08 20.95 7.74
9/20/2021 8:15:00 PM 15.74 60.332 0.537 8.07 16.28 7.65
9/20/2021 8:30:00 PM 15.72 60.296 0.536 8.05 21.49 7.53
9/20/2021 8:45:00 PM 15.7 60.26 0.536 8.04 21.46 7.42
9/20/2021 9:00:00 PM 15.68 60.224 0.537 8.02 15.68 7.34
9/20/2021 9:15:00 PM 15.66 60.188 0.538 8.01 20.63 7.26
9/20/2021 9:30:00 PM 15.63 60.134 0.538 8 15.83 7.17
9/20/2021 9:45:00 PM 15.61 60.098 0.538 7.99 18.72 7.1
9/20/2021 10:00:00 PM 15.58 60.044 0.538 7.98 15.67 7.04
9/20/2021 10:15:00 PM 15.55 59.99 0.538 7.97 22.94 6.98
9/20/2021 10:30:00 PM 15.52 59.936 0.539 7.96 19.21 6.94
9/20/2021 10:45:00 PM 15.48 59.864 0.539 7.96 21.75 6.89
9/20/2021 11:00:00 PM 15.44 59.792 0.54 7.95 17.86 6.83
9/20/2021 11:15:00 PM 15.4 59.72 0.541 7.94 21.32 6.79
9/20/2021 11:30:00 PM 15.37 59.666 0.541 7.93 32.54 6.76
9/20/2021 11:45:00 PM 15.33 59.594 0.543 7.92 21.98 6.73
9/21/2021 12:00:00 AM 15.29 59.522 0.544 7.92 20.36 6.69
9/21/2021 12:15:00 AM 15.26 59.468 0.544 7.92 18.85 6.67
9/21/2021 12:30:00 AM 15.22 59.396 0.545 7.91 15.77 6.66
9/21/2021 12:45:00 AM 15.18 59.324 0.546 7.91 19.61 6.64
9/21/2021 1:00:00 AM 15.14 59.252 0.546 7.9 17.49 6.63
9/21/2021 1:15:00 AM 15.1 59.18 0.547 7.9 15.86 6.63
9/21/2021 1:30:00 AM 15.06 59.108 0.548 7.9 20.8 6.63
9/21/2021 1:45:00 AM 15.02 59.036 0.549 7.9 19.97 6.62
9/21/2021 2:00:00 AM 14.97 58.946 0.549 7.89 21.47 6.63
9/21/2021 2:15:00 AM 14.92 58.856 0.55 7.89 17.47 6.61
9/21/2021 2:30:00 AM 14.87 58.766 0.551 7.89 21.88 6.63
9/21/2021 2:45:00 AM 14.81 58.658 0.551 7.89 21.12 6.62
9/21/2021 3:00:00 AM 14.76 58.568 0.553 7.89 20.12 6.63
9/21/2021 3:15:00 AM 14.71 58.478 0.553 7.88 16.24 6.64
9/21/2021 3:30:00 AM 14.67 58.406 0.554 7.89 18.65 6.65
9/21/2021 3:45:00 AM 14.63 58.334 0.554 7.89 20.08 6.64
9/21/2021 4:00:00 AM 14.6 58.28 0.554 7.89 13.22 6.67
9/21/2021 4:15:00 AM 14.56 58.208 0.554 7.89 20.98 6.67
9/21/2021 4:30:00 AM 14.52 58.136 0.554 7.89 21.54 6.68
9/21/2021 4:45:00 AM 14.49 58.082 0.554 7.89 17.25 6.67
9/21/2021 5:00:00 AM 14.45 58.01 0.554 7.89 20.58 6.7
9/21/2021 5:15:00 AM 14.4 57.92 0.555 7.89 26.39 6.7
9/21/2021 5:30:00 AM 14.36 57.848 0.555 7.88 38.2 6.71
9/21/2021 5:45:00 AM 14.33 57.794 0.555 7.88 22.69 6.72
9/21/2021 6:00:00 AM 14.29 57.722 0.557 7.88 21.39 6.73
9/21/2021 6:15:00 AM 14.27 57.686 0.557 7.88 23.86 6.75
9/21/2021 6:30:00 AM 14.24 57.632 0.557 7.88 21.05 6.74
9/21/2021 6:45:00 AM 14.22 57.596 0.557 7.88 22.55 6.75
9/21/2021 7:00:00 AM 14.2 57.56 0.557 7.88 22.44 6.76
9/21/2021 7:15:00 AM 14.17 57.506 0.557 7.88 15.28 6.78
9/21/2021 7:30:00 AM 14.14 57.452 0.557 7.88 22.11 6.82
9/21/2021 7:45:00 AM 14.12 57.416 0.557 7.89 19.37 6.89
9/21/2021 8:00:00 AM 14.09 57.362 0.557 7.89 16.86 6.96
9/21/2021 8:15:00 AM 14.08 57.344 0.557 7.9 19.71 7.05
9/21/2021 8:30:00 AM 14.07 57.326 0.557 7.9 17.04 7.13
9/21/2021 8:45:00 AM 14.07 57.326 0.556 7.91 18.5 7.29
9/21/2021 9:00:00 AM 14.09 57.362 0.556 7.93 13.57 7.43
9/21/2021 9:15:00 AM 14.1 57.38 0.556 7.93 32.38 7.55
9/21/2021 9:30:00 AM 14.1 57.38 0.556 7.94 17.97 7.63
9/21/2021 9:45:00 AM 14.1 57.38 0.556 7.94 19.02 7.71
9/21/2021 10:00:00 AM 14.1 57.38 0.556 7.95 16.94 7.75
9/21/2021 10:15:00 AM 14.1 57.38 0.556 7.96 21.14 7.82
9/21/2021 10:30:00 AM 14.1 57.38 0.555 7.96 27.75 7.9
9/21/2021 10:45:00 AM 14.12 57.416 0.555 7.97 26.14 8.05
9/21/2021 11:00:00 AM 14.13 57.434 0.555 7.98 22.9 8.11
9/21/2021 11:15:00 AM 14.14 57.452 0.555 7.98 24.32 8.2
9/21/2021 11:30:00 AM 14.17 57.506 0.555 8 20.61 8.32
9/21/2021 11:45:00 AM 14.19 57.542 0.555 8.01 23.23 8.39
9/21/2021 12:00:00 PM 14.24 57.632 0.554 8.02 15.94 8.65
9/21/2021 12:15:00 PM 14.31 57.758 0.553 8.05 23.63 8.91
9/21/2021 12:30:00 PM 14.34 57.812 0.553 8.05 22.54 9.01
9/21/2021 12:45:00 PM 14.4 57.92 0.552 8.07 18.79 9.21
9/21/2021 1:00:00 PM 14.47 58.046 0.551 8.09 22.8 9.44
9/21/2021 1:15:00 PM 14.56 58.208 0.55 8.12 26.86 9.69
9/21/2021 1:30:00 PM 14.63 58.334 0.549 8.14 20.91 9.84
9/21/2021 1:45:00 PM 14.7 58.46 0.548 8.16 26.22 9.98
9/21/2021 2:00:00 PM 14.77 58.586 0.548 8.17 18.16 10.11
9/21/2021 2:15:00 PM 14.86 58.748 0.545 8.2 19.62 10.27
9/21/2021 2:30:00 PM 14.92 58.856 0.547 8.2 31.8 10.26
9/21/2021 2:45:00 PM 14.99 58.982 0.545 8.22 31.93 10.31
9/21/2021 3:00:00 PM 15.06 59.108 0.545 8.23 28.4 10.37
9/21/2021 3:15:00 PM 15.15 59.27 0.542 8.25 24.62 10.54
9/21/2021 3:30:00 PM 15.2 59.36 0.536 8.26 40.59 10.53
9/21/2021 3:45:00 PM 15.28 59.504 0.541 8.27 24.29 10.58
9/21/2021 4:00:00 PM 15.33 59.594 0.543 8.28 45.68 10.56
9/21/2021 4:15:00 PM 15.37 59.666 0.543 8.28 34.05 10.52
9/21/2021 4:30:00 PM 15.4 59.72 0.538 8.28 22.58 10.45
9/21/2021 4:45:00 PM 15.42 59.756 0.539 8.27 24.41 10.26
9/21/2021 5:00:00 PM 15.44 59.792 0.539 8.27 32.6 10.14
9/21/2021 5:15:00 PM 15.46 59.828 0.537 8.27 24.17 10
9/21/2021 5:30:00 PM 15.48 59.864 0.535 8.25 28.56 9.79
9/21/2021 5:45:00 PM 15.49 59.882 0.537 8.24 25.68 9.58
9/21/2021 6:00:00 PM 15.49 59.882 0.542 8.23 23.43 9.41
9/21/2021 6:15:00 PM 15.48 59.864 0.543 8.21 17.99 9.14
9/21/2021 6:30:00 PM 15.49 59.882 0.538 8.19 15.94 8.93
9/21/2021 6:45:00 PM 15.48 59.864 0.54 8.17 19.21 8.73
9/21/2021 7:00:00 PM 15.47 59.846 0.541 8.15 16.52 8.52
9/21/2021 7:15:00 PM 15.47 59.846 0.537 8.13 29.93 8.35
9/21/2021 7:30:00 PM 15.47 59.846 0.535 8.12 16.54 8.18
9/21/2021 7:45:00 PM 15.46 59.828 0.537 8.1 24.16 8
9/21/2021 8:00:00 PM 15.46 59.828 0.53 8.09 22.05 7.87
9/21/2021 8:15:00 PM 15.46 59.828 0.538 8.07 17.65 7.74
9/21/2021 8:30:00 PM 15.46 59.828 0.538 8.06 29.97 7.62
9/21/2021 8:45:00 PM 15.46 59.828 0.538 8.04 30.93 7.52
9/21/2021 9:00:00 PM 15.46 59.828 0.538 8.03 27.29 7.42
9/21/2021 9:15:00 PM 15.47 59.846 0.539 8.02 16.66 7.32
9/21/2021 9:30:00 PM 15.47 59.846 0.539 8.01 25.04 7.24
9/21/2021 9:45:00 PM 15.48 59.864 0.539 7.99 25.36 7.17
9/21/2021 10:00:00 PM 15.48 59.864 0.54 7.99 13.98 7.08
9/21/2021 10:15:00 PM 15.48 59.864 0.541 7.98 25.49 7.04
9/21/2021 10:30:00 PM 15.49 59.882 0.541 7.97 23.75 6.98
9/21/2021 10:45:00 PM 15.49 59.882 0.542 7.96 29.36 6.92
9/21/2021 11:00:00 PM 15.49 59.882 0.542 7.96 26.86 6.88
9/21/2021 11:15:00 PM 15.49 59.882 0.542 7.95 22.5 6.82
9/21/2021 11:30:00 PM 15.48 59.864 0.543 7.94 21.2 6.78
9/21/2021 11:45:00 PM 15.47 59.846 0.543 7.94 16.65 6.75
9/22/2021 12:00:00 AM 15.46 59.828 0.544 7.93 18.75 6.71
9/22/2021 12:15:00 AM 15.45 59.81 0.545 7.92 18.77 6.69
9/22/2021 12:30:00 AM 15.44 59.792 0.545 7.92 21.14 6.65
9/22/2021 12:45:00 AM 15.43 59.774 0.546 7.92 19.07 6.61
9/22/2021 1:00:00 AM 15.42 59.756 0.547 7.91 14.95 6.6
9/22/2021 1:15:00 AM 15.4 59.72 0.547 7.91 15.74 6.58
9/22/2021 1:30:00 AM 15.39 59.702 0.549 7.91 21.35 6.56
9/22/2021 1:45:00 AM 15.37 59.666 0.55 7.9 21.07 6.53
9/22/2021 2:00:00 AM 15.35 59.63 0.551 7.89 22.92 6.51
9/22/2021 2:15:00 AM 15.34 59.612 0.551 7.89 20.26 6.51
9/22/2021 2:30:00 AM 15.33 59.594 0.55 7.88 20.19 6.48
9/22/2021 2:45:00 AM 15.3 59.54 0.551 7.88 19.47 6.48
9/22/2021 3:00:00 AM 15.27 59.486 0.551 7.88 25 6.49
9/22/2021 3:15:00 AM 15.24 59.432 0.552 7.88 21.77 6.48
9/22/2021 3:30:00 AM 15.23 59.414 0.553 7.88 20.59 6.49
9/22/2021 3:45:00 AM 15.21 59.378 0.553 7.88 15.51 6.49
9/22/2021 4:00:00 AM 15.19 59.342 0.553 7.88 29.35 6.5
9/22/2021 4:15:00 AM 15.17 59.306 0.554 7.89 23.42 6.49
9/22/2021 4:30:00 AM 15.14 59.252 0.554 7.88 18.58 6.5
9/22/2021 4:45:00 AM 15.12 59.216 0.554 7.88 18.08 6.5
9/22/2021 5:00:00 AM 15.1 59.18 0.555 7.88 20.78 6.49
9/22/2021 5:15:00 AM 15.08 59.144 0.555 7.88 24.74 6.5
9/22/2021 5:30:00 AM 15.06 59.108 0.555 7.87 23.96 6.5
9/22/2021 5:45:00 AM 15.05 59.09 0.555 7.87 21.96 6.49
9/22/2021 6:00:00 AM 15.03 59.054 0.555 7.86 9.73 6.47
9/22/2021 6:15:00 AM 15.02 59.036 0.555 7.86 25.26 6.45
9/22/2021 6:30:00 AM 15.02 59.036 0.554 7.87 30.34 6.45
9/22/2021 6:45:00 AM 15 59 0.555 7.86 23.54 6.47
9/22/2021 7:00:00 AM 14.99 58.982 0.555 7.86 25.25 6.46
9/22/2021 7:15:00 AM 14.98 58.964 0.555 7.86 18.84 6.48
9/22/2021 7:30:00 AM 14.96 58.928 0.555 7.86 24.87 6.49
9/22/2021 7:45:00 AM 14.95 58.91 0.555 7.86 19.8 6.53
9/22/2021 8:00:00 AM 14.95 58.91 0.555 7.86 24.4 6.58
9/22/2021 8:15:00 AM 14.96 58.928 0.555 7.87 17.8 6.65
9/22/2021 8:30:00 AM 14.98 58.964 0.555 7.88 21.3 6.78
9/22/2021 8:45:00 AM 14.98 58.964 0.555 7.88 28.99 6.84
9/22/2021 9:00:00 AM 14.98 58.964 0.555 7.89 23.46 6.88
9/22/2021 9:15:00 AM 14.98 58.964 0.555 7.89 29.18 6.89
9/22/2021 9:30:00 AM 14.98 58.964 0.554 7.89 25.02 6.94
9/22/2021 9:45:00 AM 14.98 58.964 0.554 7.9 14.12 7.01
9/22/2021 10:00:00 AM 14.99 58.982 0.553 7.91 29.49 7.16
9/22/2021 10:15:00 AM 15.02 59.036 0.553 7.92 24.78 7.4
9/22/2021 10:30:00 AM 15.05 59.09 0.553 7.93 23.12 7.49
9/22/2021 10:45:00 AM 15.1 59.18 0.553 7.95 23.49 7.72
9/22/2021 11:00:00 AM 15.15 59.27 0.553 7.96 33.76 7.89
9/22/2021 11:15:00 AM 15.19 59.342 0.552 7.97 30.93 7.99
9/22/2021 11:30:00 AM 15.21 59.378 0.552 7.98 17.23 8.02
9/22/2021 11:45:00 AM 15.3 59.54 0.55 7.98 26.59 8.01
9/22/2021 12:00:00 PM 15.31 59.558 0.55 7.98 22.06 8.1
9/22/2021 12:15:00 PM 15.33 59.594 0.548 7.99 25.33 8.08
9/22/2021 12:30:00 PM 15.64 60.152 0.551 7.98 28.51 8.1
9/22/2021 12:45:00 PM 15.53 59.954 0.556 7.98 16.48 8.34
9/22/2021 1:00:00 PM 15.53 59.954 0.553 7.99 12.88 8.61
9/22/2021 1:15:00 PM 15.57 60.026 0.548 8.02 9.84 8.91
9/22/2021 1:30:00 PM 15.63 60.134 0.545 8.06 11 9.1
9/22/2021 1:45:00 PM 15.65 60.17 0.544 8.06 10.74 9.04
9/22/2021 2:00:00 PM 15.71 60.278 0.542 8.07 10.57 9.09
9/22/2021 2:15:00 PM 15.75 60.35 0.541 8.08 16.12 8.98
9/22/2021 2:30:00 PM 15.8 60.44 0.54 8.09 15.88 9.01
9/22/2021 2:45:00 PM 15.89 60.602 0.54 8.08 13.17 8.94
9/22/2021 3:00:00 PM 16.02 60.836 0.54 8.08 15.44 8.84
9/22/2021 3:15:00 PM 16.58 61.844 0.604 8.04 60.54 8.54
9/22/2021 3:30:00 PM 16.55 61.79 0.62 8 43.98 8.43
9/22/2021 3:45:00 PM 16.34 61.412 0.573 8 23.45 8.43
9/22/2021 4:00:00 PM 16.78 62.204 0.622 7.99 79.99 8.14
9/22/2021 4:15:00 PM 16.48 61.664 0.56 7.98 32.59 8.23
9/22/2021 4:30:00 PM 16.42 61.556 0.534 7.99 20.96 8.26
9/22/2021 4:45:00 PM 16.41 61.538 0.523 8.01 23.21 8.21
9/22/2021 5:00:00 PM 16.41 61.538 0.518 8.02 25.11 8.12
9/22/2021 5:15:00 PM 16.49 61.682 0.509 8.03 25.54 8.03
9/22/2021 5:30:00 PM 16.64 61.952 0.495 8.03 35.07 7.84
9/22/2021 5:45:00 PM 16.8 62.24 0.481 8 28.95 7.58
9/22/2021 6:00:00 PM 16.95 62.51 0.468 7.97 36.59 7.34
9/22/2021 6:15:00 PM 17.11 62.798 0.457 7.93 47.22 7.12
9/22/2021 6:30:00 PM 17.29 63.122 0.44 7.9 52.07 6.92
9/22/2021 6:45:00 PM 17.43 63.374 0.434 7.87 56.23 6.82
9/22/2021 7:00:00 PM 17.45 63.41 0.442 7.86 55.37 6.78
9/22/2021 7:15:00 PM 17.38 63.284 0.45 7.86 50.74 6.8
9/22/2021 7:30:00 PM 17.24 63.032 0.465 7.88 44.66 6.84
9/22/2021 7:45:00 PM 17.11 62.798 0.477 7.9 44.68 6.86
9/22/2021 8:00:00 PM 17.04 62.672 0.48 7.9 39.56 6.8
9/22/2021 8:15:00 PM 17.07 62.726 0.474 7.9 38.42 6.65
9/22/2021 8:30:00 PM 17.18 62.924 0.462 7.88 50.17 6.49
9/22/2021 8:45:00 PM 17.33 63.194 0.454 7.88 44.47 6.33
9/22/2021 9:00:00 PM 17.49 63.482 0.45 7.85 43.61 6.18
9/22/2021 9:15:00 PM 17.61 63.698 0.448 7.84 49.05 6.05
9/22/2021 9:30:00 PM 17.69 63.842 0.443 7.83 45.4 5.98
9/22/2021 9:45:00 PM 17.71 63.878 0.441 7.82 50.81 5.95
9/22/2021 10:00:00 PM 17.7 63.86 0.441 7.81 53.45 5.95
9/22/2021 10:15:00 PM 17.67 63.806 0.442 7.8 52.46 5.96
9/22/2021 10:30:00 PM 17.63 63.734 0.443 7.79 53.48 5.98
9/22/2021 10:45:00 PM 17.66 63.788 0.499 7.77 56.33 5.98
9/22/2021 11:00:00 PM 17.6 63.68 0.475 7.77 49.77 5.99
9/22/2021 11:15:00 PM 17.53 63.554 0.481 7.76 56.77 5.97
9/22/2021 11:30:00 PM 17.41 63.338 0.475 7.76 53.97 5.95
9/22/2021 11:45:00 PM 17.34 63.212 0.475 7.76 51.38 5.97
9/23/2021 12:00:00 AM 17.56 63.608 0.521 7.79 117 6.18
9/23/2021 12:15:00 AM 17.36 63.248 0.514 7.81 125.8 6.24
9/23/2021 12:30:00 AM 17.15 62.87 0.484 7.78 90.75 6.16
9/23/2021 12:45:00 AM 17.08 62.744 0.465 7.77 95.88 6.11
9/23/2021 1:00:00 AM 17.11 62.798 0.454 7.78 80.18 6.1
9/23/2021 1:15:00 AM 17.16 62.888 0.432 7.77 84.25 6.13
9/23/2021 1:30:00 AM 17.19 62.942 0.426 7.76 83.83 6.15
9/23/2021 1:45:00 AM 17.23 63.014 0.393 7.74 93.58 6.15
9/23/2021 2:00:00 AM 17.27 63.086 0.366 7.73 98.83 6.14
9/23/2021 2:15:00 AM 17.32 63.176 0.354 7.72 131.2 6.15
9/23/2021 2:30:00 AM 17.32 63.176 0.347 7.71 105.4 6.21
9/23/2021 2:45:00 AM 17.12 62.816 0.365 7.71 90.14 6.24
9/23/2021 3:00:00 AM 16.88 62.384 0.402 7.75 131.4 6.39
9/23/2021 3:15:00 AM 16.92 62.456 0.36 7.72 111.1 6.29
9/23/2021 3:30:00 AM 17.02 62.636 0.339 7.72 139.8 6.19
9/23/2021 3:45:00 AM 17.26 63.068 0.295 7.73 186.7 6.08
9/23/2021 4:00:00 AM 17.3 63.14 0.252 7.73 205.3 6.16
9/23/2021 4:15:00 AM 17.29 63.122 0.239 7.71 200.6 6.16
9/23/2021 4:30:00 AM 17.31 63.158 0.251 7.69 193 6.08
9/23/2021 4:45:00 AM 17.36 63.248 0.257 7.66 180 5.94
9/23/2021 5:00:00 AM 17.33 63.194 0.254 7.65 182.2 5.9
9/23/2021 5:15:00 AM 17.27 63.086 0.247 7.64 175.2 5.9
9/23/2021 5:30:00 AM 17.22 62.996 0.244 7.63 178 5.92
9/23/2021 5:45:00 AM 17.23 63.014 0.236 7.63 195.3 5.83
9/23/2021 6:00:00 AM 17.17 62.906 0.227 7.63 200.1 5.81
9/23/2021 6:15:00 AM 17.08 62.744 0.218 7.62 193.4 5.84
9/23/2021 6:30:00 AM 17.04 62.672 0.212 7.6 176.7 5.85
9/23/2021 6:45:00 AM 16.99 62.582 0.211 7.59 166.6 5.85
9/23/2021 7:00:00 AM 16.94 62.492 0.213 7.58 149.9 5.82
9/23/2021 7:15:00 AM 16.89 62.402 0.214 7.56 148.7 5.82
9/23/2021 7:30:00 AM 16.84 62.312 0.219 7.55 134.6 5.83
9/23/2021 7:45:00 AM 16.81 62.258 0.222 7.54 127.5 5.82
9/23/2021 8:00:00 AM 16.77 62.186 0.225 7.53 119 5.83
9/23/2021 8:15:00 AM 16.75 62.15 0.226 7.52 124.6 5.81
9/23/2021 8:30:00 AM 16.73 62.114 0.228 7.51 114.1 5.81
9/23/2021 8:45:00 AM 16.71 62.078 0.23 7.5 103.7 5.8
9/23/2021 9:00:00 AM 16.68 62.024 0.234 7.49 102.5 5.81
9/23/2021 9:15:00 AM 16.65 61.97 0.24 7.49 98.09 5.81
9/23/2021 9:30:00 AM 16.62 61.916 0.247 7.49 96.3 5.82
9/23/2021 9:45:00 AM 16.58 61.844 0.254 7.49 91.46 5.83
9/23/2021 10:00:00 AM 16.56 61.808 0.261 7.49 92.24 5.84
9/23/2021 10:15:00 AM 16.54 61.772 0.267 7.49 90.94 5.87
9/23/2021 10:30:00 AM 16.54 61.772 0.271 7.49 84.73 5.91
9/23/2021 10:45:00 AM 16.56 61.808 0.274 7.5 88.43 5.97
9/23/2021 11:00:00 AM 16.56 61.808 0.277 7.5 86.47 6.03
9/23/2021 11:15:00 AM 16.59 61.862 0.279 7.5 83.48 6.08
9/23/2021 11:30:00 AM 16.61 61.898 0.281 7.5 78.62 6.13
9/23/2021 11:45:00 AM 16.65 61.97 0.284 7.51 79.08 6.17
9/23/2021 12:00:00 PM 16.71 62.078 0.289 7.51 80.68 6.21
9/23/2021 12:15:00 PM 16.77 62.186 0.294 7.51 80.94 6.25
9/23/2021 12:30:00 PM 16.86 62.348 0.302 7.51 75.36 6.29
9/23/2021 12:45:00 PM 16.94 62.492 0.309 7.51 72.85 6.33
9/23/2021 1:00:00 PM 16.96 62.528 0.316 7.51 70.12 6.37
9/23/2021 1:15:00 PM 17.07 62.726 0.323 7.51 72.9 6.41
9/23/2021 1:30:00 PM 17.16 62.888 0.329 7.52 66.93 6.47
9/23/2021 1:45:00 PM 17.2 62.96 0.335 7.53 71.7 6.49
9/23/2021 2:00:00 PM 17.26 63.068 0.34 7.53 64.23 6.53
9/23/2021 2:15:00 PM 17.35 63.23 0.346 7.53 65.05 6.57
9/23/2021 2:30:00 PM 17.42 63.356 0.351 7.54 68.92 6.6
9/23/2021 2:45:00 PM 17.45 63.41 0.356 7.55 66.37 6.62
9/23/2021 3:00:00 PM 17.52 63.536 0.361 7.55 60.81 6.65
9/23/2021 3:15:00 PM 17.61 63.698 0.366 7.55 59.03 6.7
9/23/2021 3:30:00 PM 17.67 63.806 0.37 7.56 62.31 6.71
9/23/2021 3:45:00 PM 17.73 63.914 0.374 7.56 59.56 6.75
9/23/2021 4:00:00 PM 17.73 63.914 0.378 7.57 59.71 6.75
9/23/2021 4:15:00 PM 17.76 63.968 0.381 7.57 60.6 6.76
9/23/2021 4:30:00 PM 17.75 63.95 0.384 7.57 61.9 6.75
9/23/2021 4:45:00 PM 17.71 63.878 0.387 7.58 61.94 6.74
9/23/2021 5:00:00 PM 17.65 63.77 0.39 7.59 67.79 6.74
9/23/2021 5:15:00 PM 17.59 63.662 0.393 7.58 59.86 6.72
9/23/2021 5:30:00 PM 17.53 63.554 0.395 7.59 61.11 6.72
9/23/2021 5:45:00 PM 17.45 63.41 0.398 7.59 66.06 6.69
9/23/2021 6:00:00 PM 17.35 63.23 0.401 7.59 62.69 6.68
9/23/2021 6:15:00 PM 17.24 63.032 0.403 7.59 64.54 6.66
9/23/2021 6:30:00 PM 17.14 62.852 0.406 7.59 57.95 6.64
9/23/2021 6:45:00 PM 17.01 62.618 0.408 7.59 61.35 6.62
9/23/2021 7:00:00 PM 16.89 62.402 0.41 7.59 59.42 6.6
9/23/2021 7:15:00 PM 16.75 62.15 0.412 7.59 69.44 6.6
9/23/2021 7:30:00 PM 16.62 61.916 0.414 7.59 65.5 6.59
9/23/2021 7:45:00 PM 16.48 61.664 0.415 7.59 67.58 6.58
9/23/2021 8:00:00 PM 16.34 61.412 0.416 7.6 68.98 6.57
9/23/2021 8:15:00 PM 16.2 61.16 0.417 7.6 64.37 6.56
9/23/2021 8:30:00 PM 16.05 60.89 0.418 7.59 69.3 6.55
9/23/2021 8:45:00 PM 15.91 60.638 0.418 7.6 68.29 6.53
9/23/2021 9:00:00 PM 15.76 60.368 0.419 7.6 69.2 6.52
9/23/2021 9:15:00 PM 15.61 60.098 0.419 7.59 70.73 6.51
9/23/2021 9:30:00 PM 15.47 59.846 0.421 7.6 70.09 6.5
9/23/2021 9:45:00 PM 15.33 59.594 0.422 7.59 72.2 6.5
9/23/2021 10:00:00 PM 15.2 59.36 0.422 7.59 74.96 6.5
9/23/2021 10:15:00 PM 15.08 59.144 0.423 7.58 66.98 6.51
9/23/2021 10:30:00 PM 14.95 58.91 0.424 7.58 76.03 6.52
9/23/2021 10:45:00 PM 14.84 58.712 0.424 7.58 81.83 6.53
9/23/2021 11:00:00 PM 14.73 58.514 0.424 7.58 77.87 6.54
9/23/2021 11:15:00 PM 14.62 58.316 0.425 7.58 73.47 6.55
9/23/2021 11:30:00 PM 14.52 58.136 0.425 7.58 78.58 6.56
9/23/2021 11:45:00 PM 14.43 57.974 0.426 7.59 76.88 6.57
9/24/2021 12:00:00 AM 14.34 57.812 0.427 7.59 79.13 6.59
9/24/2021 12:15:00 AM 14.25 57.65 0.427 7.58 77.84 6.6
9/24/2021 12:30:00 AM 14.17 57.506 0.429 7.59 69.16 6.61
9/24/2021 12:45:00 AM 14.1 57.38 0.43 7.6 80.41 6.63
9/24/2021 1:00:00 AM 14.03 57.254 0.431 7.59 82.33 6.64
9/24/2021 1:15:00 AM 13.97 57.146 0.432 7.59 84.52 6.66
9/24/2021 1:30:00 AM 13.9 57.02 0.433 7.59 76.19 6.67
9/24/2021 1:45:00 AM 13.84 56.912 0.434 7.59 71.26 6.68
9/24/2021 2:00:00 AM 13.79 56.822 0.435 7.6 80.23 6.69
9/24/2021 2:15:00 AM 13.73 56.714 0.436 7.59 78.63 6.71
9/24/2021 2:30:00 AM 13.68 56.624 0.438 7.6 75.91 6.71
9/24/2021 2:45:00 AM 13.64 56.552 0.438 7.6 83.15 6.74
9/24/2021 3:00:00 AM 13.59 56.462 0.44 7.6 82.53 6.75
9/24/2021 3:15:00 AM 13.56 56.408 0.44 7.59 71.56 6.76
9/24/2021 3:30:00 AM 13.52 56.336 0.442 7.6 74.05 6.77
9/24/2021 3:45:00 AM 13.49 56.282 0.443 7.6 82.1 6.78
9/24/2021 4:00:00 AM 13.45 56.21 0.443 7.6 75.66 6.78
9/24/2021 4:15:00 AM 13.42 56.156 0.445 7.6 71.99 6.8
9/24/2021 4:30:00 AM 13.39 56.102 0.446 7.61 75.15 6.81
9/24/2021 4:45:00 AM 13.36 56.048 0.444 7.6 78.29 6.82
9/24/2021 5:00:00 AM 13.34 56.012 0.447 7.61 79.39 6.83
9/24/2021 5:15:00 AM 13.31 55.958 0.448 7.61 73.17 6.83
9/24/2021 5:30:00 AM 13.29 55.922 0.45 7.61 78.33 6.85
9/24/2021 5:45:00 AM 13.27 55.886 0.45 7.61 80.35 6.85
9/24/2021 6:00:00 AM 13.25 55.85 0.452 7.61 81.2 6.87
9/24/2021 6:15:00 AM 13.23 55.814 0.452 7.61 80.96 6.86
9/24/2021 6:30:00 AM 13.21 55.778 0.454 7.61 83.54 6.88
9/24/2021 6:45:00 AM 13.2 55.76 0.455 7.61 75.43 6.89
9/24/2021 7:00:00 AM 13.18 55.724 0.455 7.61 63.82 6.89
9/24/2021 7:15:00 AM 13.17 55.706 0.455 7.61 72.51 6.9
9/24/2021 7:30:00 AM 13.16 55.688 0.456 7.61 75.23 6.91
9/24/2021 7:45:00 AM 13.16 55.688 0.457 7.62 76.88 6.92
9/24/2021 8:00:00 AM 13.16 55.688 0.458 7.62 77.84 6.92
9/24/2021 8:15:00 AM 13.16 55.688 0.46 7.62 74.06 6.95
9/24/2021 8:30:00 AM 13.17 55.706 0.461 7.62 75.84 6.98
9/24/2021 8:45:00 AM 13.17 55.706 0.462 7.62 78.34 7
9/24/2021 9:00:00 AM 13.18 55.724 0.463 7.63 76.41 7.03
9/24/2021 9:15:00 AM 13.2 55.76 0.465 7.63 57.16 7.07
9/24/2021 9:30:00 AM 13.22 55.796 0.466 7.64 76.63 7.1
9/24/2021 9:45:00 AM 13.26 55.868 0.466 7.64 80.48 7.14
9/24/2021 10:00:00 AM 13.32 55.976 0.468 7.64 64.48 7.19
9/24/2021 10:15:00 AM 13.37 56.066 0.468 7.64 69.71 7.24
9/24/2021 10:30:00 AM 13.44 56.192 0.468 7.65 72.66 7.31
9/24/2021 10:45:00 AM 13.51 56.318 0.469 7.65 68.39 7.37
9/24/2021 11:00:00 AM 13.6 56.48 0.47 7.66 73.17 7.45
9/24/2021 11:15:00 AM 13.69 56.642 0.471 7.67 76.06 7.52
9/24/2021 11:30:00 AM 13.8 56.84 0.471 7.67 73.21 7.6
9/24/2021 11:45:00 AM 13.92 57.056 0.472 7.68 72.33 7.69
9/24/2021 12:00:00 PM 14.05 57.29 0.472 7.68 75.92 7.77
9/24/2021 12:15:00 PM 14.19 57.542 0.473 7.69 69.66 7.84
9/24/2021 12:30:00 PM 14.32 57.776 0.474 7.7 73.71 7.91
9/24/2021 12:45:00 PM 14.47 58.046 0.475 7.7 76.04 7.98
9/24/2021 1:00:00 PM 14.64 58.352 0.475 7.71 77.52 8.04
9/24/2021 1:15:00 PM 14.8 58.64 0.476 7.72 67.22 8.1
9/24/2021 1:30:00 PM 14.97 58.946 0.476 7.72 74.78 8.15
9/24/2021 1:45:00 PM 15.13 59.234 0.476 7.73 79.87 8.19
9/24/2021 2:00:00 PM 15.28 59.504 0.478 7.74 57.93 8.22
9/24/2021 2:15:00 PM 15.42 59.756 0.478 7.74 77.66 8.22
9/24/2021 2:30:00 PM 15.54 59.972 0.478 7.75 67.41 8.23
9/24/2021 2:45:00 PM 15.69 60.242 0.479 7.75 72.39 8.25
9/24/2021 3:00:00 PM 15.82 60.476 0.479 7.75 69.29 8.25
9/24/2021 3:15:00 PM 15.95 60.71 0.479 7.76 73.39 8.24
9/24/2021 3:30:00 PM 16.07 60.926 0.48 7.76 70.23 8.24
9/24/2021 3:45:00 PM 16.18 61.124 0.481 7.76 66.96 8.22
9/24/2021 4:00:00 PM 16.29 61.322 0.481 7.76 70.91 8.19
9/24/2021 4:15:00 PM 16.35 61.43 0.481 7.76 70.17 8.15
9/24/2021 4:30:00 PM 16.43 61.574 0.482 7.76 71.98 8.13
9/24/2021 4:45:00 PM 16.49 61.682 0.479 7.76 62.88 8.08
9/24/2021 5:00:00 PM 16.52 61.736 0.483 7.76 77.3 8.02
9/24/2021 5:15:00 PM 16.55 61.79 0.483 7.76 65.14 7.97
9/24/2021 5:30:00 PM 16.55 61.79 0.485 7.76 66.42 7.89
9/24/2021 5:45:00 PM 16.55 61.79 0.485 7.76 67.13 7.82
9/24/2021 6:00:00 PM 16.53 61.754 0.487 7.75 73.37 7.74
9/24/2021 6:15:00 PM 16.5 61.7 0.487 7.75 63.86 7.66
9/24/2021 6:30:00 PM 16.46 61.628 0.488 7.75 65.35 7.59
9/24/2021 6:45:00 PM 16.4 61.52 0.486 7.74 67.62 7.52
9/24/2021 7:00:00 PM 16.34 61.412 0.489 7.73 64.26 7.45
9/24/2021 7:15:00 PM 16.25 61.25 0.489 7.73 67.6 7.37
9/24/2021 7:30:00 PM 16.16 61.088 0.49 7.73 67.83 7.3
9/24/2021 7:45:00 PM 16.06 60.908 0.49 7.72 69.82 7.24
9/24/2021 8:00:00 PM 15.96 60.728 0.491 7.72 68.45 7.17
9/24/2021 8:15:00 PM 15.84 60.512 0.492 7.71 76.66 7.11
9/24/2021 8:30:00 PM 15.72 60.296 0.491 7.71 71.52 7.07
9/24/2021 8:45:00 PM 15.59 60.062 0.489 7.7 72.78 7.01
9/24/2021 9:00:00 PM 15.46 59.828 0.492 7.7 79.53 6.98
9/24/2021 9:15:00 PM 15.32 59.576 0.493 7.7 76.32 6.94
9/24/2021 9:30:00 PM 15.19 59.342 0.491 7.69 77.96 6.93
9/24/2021 9:45:00 PM 15.06 59.108 0.494 7.69 78.62 6.89
9/24/2021 10:00:00 PM 14.93 58.874 0.494 7.69 68.29 6.88
9/24/2021 10:15:00 PM 14.8 58.64 0.495 7.68 72.57 6.87
9/24/2021 10:30:00 PM 14.67 58.406 0.495 7.68 81.4 6.86
9/24/2021 10:45:00 PM 14.55 58.19 0.495 7.68 70.45 6.85
9/24/2021 11:00:00 PM 14.44 57.992 0.493 7.68 69.13 6.85
9/24/2021 11:15:00 PM 14.32 57.776 0.496 7.67 84.47 6.86
9/24/2021 11:30:00 PM 14.21 57.578 0.497 7.68 70.97 6.86
9/24/2021 11:45:00 PM 14.1 57.38 0.497 7.67 78.7 6.86
9/25/2021 12:00:00 AM 14 57.2 0.497 7.68 77.72 6.88
9/25/2021 12:15:00 AM 13.9 57.02 0.498 7.67 73.87 6.88
9/25/2021 12:30:00 AM 13.8 56.84 0.496 7.67 85.14 6.89
9/25/2021 12:45:00 AM 13.71 56.678 0.498 7.67 70.96 6.9
9/25/2021 1:00:00 AM 13.62 56.516 0.497 7.67 76.37 6.91
9/25/2021 1:15:00 AM 13.54 56.372 0.499 7.67 75 6.92
9/25/2021 1:30:00 AM 13.46 56.228 0.498 7.67 80.17 6.94
9/25/2021 1:45:00 AM 13.39 56.102 0.499 7.67 82.07 6.95
9/25/2021 2:00:00 AM 13.32 55.976 0.497 7.67 75.16 6.96
9/25/2021 2:15:00 AM 13.25 55.85 0.498 7.67 77.82 6.97
9/25/2021 2:30:00 AM 13.19 55.742 0.498 7.68 75.15 6.98
9/25/2021 2:45:00 AM 13.14 55.652 0.499 7.67 73.64 6.98
9/25/2021 3:00:00 AM 13.08 55.544 0.5 7.67 74.18 7
9/25/2021 3:15:00 AM 13.03 55.454 0.499 7.67 76.65 7.01
9/25/2021 3:30:00 AM 12.98 55.364 0.499 7.67 75.32 7.02
9/25/2021 3:45:00 AM 12.94 55.292 0.5 7.67 72.86 7.03
9/25/2021 4:00:00 AM 12.89 55.202 0.501 7.67 74.43 7.04
9/25/2021 4:15:00 AM 12.85 55.13 0.5 7.67 71.36 7.04
9/25/2021 4:30:00 AM 12.81 55.058 0.5 7.67 73.95 7.05
9/25/2021 4:45:00 AM 12.78 55.004 0.501 7.67 76.75 7.06
9/25/2021 5:00:00 AM 12.75 54.95 0.501 7.67 75.67 7.07
9/25/2021 5:15:00 AM 12.73 54.914 0.501 7.67 67.68 7.06
9/25/2021 5:30:00 AM 12.71 54.878 0.502 7.68 83.19 7.09
9/25/2021 5:45:00 AM 12.69 54.842 0.501 7.67 84.32 7.09
9/25/2021 6:00:00 AM 12.67 54.806 0.502 7.68 81.97 7.09
9/25/2021 6:15:00 AM 12.65 54.77 0.502 7.68 80.89 7.1
9/25/2021 6:30:00 AM 12.64 54.752 0.503 7.67 75.66 7.11
9/25/2021 6:45:00 AM 12.62 54.716 0.502 7.68 80.38 7.11
9/25/2021 7:00:00 AM 12.6 54.68 0.503 7.68 72.97 7.12
9/25/2021 7:15:00 AM 12.59 54.662 0.503 7.68 83.36 7.12
9/25/2021 7:30:00 AM 12.57 54.626 0.503 7.68 78.91 7.14
9/25/2021 7:45:00 AM 12.56 54.608 0.503 7.68 79 7.16
9/25/2021 8:00:00 AM 12.55 54.59 0.503 7.68 69.88 7.18
9/25/2021 8:15:00 AM 12.54 54.572 0.504 7.69 82.64 7.21
9/25/2021 8:30:00 AM 12.55 54.59 0.503 7.69 72.79 7.24
9/25/2021 8:45:00 AM 12.56 54.608 0.504 7.7 78.39 7.3
9/25/2021 9:00:00 AM 12.58 54.644 0.503 7.69 85.12 7.35
9/25/2021 9:15:00 AM 12.61 54.698 0.502 7.7 74.95 7.42
9/25/2021 9:30:00 AM 12.63 54.734 0.503 7.7 66.55 7.48
9/25/2021 9:45:00 AM 12.67 54.806 0.504 7.71 77.57 7.53
9/25/2021 10:00:00 AM 12.71 54.878 0.503 7.73 91.36 7.59
9/25/2021 10:15:00 AM 12.79 55.022 0.503 7.72 81.49 7.66
9/25/2021 10:30:00 AM 12.85 55.13 0.503 7.72 74.03 7.72
9/25/2021 10:45:00 AM 12.93 55.274 0.502 7.73 76.53 7.81
9/25/2021 11:00:00 AM 13.02 55.436 0.503 7.73 71.2 7.89
9/25/2021 11:15:00 AM 13.11 55.598 0.503 7.74 68.61 7.99
9/25/2021 11:30:00 AM 13.22 55.796 0.505 7.75 72.35 8.09
9/25/2021 11:45:00 AM 13.34 56.012 0.506 7.77 69.18 8.16
9/25/2021 12:00:00 PM 13.47 56.246 0.506 7.76 72.15 8.25
9/25/2021 12:15:00 PM 13.6 56.48 0.505 7.77 78.55 8.33
9/25/2021 12:30:00 PM 13.75 56.75 0.505 7.77 82.77 8.39
9/25/2021 12:45:00 PM 13.9 57.02 0.505 7.78 84.08 8.47
9/25/2021 1:00:00 PM 14.04 57.272 0.505 7.79 78.22 8.54
9/25/2021 1:15:00 PM 14.2 57.56 0.503 7.8 74.33 8.6
9/25/2021 1:30:00 PM 14.36 57.848 0.505 7.81 79.03 8.65
9/25/2021 1:45:00 PM 14.51 58.118 0.504 7.82 85.26 8.69
9/25/2021 2:00:00 PM 14.66 58.388 0.503 7.82 77.47 8.71
9/25/2021 2:15:00 PM 14.86 58.748 0.504 7.82 80.11 8.75
9/25/2021 2:30:00 PM 15.02 59.036 0.503 7.83 81.13 8.76
9/25/2021 2:45:00 PM 15.18 59.324 0.505 7.83 76.79 8.75
9/25/2021 3:00:00 PM 15.32 59.576 0.503 7.84 70.52 8.77
9/25/2021 3:15:00 PM 15.46 59.828 0.503 7.84 71.97 8.76
9/25/2021 3:30:00 PM 15.56 60.008 0.501 7.84 80.72 8.71
9/25/2021 3:45:00 PM 15.65 60.17 0.503 7.84 74.91 8.64
9/25/2021 4:00:00 PM 15.74 60.332 0.503 7.85 65.11 8.6
9/25/2021 4:15:00 PM 15.82 60.476 0.503 7.85 69.39 8.53
9/25/2021 4:30:00 PM 15.88 60.584 0.504 7.85 73.73 8.48
9/25/2021 4:45:00 PM 15.95 60.71 0.505 7.84 71.62 8.45
9/25/2021 5:00:00 PM 16.02 60.836 0.505 7.85 83.12 8.43
9/25/2021 5:15:00 PM 16.07 60.926 0.505 7.84 69.9 8.36
9/25/2021 5:30:00 PM 16.09 60.962 0.504 7.84 72.02 8.24
9/25/2021 5:45:00 PM 16.1 60.98 0.505 7.83 82.38 8.13
9/25/2021 6:00:00 PM 16.11 60.998 0.506 7.83 70.09 8.06
9/25/2021 6:15:00 PM 16.11 60.998 0.507 7.82 75.76 7.99
9/25/2021 6:30:00 PM 16.09 60.962 0.505 7.82 83.6 7.9
9/25/2021 6:45:00 PM 16.04 60.872 0.505 7.81 77.26 7.79
9/25/2021 7:00:00 PM 15.99 60.782 0.506 7.82 74.41 7.69
9/25/2021 7:15:00 PM 15.93 60.674 0.506 7.81 74.47 7.61
9/25/2021 7:30:00 PM 15.86 60.548 0.508 7.8 81.01 7.52
9/25/2021 7:45:00 PM 15.78 60.404 0.508 7.79 90.49 7.45
9/25/2021 8:00:00 PM 15.69 60.242 0.507 7.78 84.07 7.38
9/25/2021 8:15:00 PM 15.6 60.08 0.509 7.78 77.82 7.33
9/25/2021 8:30:00 PM 15.5 59.9 0.509 7.77 77.35 7.27
9/25/2021 8:45:00 PM 15.41 59.738 0.51 7.77 83.24 7.21
9/25/2021 9:00:00 PM 15.32 59.576 0.51 7.76 72.1 7.16
9/25/2021 9:15:00 PM 15.23 59.414 0.511 7.75 65.49 7.1
9/25/2021 9:30:00 PM 15.14 59.252 0.511 7.75 88.75 7.08
9/25/2021 9:45:00 PM 15.04 59.072 0.51 7.74 81.22 7.04
9/25/2021 10:00:00 PM 14.95 58.91 0.512 7.75 73.26 7
9/25/2021 10:15:00 PM 14.85 58.73 0.511 7.74 88.04 6.97
9/25/2021 10:30:00 PM 14.75 58.55 0.511 7.74 82.69 6.95
9/25/2021 10:45:00 PM 14.66 58.388 0.512 7.73 97.94 6.94
9/25/2021 11:00:00 PM 14.57 58.226 0.512 7.73 94.22 6.92
9/25/2021 11:15:00 PM 14.48 58.064 0.512 7.73 90.39 6.91
9/25/2021 11:30:00 PM 14.4 57.92 0.512 7.73 84.54 6.91
9/25/2021 11:45:00 PM 14.32 57.776 0.51 7.72 83.37 6.89
9/26/2021 12:00:00 AM 14.24 57.632 0.513 7.72 86.53 6.88
9/26/2021 12:15:00 AM 14.17 57.506 0.513 7.72 96.44 6.87
9/26/2021 12:30:00 AM 14.11 57.398 0.512 7.72 94.35 6.86
9/26/2021 12:45:00 AM 14.04 57.272 0.513 7.72 94.83 6.86
9/26/2021 1:00:00 AM 13.98 57.164 0.512 7.71 87.27 6.86
9/26/2021 1:15:00 AM 13.91 57.038 0.512 7.72 97.06 6.86
9/26/2021 1:30:00 AM 13.85 56.93 0.511 7.71 94.88 6.87
9/26/2021 1:45:00 AM 13.79 56.822 0.511 7.71 91.45 6.9
9/26/2021 2:00:00 AM 13.72 56.696 0.511 7.72 87.11 6.9
9/26/2021 2:15:00 AM 13.66 56.588 0.512 7.72 98.1 6.91
9/26/2021 2:30:00 AM 13.6 56.48 0.512 7.72 89.92 6.93
9/26/2021 2:45:00 AM 13.54 56.372 0.512 7.72 94.25 6.94
9/26/2021 3:00:00 AM 13.48 56.264 0.512 7.72 99.67 6.95
9/26/2021 3:15:00 AM 13.43 56.174 0.512 7.72 93.27 6.95
9/26/2021 3:30:00 AM 13.37 56.066 0.512 7.72 98.59 6.96
9/26/2021 3:45:00 AM 13.32 55.976 0.511 7.72 95.65 6.97
9/26/2021 4:00:00 AM 13.27 55.886 0.511 7.72 101.5 6.98
9/26/2021 4:15:00 AM 13.23 55.814 0.512 7.72 100.2 6.99
9/26/2021 4:30:00 AM 13.18 55.724 0.511 7.72 96.35 7
9/26/2021 4:45:00 AM 13.13 55.634 0.511 7.72 95.95 7
9/26/2021 5:00:00 AM 13.08 55.544 0.51 7.72 97.75 7.02
9/26/2021 5:15:00 AM 13.03 55.454 0.511 7.72 94.61 7.03
9/26/2021 5:30:00 AM 12.98 55.364 0.509 7.73 110.6 7.02
9/26/2021 5:45:00 AM 12.94 55.292 0.51 7.73 84.22 7.03
9/26/2021 6:00:00 AM 12.89 55.202 0.51 7.73 90.98 7.05
9/26/2021 6:15:00 AM 12.85 55.13 0.51 7.72 92.56 7.07
9/26/2021 6:30:00 AM 12.8 55.04 0.51 7.73 102.5 7.07
9/26/2021 6:45:00 AM 12.76 54.968 0.508 7.73 100.9 7.08
9/26/2021 7:00:00 AM 12.72 54.896 0.508 7.73 110.7 7.09
9/26/2021 7:15:00 AM 12.68 54.824 0.509 7.73 99.49 7.11
9/26/2021 7:30:00 AM 12.65 54.77 0.509 7.73 96.84 7.13
9/26/2021 7:45:00 AM 12.61 54.698 0.51 7.73 102.7 7.15
9/26/2021 8:00:00 AM 12.58 54.644 0.51 7.72 98.95 7.19
9/26/2021 8:15:00 AM 12.56 54.608 0.51 7.73 108.4 7.23
9/26/2021 8:30:00 AM 12.55 54.59 0.51 7.73 92.88 7.26
9/26/2021 8:45:00 AM 12.56 54.608 0.51 7.74 98.36 7.32
9/26/2021 9:00:00 AM 12.57 54.626 0.51 7.73 100 7.38
9/26/2021 9:15:00 AM 12.59 54.662 0.51 7.74 104.3 7.43
9/26/2021 9:30:00 AM 12.61 54.698 0.51 7.74 91.29 7.5
9/26/2021 9:45:00 AM 12.64 54.752 0.511 7.75 102.8 7.57
9/26/2021 10:00:00 AM 12.68 54.824 0.51 7.75 95.04 7.65
9/26/2021 10:15:00 AM 12.73 54.914 0.511 7.76 100.3 7.74
9/26/2021 10:30:00 AM 12.79 55.022 0.51 7.77 106.5 7.83
9/26/2021 10:45:00 AM 12.87 55.166 0.51 7.77 107.2 7.92
9/26/2021 11:00:00 AM 12.95 55.31 0.51 7.78 71.69 8.01
9/26/2021 11:15:00 AM 13.05 55.49 0.51 7.79 99.52 8.11
9/26/2021 11:30:00 AM 13.16 55.688 0.51 7.79 106.5 8.21
9/26/2021 11:45:00 AM 13.28 55.904 0.508 7.8 105.4 8.32
9/26/2021 12:00:00 PM 13.4 56.12 0.51 7.81 104.6 8.41
9/26/2021 12:15:00 PM 13.52 56.336 0.507 7.82 114 8.49
9/26/2021 12:30:00 PM 13.65 56.57 0.51 7.83 99.84 8.56
9/26/2021 12:45:00 PM 13.78 56.804 0.51 7.83 102.8 8.62
9/26/2021 1:00:00 PM 13.93 57.074 0.51 7.84 107.3 8.69
9/26/2021 1:15:00 PM 14.07 57.326 0.51 7.85 101.5 8.75
9/26/2021 1:30:00 PM 14.22 57.596 0.51 7.86 107.5 8.81
9/26/2021 1:45:00 PM 14.38 57.884 0.51 7.87 100.1 8.86
9/26/2021 2:00:00 PM 14.55 58.19 0.51 7.87 99.73 8.92
9/26/2021 2:15:00 PM 14.72 58.496 0.51 7.88 106.9 8.96
9/26/2021 2:30:00 PM 14.87 58.766 0.51 7.89 101.9 8.99
9/26/2021 2:45:00 PM 15.02 59.036 0.508 7.9 107.4 9
9/26/2021 3:00:00 PM 15.16 59.288 0.51 7.9 105.9 9.01
9/26/2021 3:15:00 PM 15.3 59.54 0.51 7.9 103.5 8.99
9/26/2021 3:30:00 PM 15.41 59.738 0.51 7.91 106.3 8.98
9/26/2021 3:45:00 PM 15.51 59.918 0.512 7.91 108.4 8.96
9/26/2021 4:00:00 PM 15.6 60.08 0.509 7.92 109.7 8.93
9/26/2021 4:15:00 PM 15.68 60.224 0.508 7.92 100.2 8.87
9/26/2021 4:30:00 PM 15.74 60.332 0.507 7.92 112.5 8.83
9/26/2021 4:45:00 PM 15.79 60.422 0.509 7.92 107.6 8.77
9/26/2021 5:00:00 PM 15.83 60.494 0.507 7.91 106.6 8.69
9/26/2021 5:15:00 PM 15.83 60.494 0.509 7.91 107.2 8.57
9/26/2021 5:30:00 PM 15.84 60.512 0.51 7.9 97.61 8.47
9/26/2021 5:45:00 PM 15.86 60.548 0.51 7.9 104.9 8.4
9/26/2021 6:00:00 PM 15.86 60.548 0.511 7.89 112 8.29
9/26/2021 6:15:00 PM 15.84 60.512 0.515 7.89 109.1 8.17
9/26/2021 6:30:00 PM 15.82 60.476 0.514 7.88 94.75 8.07
9/26/2021 6:45:00 PM 15.79 60.422 0.514 7.88 94.47 7.96
9/26/2021 7:00:00 PM 15.74 60.332 0.515 7.87 105.9 7.84
9/26/2021 7:15:00 PM 15.68 60.224 0.514 7.86 112.7 7.74
9/26/2021 7:30:00 PM 15.62 60.116 0.516 7.85 101.5 7.65
9/26/2021 7:45:00 PM 15.55 59.99 0.515 7.84 109 7.56
9/26/2021 8:00:00 PM 15.47 59.846 0.512 7.83 98.22 7.49
9/26/2021 8:15:00 PM 15.38 59.684 0.517 7.83 108.5 7.41
9/26/2021 8:30:00 PM 15.29 59.522 0.518 7.82 113.1 7.34
9/26/2021 8:45:00 PM 15.2 59.36 0.517 7.81 105 7.29
9/26/2021 9:00:00 PM 15.09 59.162 0.518 7.81 104 7.24
9/26/2021 9:15:00 PM 14.98 58.964 0.517 7.8 111 7.18
9/26/2021 9:30:00 PM 14.86 58.748 0.517 7.8 104.2 7.14
9/26/2021 9:45:00 PM 14.74 58.532 0.517 7.79 103.3 7.12
9/26/2021 10:00:00 PM 14.62 58.316 0.516 7.79 107.5 7.07
9/26/2021 10:15:00 PM 14.51 58.118 0.517 7.78 116.9 7.04
9/26/2021 10:30:00 PM 14.39 57.902 0.515 7.78 105.3 7.04
9/26/2021 10:45:00 PM 14.28 57.704 0.518 7.77 92.1 7.02
9/26/2021 11:00:00 PM 14.18 57.524 0.516 7.77 110.5 7.01
9/26/2021 11:15:00 PM 14.07 57.326 0.517 7.77 111.1 7
9/26/2021 11:30:00 PM 13.96 57.128 0.518 7.76 97.97 6.99
9/26/2021 11:45:00 PM 13.86 56.948 0.518 7.76 124.9 7
9/27/2021 12:00:00 AM 13.76 56.768 0.517 7.76 117.3 7.01
9/27/2021 12:15:00 AM 13.66 56.588 0.518 7.76 109.2 7.01
9/27/2021 12:30:00 AM 13.57 56.426 0.518 7.75 126.7 7.01
9/27/2021 12:45:00 AM 13.48 56.264 0.518 7.75 118.6 7.03
9/27/2021 1:00:00 AM 13.39 56.102 0.519 7.76 111.4 7.03
9/27/2021 1:15:00 AM 13.31 55.958 0.518 7.75 109.6 7.04
9/27/2021 1:30:00 AM 13.23 55.814 0.519 7.75 107.5 7.05
9/27/2021 1:45:00 AM 13.15 55.67 0.519 7.75 106.2 7.07
9/27/2021 2:00:00 AM 13.08 55.544 0.519 7.75 123.7 7.07
9/27/2021 2:15:00 AM 13.02 55.436 0.518 7.75 87.32 7.08
9/27/2021 2:30:00 AM 12.95 55.31 0.518 7.75 106.6 7.09
9/27/2021 2:45:00 AM 12.89 55.202 0.517 7.75 99.44 7.11
9/27/2021 3:00:00 AM 12.83 55.094 0.519 7.75 126.3 7.12
9/27/2021 3:15:00 AM 12.77 54.986 0.516 7.75 128.2 7.13
9/27/2021 3:30:00 AM 12.72 54.896 0.517 7.75 125.1 7.13
9/27/2021 3:45:00 AM 12.68 54.824 0.517 7.75 120.5 7.14
9/27/2021 4:00:00 AM 12.63 54.734 0.518 7.75 114.2 7.15
9/27/2021 4:15:00 AM 12.59 54.662 0.518 7.75 113.2 7.16
9/27/2021 4:30:00 AM 12.55 54.59 0.519 7.75 136.3 7.17
9/27/2021 4:45:00 AM 12.51 54.518 0.519 7.75 122.7 7.17
9/27/2021 5:00:00 AM 12.48 54.464 0.517 7.75 119.2 7.18
9/27/2021 5:15:00 AM 12.45 54.41 0.519 7.75 145.8 7.2
9/27/2021 5:30:00 AM 12.43 54.374 0.519 7.75 128.1 7.19
9/27/2021 5:45:00 AM 12.41 54.338 0.518 7.75 135.7 7.21
9/27/2021 6:00:00 AM 12.38 54.284 0.517 7.75 110.9 7.21
9/27/2021 6:15:00 AM 12.37 54.266 0.519 7.75 121.2 7.21
9/27/2021 6:30:00 AM 12.36 54.248 0.519 7.75 134.8 7.22
9/27/2021 6:45:00 AM 12.35 54.23 0.518 7.75 122.9 7.22
9/27/2021 7:00:00 AM 12.34 54.212 0.518 7.74 112.3 7.23
9/27/2021 7:15:00 AM 12.33 54.194 0.517 7.74 138.7 7.24
9/27/2021 7:30:00 AM 12.32 54.176 0.517 7.75 129 7.25
9/27/2021 7:45:00 AM 12.32 54.176 0.518 7.74 116.7 7.27
9/27/2021 8:00:00 AM 12.34 54.212 0.517 7.75 115.8 7.3
9/27/2021 8:15:00 AM 12.36 54.248 0.515 7.75 119.5 7.35
9/27/2021 8:30:00 AM 12.39 54.302 0.518 7.76 120 7.4
9/27/2021 8:45:00 AM 12.42 54.356 0.517 7.76 127.5 7.46
9/27/2021 9:00:00 AM 12.47 54.446 0.518 7.77 123.2 7.53
9/27/2021 9:15:00 AM 12.51 54.518 0.516 7.77 117.3 7.6
9/27/2021 9:30:00 AM 12.57 54.626 0.517 7.77 105.3 7.67
9/27/2021 9:45:00 AM 12.63 54.734 0.518 7.78 115.8 7.74
9/27/2021 10:00:00 AM 12.71 54.878 0.518 7.79 108.7 7.83
9/27/2021 10:15:00 AM 12.79 55.022 0.518 7.79 142.9 7.94
9/27/2021 10:30:00 AM 12.88 55.184 0.518 7.81 114.9 8.02
9/27/2021 10:45:00 AM 12.99 55.382 0.516 7.81 121.5 8.12
9/27/2021 11:00:00 AM 13.1 55.58 0.518 7.81 121 8.23
9/27/2021 11:15:00 AM 13.23 55.814 0.518 7.83 109.3 8.35
9/27/2021 11:30:00 AM 13.36 56.048 0.518 7.84 113.8 8.44
9/27/2021 11:45:00 AM 13.49 56.282 0.515 7.85 86.16 8.57
9/27/2021 12:00:00 PM 13.64 56.552 0.517 7.86 113.3 8.67
9/27/2021 12:15:00 PM 13.8 56.84 0.514 7.87 104.7 8.77
9/27/2021 12:30:00 PM 13.96 57.128 0.517 7.88 75.32 8.86
9/27/2021 12:45:00 PM 14.13 57.434 0.515 7.88 97.84 8.95
9/27/2021 1:00:00 PM 14.26 57.668 0.516 7.89 106.4 9.05
9/27/2021 1:15:00 PM 14.36 57.848 0.517 7.9 113.3 9.07
9/27/2021 1:30:00 PM 14.54 58.172 0.517 7.91 106.7 9.15
9/27/2021 1:45:00 PM 14.75 58.55 0.516 7.92 89.04 9.22
9/27/2021 2:00:00 PM 14.93 58.874 0.518 7.94 98.59 9.28
9/27/2021 2:15:00 PM 15.09 59.162 0.515 7.94 111.2 9.29
9/27/2021 2:30:00 PM 15.24 59.432 0.514 7.94 97.72 9.3
9/27/2021 2:45:00 PM 15.4 59.72 0.514 7.95 104.5 9.32
9/27/2021 3:00:00 PM 15.56 60.008 0.512 7.96 107.5 9.32
9/27/2021 3:15:00 PM 15.69 60.242 0.513 7.96 91.98 9.31
9/27/2021 3:30:00 PM 15.82 60.476 0.508 7.96 114.5 9.27
9/27/2021 3:45:00 PM 15.94 60.692 0.508 7.97 108 9.26
9/27/2021 4:00:00 PM 16.05 60.89 0.506 7.97 109.6 9.23
9/27/2021 4:15:00 PM 16.16 61.088 0.508 7.97 104.9 9.18
9/27/2021 4:30:00 PM 16.24 61.232 0.507 7.97 104.5 9.12
9/27/2021 4:45:00 PM 16.32 61.376 0.508 7.97 107.9 9.05
9/27/2021 5:00:00 PM 16.39 61.502 0.507 7.97 100.5 8.96
9/27/2021 5:15:00 PM 16.44 61.592 0.507 7.96 109.2 8.87
9/27/2021 5:30:00 PM 16.49 61.682 0.504 7.96 93.62 8.75
9/27/2021 5:45:00 PM 16.52 61.736 0.502 7.95 89.94 8.63
9/27/2021 6:00:00 PM 16.54 61.772 0.503 7.95 98.59 8.49
9/27/2021 6:15:00 PM 16.54 61.772 0.506 7.94 96.75 8.33
9/27/2021 6:30:00 PM 16.54 61.772 0.505 7.93 74.98 8.19
9/27/2021 6:45:00 PM 16.53 61.754 0.507 7.91 103.8 8.04
9/27/2021 7:00:00 PM 16.5 61.7 0.515 7.91 105 7.89
9/27/2021 7:15:00 PM 16.47 61.646 0.518 7.9 95.39 7.77
9/27/2021 7:30:00 PM 16.43 61.574 0.518 7.89 102.6 7.66
9/27/2021 7:45:00 PM 16.38 61.484 0.518 7.88 112.6 7.56
9/27/2021 8:00:00 PM 16.33 61.394 0.521 7.86 108.6 7.47
9/27/2021 8:15:00 PM 16.26 61.268 0.522 7.86 108.5 7.37
9/27/2021 8:30:00 PM 16.19 61.142 0.523 7.85 74.25 7.29
9/27/2021 8:45:00 PM 16.11 60.998 0.523 7.84 135.8 7.22
9/27/2021 9:00:00 PM 16.02 60.836 0.521 7.83 106.6 7.15
9/27/2021 9:15:00 PM 15.94 60.692 0.524 7.83 117.8 7.09
9/27/2021 9:30:00 PM 15.84 60.512 0.523 7.81 105.5 7.03
9/27/2021 9:45:00 PM 15.74 60.332 0.526 7.81 112.9 6.98
9/27/2021 10:00:00 PM 15.63 60.134 0.525 7.8 104.4 6.93
9/27/2021 10:15:00 PM 15.52 59.936 0.528 7.8 95.75 6.9
9/27/2021 10:30:00 PM 15.41 59.738 0.527 7.79 100.4 6.88
9/27/2021 10:45:00 PM 15.3 59.54 0.528 7.79 109.2 6.85
9/27/2021 11:00:00 PM 15.19 59.342 0.529 7.78 112.2 6.83
9/27/2021 11:15:00 PM 15.07 59.126 0.53 7.78 112.1 6.81
9/27/2021 11:30:00 PM 14.96 58.928 0.528 7.78 125.4 6.81
9/27/2021 11:45:00 PM 14.85 58.73 0.529 7.78 122.1 6.8
9/28/2021 12:00:00 AM 14.74 58.532 0.53 7.77 102.7 6.8
9/28/2021 12:15:00 AM 14.64 58.352 0.526 7.77 86.37 6.8
9/28/2021 12:30:00 AM 14.54 58.172 0.53 7.76 112.8 6.81
9/28/2021 12:45:00 AM 14.44 57.992 0.53 7.77 130.9 6.82
9/28/2021 1:00:00 AM 14.35 57.83 0.53 7.76 126.3 6.82
9/28/2021 1:15:00 AM 14.26 57.668 0.529 7.76 91.75 6.83
9/28/2021 1:30:00 AM 14.17 57.506 0.529 7.76 131.8 6.84
9/28/2021 1:45:00 AM 14.08 57.344 0.53 7.76 124.3 6.85
9/28/2021 2:00:00 AM 14 57.2 0.53 7.76 121.1 6.86
9/28/2021 2:15:00 AM 13.93 57.074 0.529 7.75 117.4 6.88
9/28/2021 2:30:00 AM 13.86 56.948 0.529 7.75 115.7 6.89
9/28/2021 2:45:00 AM 13.79 56.822 0.529 7.75 117.7 6.9
9/28/2021 3:00:00 AM 13.73 56.714 0.529 7.75 122.1 6.91
9/28/2021 3:15:00 AM 13.67 56.606 0.528 7.75 89.37 6.92
9/28/2021 3:30:00 AM 13.61 56.498 0.528 7.75 109 6.94
9/28/2021 3:45:00 AM 13.56 56.408 0.528 7.75 121.5 6.94
9/28/2021 4:00:00 AM 13.51 56.318 0.529 7.76 83.24 6.95
9/28/2021 4:15:00 AM 13.47 56.246 0.526 7.75 118.3 6.96
9/28/2021 4:30:00 AM 13.42 56.156 0.529 7.75 109 6.97
9/28/2021 4:45:00 AM 13.38 56.084 0.528 7.75 116.5 6.97
9/28/2021 5:00:00 AM 13.35 56.03 0.529 7.76 111.5 6.98
9/28/2021 5:15:00 AM 13.32 55.976 0.529 7.75 123.3 6.99
9/28/2021 5:30:00 AM 13.29 55.922 0.528 7.75 117.2 7
9/28/2021 5:45:00 AM 13.27 55.886 0.528 7.76 114.4 7.01
9/28/2021 6:00:00 AM 13.26 55.868 0.529 7.75 113.3 7
9/28/2021 6:15:00 AM 13.25 55.85 0.529 7.76 133.4 7.01
9/28/2021 6:30:00 AM 13.24 55.832 0.526 7.76 111.9 7.02
9/28/2021 6:45:00 AM 13.24 55.832 0.526 7.75 109.2 7.02
9/28/2021 7:00:00 AM 13.27 55.886 0.526 7.75 125.9 7.01
9/28/2021 7:15:00 AM 13.28 55.904 0.525 7.75 118.7 7.01
9/28/2021 7:30:00 AM 13.28 55.904 0.527 7.75 114.9 7
9/28/2021 7:45:00 AM 13.28 55.904 0.527 7.75 120.8 7
9/28/2021 8:00:00 AM 13.29 55.922 0.525 7.75 114.2 7.01
9/28/2021 8:15:00 AM 13.32 55.976 0.525 7.75 118.2 7
9/28/2021 8:30:00 AM 13.35 56.03 0.523 7.75 114.5 7.01
9/28/2021 8:45:00 AM 13.36 56.048 0.523 7.75 116.4 6.99
9/28/2021 9:00:00 AM 13.54 56.372 0.516 7.75 147.3 7.01
9/28/2021 9:15:00 AM 13.61 56.498 0.519 7.76 172.3 7
9/28/2021 9:30:00 AM 13.82 56.876 0.498 7.77 184.9 7.01
9/28/2021 9:45:00 AM 13.69 56.642 0.498 7.75 152.1 7
9/28/2021 10:00:00 AM 13.67 56.606 0.501 7.74 137.1 6.98
9/28/2021 10:15:00 AM 13.7 56.66 0.494 7.73 138.2 6.97
9/28/2021 10:30:00 AM 13.77 56.786 0.485 7.73 127 6.97
9/28/2021 10:45:00 AM 13.88 56.984 0.475 7.73 132.4 6.95
9/28/2021 11:00:00 AM 14 57.2 0.463 7.72 131.1 6.9
9/28/2021 11:15:00 AM 14.11 57.398 0.454 7.71 120.7 6.89
9/28/2021 11:30:00 AM 14.16 57.488 0.451 7.71 142 6.91
9/28/2021 11:45:00 AM 14.12 57.416 0.459 7.71 120.9 6.92
9/28/2021 12:00:00 PM 14.08 57.344 0.463 7.72 121.5 6.93
9/28/2021 12:15:00 PM 14.09 57.362 0.464 7.73 131.6 6.9
9/28/2021 12:30:00 PM 14.18 57.524 0.458 7.73 141.7 6.85
9/28/2021 12:45:00 PM 14.34 57.812 0.443 7.73 148.4 6.79
9/28/2021 1:00:00 PM 14.54 58.172 0.423 7.72 153.8 6.73
9/28/2021 1:15:00 PM 14.73 58.514 0.41 7.71 172.8 6.69
9/28/2021 1:30:00 PM 14.87 58.766 0.404 7.7 165.8 6.71
9/28/2021 1:45:00 PM 14.98 58.964 0.404 7.7 164.7 6.72
9/28/2021 2:00:00 PM 15.05 59.09 0.404 7.69 149.8 6.77
9/28/2021 2:15:00 PM 15.09 59.162 0.408 7.68 143.3 6.82
9/28/2021 2:30:00 PM 15.11 59.198 0.413 7.68 142.7 6.86
9/28/2021 2:45:00 PM 15.23 59.414 0.419 7.68 136.1 6.99
9/28/2021 3:00:00 PM 15.26 59.468 0.423 7.69 145.2 7.06
9/28/2021 3:15:00 PM 15.3 59.54 0.428 7.7 145.4 7.13
9/28/2021 3:30:00 PM 15.37 59.666 0.433 7.7 148.1 7.23
9/28/2021 3:45:00 PM 15.54 59.972 0.438 7.71 131.1 7.41
9/28/2021 4:00:00 PM 15.64 60.152 0.444 7.73 136 7.53
9/28/2021 4:15:00 PM 15.71 60.278 0.446 7.74 131.5 7.61
9/28/2021 4:30:00 PM 15.75 60.35 0.449 7.75 121.5 7.68
9/28/2021 4:45:00 PM 15.83 60.494 0.453 7.76 143.1 7.79
9/28/2021 5:00:00 PM 15.88 60.584 0.456 7.77 123.8 7.86
9/28/2021 5:15:00 PM 15.93 60.674 0.461 7.78 123.9 7.9
9/28/2021 5:30:00 PM 15.97 60.746 0.464 7.79 149.2 7.93
9/28/2021 5:45:00 PM 16.01 60.818 0.466 7.8 133.7 7.95
9/28/2021 6:00:00 PM 16.03 60.854 0.467 7.81 131.1 7.93
9/28/2021 6:15:00 PM 16.04 60.872 0.471 7.8 131.7 7.87
9/28/2021 6:30:00 PM 16.03 60.854 0.473 7.82 124.5 7.8
9/28/2021 6:45:00 PM 16.02 60.836 0.474 7.82 142.3 7.73
9/28/2021 7:00:00 PM 16 60.8 0.477 7.83 130.7 7.65
9/28/2021 7:15:00 PM 15.97 60.746 0.478 7.82 134.8 7.57
9/28/2021 7:30:00 PM 15.94 60.692 0.479 7.82 116.6 7.5
9/28/2021 7:45:00 PM 15.89 60.602 0.482 7.81 127.2 7.43
9/28/2021 8:00:00 PM 15.84 60.512 0.483 7.8 126.1 7.37
9/28/2021 8:15:00 PM 15.78 60.404 0.486 7.8 127 7.3
9/28/2021 8:30:00 PM 15.72 60.296 0.486 7.79 138.3 7.25
9/28/2021 8:45:00 PM 15.64 60.152 0.489 7.78 111.6 7.21
9/28/2021 9:00:00 PM 15.54 59.972 0.49 7.78 124.7 7.17
9/28/2021 9:15:00 PM 15.45 59.81 0.492 7.77 123.5 7.12
9/28/2021 9:30:00 PM 15.35 59.63 0.493 7.77 122.5 7.06
9/28/2021 9:45:00 PM 15.25 59.45 0.493 7.77 127.7 7.02
9/28/2021 10:00:00 PM 15.15 59.27 0.496 7.76 145.9 6.98
9/28/2021 10:15:00 PM 15.05 59.09 0.497 7.76 123 6.96
9/28/2021 10:30:00 PM 14.95 58.91 0.498 7.76 123.5 6.93
9/28/2021 10:45:00 PM 14.84 58.712 0.499 7.75 130 6.91
9/28/2021 11:00:00 PM 14.74 58.532 0.5 7.75 144.7 6.9
9/28/2021 11:15:00 PM 14.63 58.334 0.501 7.75 128.9 6.9
9/28/2021 11:30:00 PM 14.53 58.154 0.502 7.75 128.4 6.9
9/28/2021 11:45:00 PM 14.43 57.974 0.502 7.75 126 6.89
9/29/2021 12:00:00 AM 14.33 57.794 0.502 7.75 136.1 6.9
9/29/2021 12:15:00 AM 14.24 57.632 0.503 7.74 130.9 6.9
9/29/2021 12:30:00 AM 14.16 57.488 0.503 7.75 128.8 6.9
9/29/2021 12:45:00 AM 14.07 57.326 0.505 7.75 133.9 6.92
9/29/2021 1:00:00 AM 13.99 57.182 0.506 7.75 131.3 6.93
9/29/2021 1:15:00 AM 13.9 57.02 0.507 7.75 141.5 6.94
9/29/2021 1:30:00 AM 13.82 56.876 0.504 7.75 149.9 6.94
9/29/2021 1:45:00 AM 13.75 56.75 0.506 7.75 133.9 6.96
9/29/2021 2:00:00 AM 13.68 56.624 0.507 7.74 130 6.97
9/29/2021 2:15:00 AM 13.6 56.48 0.505 7.75 137 6.98
9/29/2021 2:30:00 AM 13.53 56.354 0.507 7.75 142.2 7
9/29/2021 2:45:00 AM 13.46 56.228 0.505 7.75 137 7.01
9/29/2021 3:00:00 AM 13.39 56.102 0.507 7.75 151.4 7.02
9/29/2021 3:15:00 AM 13.33 55.994 0.507 7.76 142.4 7.04
9/29/2021 3:30:00 AM 13.26 55.868 0.506 7.76 149.7 7.04
9/29/2021 3:45:00 AM 13.21 55.778 0.505 7.75 142.7 7.06
9/29/2021 4:00:00 AM 13.15 55.67 0.505 7.76 133.6 7.07
9/29/2021 4:15:00 AM 13.1 55.58 0.506 7.76 149 7.09
9/29/2021 4:30:00 AM 13.04 55.472 0.507 7.76 138.9 7.1
9/29/2021 4:45:00 AM 12.99 55.382 0.507 7.76 147.6 7.11
9/29/2021 5:00:00 AM 12.94 55.292 0.508 7.76 133.1 7.11
9/29/2021 5:15:00 AM 12.89 55.202 0.507 7.76 149.8 7.13
9/29/2021 5:30:00 AM 12.84 55.112 0.506 7.77 136.1 7.15
9/29/2021 5:45:00 AM 12.8 55.04 0.508 7.76 137.2 7.15
9/29/2021 6:00:00 AM 12.75 54.95 0.506 7.76 120.4 7.16
9/29/2021 6:15:00 AM 12.71 54.878 0.506 7.76 135.4 7.18
9/29/2021 6:30:00 AM 12.67 54.806 0.508 7.76 135.2 7.18
9/29/2021 6:45:00 AM 12.63 54.734 0.508 7.76 140.5 7.19
9/29/2021 7:00:00 AM 12.59 54.662 0.506 7.76 133.7 7.2
9/29/2021 7:15:00 AM 12.56 54.608 0.508 7.76 122.6 7.22
9/29/2021 7:30:00 AM 12.53 54.554 0.508 7.77 155.5 7.23
9/29/2021 7:45:00 AM 12.5 54.5 0.507 7.76 151.5 7.27
9/29/2021 8:00:00 AM 12.48 54.464 0.508 7.76 128.4 7.3
9/29/2021 8:15:00 AM 12.47 54.446 0.508 7.76 132.6 7.35
9/29/2021 8:30:00 AM 12.47 54.446 0.508 7.77 136.4 7.42
9/29/2021 8:45:00 AM 12.47 54.446 0.508 7.77 123.6 7.46
9/29/2021 9:00:00 AM 12.48 54.464 0.507 7.78 164.4 7.55
9/29/2021 9:15:00 AM 12.5 54.5 0.507 7.79 130.3 7.65
9/29/2021 9:30:00 AM 12.51 54.518 0.507 7.79 151.8 7.73
9/29/2021 9:45:00 AM 12.55 54.59 0.507 7.79 139.1 7.81
9/29/2021 10:00:00 AM 12.59 54.662 0.508 7.8 153.4 7.88
9/29/2021 10:15:00 AM 12.63 54.734 0.507 7.81 153.2 7.97
9/29/2021 10:30:00 AM 12.68 54.824 0.506 7.82 143.6 8.08
9/29/2021 10:45:00 AM 12.74 54.932 0.507 7.82 149.1 8.18
9/29/2021 11:00:00 AM 12.82 55.076 0.506 7.83 133.6 8.29
9/29/2021 11:15:00 AM 12.91 55.238 0.506 7.84 136.7 8.39
9/29/2021 11:30:00 AM 13.02 55.436 0.508 7.84 137 8.51
9/29/2021 11:45:00 AM 13.12 55.616 0.508 7.85 120.7 8.63
9/29/2021 12:00:00 PM 13.23 55.814 0.508 7.87 133.8 8.72
9/29/2021 12:15:00 PM 13.37 56.066 0.507 7.87 142.7 8.84
9/29/2021 12:30:00 PM 13.49 56.282 0.507 7.89 136.2 8.93
9/29/2021 12:45:00 PM 13.64 56.552 0.506 7.89 132.5 9.02
9/29/2021 1:00:00 PM 13.78 56.804 0.504 7.9 140.3 9.1
9/29/2021 1:15:00 PM 13.93 57.074 0.502 7.91 153.6 9.18
9/29/2021 1:30:00 PM 14.05 57.29 0.501 7.92 128.4 9.21
9/29/2021 1:45:00 PM 14.2 57.56 0.499 7.92 136.2 9.27
9/29/2021 2:00:00 PM 14.33 57.794 0.499 7.94 132.6 9.29
9/29/2021 2:15:00 PM 14.5 58.1 0.5 8 140.7 9.35
9/29/2021 2:30:00 PM 14.66 58.388 0.498 7.96 135.2 9.41
9/29/2021 2:45:00 PM 14.82 58.676 0.498 7.96 138.7 9.43
9/29/2021 3:00:00 PM 14.97 58.946 0.495 7.97 126.8 9.44
9/29/2021 3:15:00 PM 15.11 59.198 0.492 7.97 147.1 9.43
9/29/2021 3:30:00 PM 15.22 59.396 0.491 7.98 138.9 9.4
9/29/2021 3:45:00 PM 15.32 59.576 0.495 7.98 137.6 9.37
9/29/2021 4:00:00 PM 15.42 59.756 0.494 7.99 141.6 9.33
9/29/2021 4:15:00 PM 15.51 59.918 0.491 7.99 161.1 9.28
9/29/2021 4:30:00 PM 15.55 59.99 0.492 7.99 151.4 9.17
9/29/2021 4:45:00 PM 15.59 60.062 0.489 7.99 155.1 9.08
9/29/2021 5:00:00 PM 15.65 60.17 0.484 7.98 125.1 8.99
9/29/2021 5:15:00 PM 15.69 60.242 0.484 7.98 155 8.89
9/29/2021 5:30:00 PM 15.7 60.26 0.482 7.97 114.7 8.72
9/29/2021 5:45:00 PM 15.71 60.278 0.483 7.96 115.6 8.58
9/29/2021 6:00:00 PM 15.73 60.314 0.484 7.95 73.67 8.48
9/29/2021 6:15:00 PM 15.75 60.35 0.482 7.95 158.6 8.37
9/29/2021 6:30:00 PM 15.75 60.35 0.484 7.94 131.8 8.24
9/29/2021 6:45:00 PM 15.75 60.35 0.485 7.93 151 8.13
9/29/2021 7:00:00 PM 15.74 60.332 0.487 7.92 138.7 8.02
9/29/2021 7:15:00 PM 15.72 60.296 0.487 7.91 97.71 7.91
9/29/2021 7:30:00 PM 15.7 60.26 0.487 7.91 141.2 7.8
9/29/2021 7:45:00 PM 15.66 60.188 0.49 7.9 163.4 7.69
9/29/2021 8:00:00 PM 15.61 60.098 0.492 7.88 152.3 7.59
9/29/2021 8:15:00 PM 15.54 59.972 0.493 7.87 147.5 7.51
9/29/2021 8:30:00 PM 15.47 59.846 0.497 7.86 163.9 7.42
9/29/2021 8:45:00 PM 15.39 59.702 0.497 7.86 149.4 7.35
9/29/2021 9:00:00 PM 15.3 59.54 0.501 7.85 143.5 7.29
9/29/2021 9:15:00 PM 15.2 59.36 0.501 7.84 154 7.22
9/29/2021 9:30:00 PM 15.09 59.162 0.502 7.83 146.4 7.17
9/29/2021 9:45:00 PM 14.98 58.964 0.504 7.84 136.8 7.12
9/29/2021 10:00:00 PM 14.87 58.766 0.507 7.82 161.1 7.08
9/29/2021 10:15:00 PM 14.76 58.568 0.508 7.81 133.9 7.05
9/29/2021 10:30:00 PM 14.66 58.388 0.508 7.8 145 7.03
9/29/2021 10:45:00 PM 14.55 58.19 0.509 7.81 154.1 7.01
9/29/2021 11:00:00 PM 14.45 58.01 0.508 7.8 149.7 7
9/29/2021 11:15:00 PM 14.34 57.812 0.51 7.79 143.9 6.98
9/29/2021 11:30:00 PM 14.23 57.614 0.509 7.8 141.2 6.97
9/29/2021 11:45:00 PM 14.12 57.416 0.513 7.79 128.9 6.97
9/30/2021 12:00:00 AM 14.02 57.236 0.51 7.79 165.2 6.97
9/30/2021 12:15:00 AM 13.91 57.038 0.511 7.79 186.4 6.97
9/30/2021 12:30:00 AM 13.8 56.84 0.512 7.79 157.8 6.98
9/30/2021 12:45:00 AM 13.7 56.66 0.513 7.78 173.2 6.99
9/30/2021 1:00:00 AM 13.59 56.462 0.512 7.78 152.4 6.99
9/30/2021 1:15:00 AM 13.49 56.282 0.512 7.78 168.2 7
9/30/2021 1:30:00 AM 13.39 56.102 0.512 7.77 173.6 7.01
9/30/2021 1:45:00 AM 13.29 55.922 0.513 7.77 180 7.02
9/30/2021 2:00:00 AM 13.2 55.76 0.512 7.78 154 7.04
9/30/2021 2:15:00 AM 13.1 55.58 0.511 7.78 166.1 7.07
9/30/2021 2:30:00 AM 13.01 55.418 0.513 7.78 170.7 7.08
9/30/2021 2:45:00 AM 12.92 55.256 0.512 7.77 152.6 7.1
9/30/2021 3:00:00 AM 12.83 55.094 0.512 7.77 164.3 7.11
9/30/2021 3:15:00 AM 12.75 54.95 0.511 7.77 158.6 7.13
9/30/2021 3:30:00 AM 12.67 54.806 0.511 7.77 153.4 7.15
9/30/2021 3:45:00 AM 12.59 54.662 0.513 7.79 162.7 7.16
9/30/2021 4:00:00 AM 12.52 54.536 0.512 7.79 165.3 7.18
9/30/2021 4:15:00 AM 12.45 54.41 0.512 7.78 180.7 7.19
9/30/2021 4:30:00 AM 12.38 54.284 0.514 7.79 182.6 7.21
9/30/2021 4:45:00 AM 12.32 54.176 0.515 7.78 176.4 7.22
9/30/2021 5:00:00 AM 12.26 54.068 0.513 7.78 167.3 7.24
9/30/2021 5:15:00 AM 12.2 53.96 0.513 7.78 175.8 7.24
9/30/2021 5:30:00 AM 12.14 53.852 0.515 7.77 177.3 7.26
9/30/2021 5:45:00 AM 12.09 53.762 0.514 7.78 181.3 7.27
9/30/2021 6:00:00 AM 12.04 53.672 0.511 7.77 148.9 7.28
9/30/2021 6:15:00 AM 11.99 53.582 0.511 7.79 151.9 7.3
9/30/2021 6:30:00 AM 11.94 53.492 0.512 7.78 150 7.3
9/30/2021 6:45:00 AM 11.9 53.42 0.514 7.78 158.2 7.31
9/30/2021 7:00:00 AM 11.86 53.348 0.512 7.77 162.5 7.33
9/30/2021 7:15:00 AM 11.82 53.276 0.511 7.77 179.8 7.34
9/30/2021 7:30:00 AM 11.78 53.204 0.513 7.77 177.6 7.35
9/30/2021 7:45:00 AM 11.75 53.15 0.512 7.78 183 7.39
9/30/2021 8:00:00 AM 11.72 53.096 0.512 7.78 165.3 7.42
9/30/2021 8:15:00 AM 11.7 53.06 0.512 7.78 179.9 7.47
9/30/2021 8:30:00 AM 11.7 53.06 0.513 7.78 171.4 7.53
9/30/2021 8:45:00 AM 11.7 53.06 0.512 7.79 196.6 7.59
9/30/2021 9:00:00 AM 11.72 53.096 0.512 7.79 203.8 7.67
9/30/2021 9:15:00 AM 11.74 53.132 0.512 7.79 185.3 7.75
9/30/2021 9:30:00 AM 11.78 53.204 0.512 7.8 175.9 7.83
9/30/2021 9:45:00 AM 11.82 53.276 0.511 7.8 161.4 7.92